Darstellungsparameter: Aktuell verwendete Einstellungen:
Skalierung der Graphiken ... ?
xyx+y,   Skalierungsfaktor:      Skalierung: Modus: x, Faktor: 1
Darstellungszeitraum ... ?
Vom - - bis: - -   Zeitraum: 09.02.2011 - 08.08.2011
Min/Max/Avg-Anzeige ... ?
Zeige MMA aktuell
Zeige MMA Monat
Zeige MMA alles
Zeige --A aktuell
Zeige --A Monat
Zeige --A alles
Keine MMA-Anzeige
MMA:
Minimum Maximum Average (ber die Originaldaten)
MMA-Basis: 09.02.2011 - 08.08.2011
Quicknavigation für Darstellung... ?
Tage:      1T, 2T, 3T, 5T -1T -2T -3T -5T +1T +2T +3T +5T
Wochen: 1W, 2W, 3W -1W -2W -3W +1W +2W +3W
Monate: 1M, 3M, 6M -1M -3M -6M +1M +3M +6M
Jahre:    1J, 3J, 5J, 10J -1J -3J -5J -10J +1J +3J +5J +10J
Nutze für die Darstellung ... ?
Originaldaten oder Mittelwerte auf ...
Stundenbasis Tagesbasis Wochenbasis
Monatsbasis Jahresbasis      Datenbasis: Original-Daten
Darstellen als:
Statistik (Auto) Statistik J:M      Darstellung:
Zur Graphik,    zurück zur Übersicht aller Sensoren.
 
Tabellarische Datenbersicht: ?
 
Sensor: Nr:Datum:Temp:Feuchte:Taupunkt:
Aussen-T/F 1 09-02-2011 00:05:06 -2.6 C 85 % -4.77 C
2 09-02-2011 00:17:06 -2.7 C 86 % -4.71 C
3 09-02-2011 00:29:06 -2.6 C 86 % -4.61 C
4 09-02-2011 00:41:06 -2.8 C 86 % -4.81 C
5 09-02-2011 00:53:06 -3 C 86 % -5.01 C
6 09-02-2011 01:05:06 -3.1 C 86 % -5.1 C
7 09-02-2011 01:17:06 -3.1 C 86 % -5.1 C
8 09-02-2011 01:29:07 -3.3 C 86 % -5.3 C
9 09-02-2011 01:41:07 -3.3 C 86 % -5.3 C
10 09-02-2011 01:53:07 -3.2 C 86 % -5.2 C
11 09-02-2011 02:05:07 -3.4 C 86 % -5.4 C
12 09-02-2011 02:17:07 -3.4 C 86 % -5.4 C
13 09-02-2011 02:29:07 -3.2 C 87 % -5.05 C
14 09-02-2011 02:41:07 -3.2 C 87 % -5.05 C
15 09-02-2011 02:53:07 -3.7 C 87 % -5.54 C
16 09-02-2011 03:05:07 -3.8 C 87 % -5.64 C
17 09-02-2011 03:17:07 -3.7 C 87 % -5.54 C
18 09-02-2011 03:29:07 -3.8 C 87 % -5.64 C
19 09-02-2011 03:41:07 -3.8 C 87 % -5.64 C
20 09-02-2011 03:53:07 -3.8 C 87 % -5.64 C
21 09-02-2011 04:05:07 -4 C 87 % -5.84 C
22 09-02-2011 04:17:07 -4.2 C 87 % -6.03 C
23 09-02-2011 04:29:07 -3.8 C 88 % -5.49 C
24 09-02-2011 04:41:07 -4 C 87 % -5.84 C
25 09-02-2011 04:53:07 -4.2 C 87 % -6.03 C
Sensor: Nr:Datum:Temp:Feuchte:Taupunkt:
Aussen-T/F 26 09-02-2011 05:05:07 -4.2 C 87 % -6.03 C
27 09-02-2011 05:17:07 -4.1 C 87 % -5.94 C
28 09-02-2011 05:29:07 -4.1 C 87 % -5.94 C
29 09-02-2011 05:41:08 -4.4 C 87 % -6.23 C
30 09-02-2011 05:53:08 -4.5 C 87 % -6.33 C
31 09-02-2011 06:05:08 -4.7 C 87 % -6.53 C
32 09-02-2011 06:17:08 -4.5 C 87 % -6.33 C
33 09-02-2011 06:29:08 -4 C 87 % -5.84 C
34 09-02-2011 06:41:08 -3.6 C 87 % -5.44 C
35 09-02-2011 06:53:08 -3.5 C 87 % -5.35 C
36 09-02-2011 07:05:08 -3.5 C 87 % -5.35 C
37 09-02-2011 07:17:03 -3.5 C 87 % -5.35 C
38 09-02-2011 07:29:03 -3.3 C 87 % -5.15 C
39 09-02-2011 07:41:03 -3.3 C 87 % -5.15 C
40 09-02-2011 07:53:03 -3.5 C 87 % -5.35 C
41 09-02-2011 08:05:02 -3.2 C 88 % -4.9 C
42 09-02-2011 08:17:02 -3.3 C 88 % -5 C
43 09-02-2011 08:29:03 -3.3 C 88 % -5 C
44 09-02-2011 08:41:02 -3.1 C 88 % -4.8 C
45 09-02-2011 08:53:02 -3.1 C 88 % -4.8 C
46 09-02-2011 09:05:01 -3 C 88 % -4.7 C
47 09-02-2011 09:17:02 -2.8 C 88 % -4.51 C
48 09-02-2011 09:29:02 -2.8 C 88 % -4.51 C
49 09-02-2011 09:41:02 -2.8 C 88 % -4.51 C
50 09-02-2011 09:53:01 -2.4 C 88 % -4.11 C
Sensor: Nr:Datum:Temp:Feuchte:Taupunkt:
Aussen-T/F 51 09-02-2011 10:05:02 -2.2 C 88 % -3.91 C
52 09-02-2011 10:17:02 -2.4 C 88 % -4.11 C
53 09-02-2011 10:29:02 -2.3 C 88 % -4.01 C
54 09-02-2011 10:41:01 -1.7 C 88 % -3.42 C
55 09-02-2011 10:53:02 -1.4 C 88 % -3.13 C
56 09-02-2011 11:05:02 -1.4 C 87 % -3.28 C
57 09-02-2011 11:17:02 -0.7 C 88 % -2.44 C
58 09-02-2011 11:29:02 -0.5 C 87 % -2.39 C
59 09-02-2011 11:41:02 0.1 C 87 % -1.8 C
60 09-02-2011 11:53:02 -0.4 C 86 % -2.45 C
61 09-02-2011 12:05:01 0.2 C 86 % -1.86 C
62 09-02-2011 12:17:02 -0.1 C 85 % -2.31 C
63 09-02-2011 12:29:02 1 C 84 % -1.39 C
64 09-02-2011 12:41:02 1.1 C 83 % -1.46 C
65 09-02-2011 12:53:02 2.3 C 83 % -0.28 C
66 09-02-2011 13:05:02 3.6 C 80 % 0.48 C
67 09-02-2011 13:17:02 3.3 C 75 % -0.7 C
68 09-02-2011 13:29:02 2.2 C 75 % -1.76 C
69 09-02-2011 13:41:02 1.6 C 80 % -1.47 C
70 09-02-2011 13:53:02 1.7 C 82 % -1.03 C
71 09-02-2011 14:05:02 2.2 C 82 % -0.55 C
72 09-02-2011 14:17:02 2.9 C 82 % 0.14 C
73 09-02-2011 14:29:02 3.8 C 80 % 0.68 C
74 09-02-2011 14:41:02 4.7 C 76 % 0.84 C
75 09-02-2011 14:53:02 4.4 C 73 % 0 C
Sensor: Nr:Datum:Temp:Feuchte:Taupunkt:
Aussen-T/F 76 09-02-2011 15:05:02 4.6 C 73 % 0.19 C
77 09-02-2011 15:17:02 4.3 C 73 % -0.1 C
78 09-02-2011 15:29:02 5.1 C 73 % 0.67 C
79 09-02-2011 15:41:02 6 C 67 % 0.35 C
80 09-02-2011 15:53:02 6.1 C 67 % 0.44 C
81 09-02-2011 16:05:02 6.9 C 62 % 0.14 C
82 09-02-2011 16:17:02 8 C 55 % -0.47 C
83 09-02-2011 16:29:02 10.5 C 46 % -0.61 C
84 09-02-2011 16:41:02 8.4 C 47 % -2.24 C
85 09-02-2011 16:53:02 7 C 52 % -2.17 C
86 09-02-2011 17:05:01 4.8 C 63 % -1.63 C
87 09-02-2011 17:17:02 4.1 C 68 % -1.26 C
88 09-02-2011 17:29:02 3.5 C 72 % -1.06 C
89 09-02-2011 17:41:02 3 C 75 % -0.99 C
90 09-02-2011 17:53:02 2.9 C 77 % -0.72 C
91 09-02-2011 18:05:03 2.7 C 78 % -0.74 C
92 09-02-2011 18:17:02 3.3 C 77 % -0.34 C
93 09-02-2011 18:29:02 3.1 C 77 % -0.53 C
94 09-02-2011 18:41:02 3.1 C 77 % -0.53 C
95 09-02-2011 18:53:01 3 C 78 % -0.45 C
96 09-02-2011 19:05:02 2.6 C 79 % -0.67 C
97 09-02-2011 19:17:01 2.7 C 80 % -0.4 C
98 09-02-2011 19:29:01 2.4 C 81 % -0.52 C
99 09-02-2011 19:41:02 2.3 C 82 % -0.45 C
100 09-02-2011 19:53:01 2 C 82 % -0.74 C
Sensor: Nr:Datum:Temp:Feuchte:Taupunkt:
Aussen-T/F 101 09-02-2011 20:05:02 1.6 C 83 % -0.97 C
102 09-02-2011 20:17:02 1.7 C 84 % -0.71 C
103 09-02-2011 20:29:02 1.2 C 85 % -1.03 C
104 09-02-2011 20:41:01 1.3 C 85 % -0.94 C
105 09-02-2011 20:53:01 1.7 C 87 % -0.23 C
106 09-02-2011 21:05:01 1.3 C 87 % -0.62 C
107 09-02-2011 21:17:02 1.3 C 87 % -0.62 C
108 09-02-2011 21:29:02 0.6 C 87 % -1.31 C
109 09-02-2011 21:41:01 0.6 C 88 % -1.15 C
110 09-02-2011 21:54:28 0.8 C 88 % -0.96 C
111 09-02-2011 22:06:28 0.8 C 88 % -0.96 C
112 09-02-2011 22:18:28 0.2 C 88 % -1.55 C
113 09-02-2011 22:30:28 0 C 88 % -1.74 C
114 09-02-2011 22:42:28 -0.3 C 88 % -2.04 C
115 09-02-2011 22:54:29 -0.3 C 88 % -2.04 C
116 09-02-2011 23:06:29 -0.4 C 88 % -2.14 C
117 09-02-2011 23:18:29 -0.3 C 89 % -1.89 C
118 09-02-2011 23:30:29 -0.3 C 89 % -1.89 C
119 09-02-2011 23:42:29 0.2 C 89 % -1.39 C
120 09-02-2011 23:54:29 0.1 C 89 % -1.49 C
121 10-02-2011 00:06:29 -0.1 C 89 % -1.69 C
122 10-02-2011 00:18:29 -0.3 C 89 % -1.89 C
123 10-02-2011 00:30:29 -0.3 C 89 % -1.89 C
124 10-02-2011 00:42:29 -0.4 C 89 % -1.99 C
125 10-02-2011 00:54:29 -0.3 C 90 % -1.74 C
Sensor: Nr:Datum:Temp:Feuchte:Taupunkt:
Aussen-T/F 126 10-02-2011 01:06:29 -0.5 C 90 % -1.93 C
127 10-02-2011 01:18:29 -0.9 C 90 % -2.33 C
128 10-02-2011 01:30:29 -1.1 C 89 % -2.68 C
129 10-02-2011 01:42:29 -0.6 C 90 % -2.03 C
130 10-02-2011 01:54:29 -1 C 90 % -2.43 C
131 10-02-2011 02:06:29 -1.3 C 90 % -2.73 C
132 10-02-2011 02:18:29 -1.3 C 90 % -2.73 C
133 10-02-2011 02:30:29 -1.2 C 90 % -2.63 C
134 10-02-2011 02:42:29 -1.2 C 90 % -2.63 C
135 10-02-2011 02:54:30 -1.1 C 90 % -2.53 C
136 10-02-2011 03:06:30 -1.1 C 90 % -2.53 C
137 10-02-2011 03:18:30 -1.1 C 90 % -2.53 C
138 10-02-2011 03:30:30 -1.4 C 90 % -2.82 C
139 10-02-2011 03:42:30 -1.6 C 90 % -3.02 C
140 10-02-2011 03:54:30 -1.1 C 90 % -2.53 C
141 10-02-2011 04:06:30 -0.8 C 90 % -2.23 C
142 10-02-2011 04:18:30 -0.4 C 91 % -1.69 C
143 10-02-2011 04:30:30 -0.4 C 91 % -1.69 C
144 10-02-2011 04:42:30 0.1 C 91 % -1.19 C
145 10-02-2011 04:54:30 0.4 C 92 % -0.74 C
146 10-02-2011 05:06:30 0.5 C 92 % -0.65 C
147 10-02-2011 05:18:30 0.5 C 92 % -0.65 C
148 10-02-2011 05:30:30 0.6 C 92 % -0.55 C
149 10-02-2011 05:42:30 0.6 C 92 % -0.55 C
150 10-02-2011 05:54:30 0.6 C 92 % -0.55 C
Sensor: Nr:Datum:Temp:Feuchte:Taupunkt:
Aussen-T/F 151 10-02-2011 06:06:30 0.8 C 92 % -0.35 C
152 10-02-2011 06:18:30 0.8 C 92 % -0.35 C
153 10-02-2011 06:30:30 1.1 C 92 % -0.05 C
154 10-02-2011 06:42:30 1 C 92 % -0.15 C
155 10-02-2011 06:54:31 1.1 C 92 % -0.05 C
156 10-02-2011 07:06:31 1 C 92 % -0.15 C
157 10-02-2011 07:18:31 1 C 92 % -0.15 C
158 10-02-2011 07:30:31 1.1 C 92 % -0.05 C
159 10-02-2011 07:42:31 1.2 C 92 % 0.05 C
160 10-02-2011 07:54:02 1.2 C 92 % 0.05 C
161 10-02-2011 08:06:02 1.3 C 92 % 0.15 C
162 10-02-2011 08:18:02 1.3 C 92 % 0.15 C
163 10-02-2011 08:30:02 1.4 C 92 % 0.25 C
164 10-02-2011 08:42:02 1.3 C 92 % 0.15 C
165 10-02-2011 08:54:02 1.4 C 92 % 0.25 C
166 10-02-2011 09:06:02 1.5 C 92 % 0.35 C
167 10-02-2011 09:18:02 1.7 C 91 % 0.39 C
168 10-02-2011 09:30:02 1.5 C 90 % 0.04 C
169 10-02-2011 09:42:02 1.7 C 89 % 0.09 C
170 10-02-2011 09:54:01 1.8 C 88 % 0.03 C
171 10-02-2011 10:06:02 2.1 C 86 % 0.01 C
172 10-02-2011 10:18:01 2.7 C 84 % 0.27 C
173 10-02-2011 10:30:01 2.9 C 80 % -0.2 C
174 10-02-2011 10:42:02 3.6 C 78 % 0.13 C
175 10-02-2011 10:54:02 3.8 C 75 % -0.21 C
Sensor: Nr:Datum:Temp:Feuchte:Taupunkt:
Aussen-T/F 176 10-02-2011 11:06:02 4.4 C 71 % -0.39 C
177 10-02-2011 11:18:02 4.6 C 69 % -0.58 C
178 10-02-2011 11:30:02 5.1 C 66 % -0.71 C
179 10-02-2011 11:42:02 4.9 C 66 % -0.91 C
180 10-02-2011 11:54:02 4.9 C 67 % -0.7 C
181 10-02-2011 12:06:02 5.7 C 64 % -0.56 C
182 10-02-2011 12:18:02 5.6 C 63 % -0.87 C
183 10-02-2011 12:30:02 5.8 C 63 % -0.69 C
184 10-02-2011 12:42:02 5.8 C 62 % -0.9 C
185 10-02-2011 12:54:02 5.9 C 63 % -0.59 C
186 10-02-2011 13:06:03 5.9 C 62 % -0.81 C
187 10-02-2011 13:18:02 6.3 C 60 % -0.88 C
188 10-02-2011 13:30:02 6.3 C 60 % -0.88 C
189 10-02-2011 13:42:02 6.3 C 60 % -0.88 C
190 10-02-2011 13:54:01 6.5 C 60 % -0.69 C
191 10-02-2011 14:06:02 6.9 C 59 % -0.54 C
192 10-02-2011 14:18:01 7.7 C 57 % -0.27 C
193 10-02-2011 14:30:01 8.2 C 56 % -0.04 C
194 10-02-2011 14:42:02 8 C 55 % -0.47 C
195 10-02-2011 14:54:01 7.4 C 58 % -0.31 C
196 10-02-2011 15:06:02 7.8 C 58 % 0.07 C
197 10-02-2011 15:18:02 8.1 C 58 % 0.35 C
198 10-02-2011 15:30:02 7.7 C 60 % 0.44 C
199 10-02-2011 15:42:01 7.9 C 59 % 0.4 C
200 10-02-2011 15:54:01 7.1 C 61 % 0.1 C
Sensor: Nr:Datum:Temp:Feuchte:Taupunkt:
Aussen-T/F 201 10-02-2011 16:06:01 6.9 C 64 % 0.57 C
202 10-02-2011 16:18:02 6.8 C 65 % 0.69 C
203 10-02-2011 16:30:02 7 C 64 % 0.67 C
204 10-02-2011 16:42:01 6.9 C 66 % 1 C
205 10-02-2011 16:54:02 6.8 C 68 % 1.32 C
206 10-02-2011 17:06:01 6.8 C 68 % 1.32 C
207 10-02-2011 17:18:02 6.2 C 72 % 1.54 C
208 10-02-2011 17:30:02 5.9 C 75 % 1.82 C
209 10-02-2011 17:42:01 5.6 C 78 % 2.07 C
210 10-02-2011 17:54:03 5.5 C 79 % 2.16 C
211 10-02-2011 18:06:02 5.6 C 81 % 2.6 C
212 10-02-2011 18:18:02 5.5 C 81 % 2.51 C
213 10-02-2011 18:30:02 5.6 C 82 % 2.78 C
214 10-02-2011 18:42:02 5.6 C 83 % 2.95 C
215 10-02-2011 18:54:02 5.6 C 83 % 2.95 C
216 10-02-2011 19:06:01 5.5 C 83 % 2.85 C
217 10-02-2011 19:18:02 5.5 C 83 % 2.85 C
218 10-02-2011 19:30:02 5.6 C 83 % 2.95 C
219 10-02-2011 19:42:02 5.9 C 83 % 3.24 C
220 10-02-2011 19:54:02 6.1 C 81 % 3.09 C
221 10-02-2011 20:06:01 6.6 C 79 % 3.23 C
222 10-02-2011 20:18:01 7 C 76 % 3.07 C
223 10-02-2011 20:30:01 7.3 C 73 % 2.79 C
224 10-02-2011 20:42:02 7.8 C 72 % 3.08 C
225 10-02-2011 20:54:02 7.7 C 72 % 2.98 C
Sensor: Nr:Datum:Temp:Feuchte:Taupunkt:
Aussen-T/F 226 10-02-2011 21:06:02 8 C 71 % 3.07 C
227 10-02-2011 21:18:02 8.4 C 71 % 3.46 C
228 10-02-2011 21:30:02 8.1 C 71 % 3.17 C
229 10-02-2011 21:42:02 8.5 C 72 % 3.75 C
230 10-02-2011 21:54:02 8.6 C 72 % 3.85 C
231 10-02-2011 22:06:02 8.4 C 72 % 3.65 C
232 10-02-2011 22:19:04 8.5 C 73 % 3.95 C
233 10-02-2011 22:31:04 8.6 C 73 % 4.04 C
234 10-02-2011 22:43:04 8.5 C 73 % 3.95 C
235 10-02-2011 22:55:04 8.6 C 74 % 4.24 C
236 10-02-2011 23:07:04 9.3 C 70 % 4.12 C
237 10-02-2011 23:19:04 9.2 C 70 % 4.02 C
238 10-02-2011 23:31:04 9.4 C 70 % 4.21 C
239 10-02-2011 23:43:04 9.3 C 70 % 4.12 C
240 10-02-2011 23:55:04 9.5 C 69 % 4.11 C
241 11-02-2011 00:07:05 9.6 C 69 % 4.2 C
242 11-02-2011 00:19:05 9.4 C 70 % 4.21 C
243 11-02-2011 00:31:05 9.4 C 71 % 4.42 C
244 11-02-2011 00:43:05 9.5 C 71 % 4.51 C
245 11-02-2011 00:55:05 9.4 C 71 % 4.42 C
246 11-02-2011 01:07:05 9.6 C 71 % 4.61 C
247 11-02-2011 01:19:05 9.5 C 71 % 4.51 C
248 11-02-2011 01:31:05 9.4 C 72 % 4.62 C
249 11-02-2011 01:43:05 9.3 C 73 % 4.72 C
250 11-02-2011 01:55:05 9.4 C 73 % 4.81 C
Sensor: Nr:Datum:Temp:Feuchte:Taupunkt:
Aussen-T/F 251 11-02-2011 02:07:05 9.7 C 73 % 5.1 C
252 11-02-2011 02:19:05 9.4 C 72 % 4.62 C
253 11-02-2011 02:31:05 9.7 C 73 % 5.1 C
254 11-02-2011 02:43:05 9.3 C 73 % 4.72 C
255 11-02-2011 02:55:05 9.2 C 74 % 4.81 C
256 11-02-2011 03:07:05 8.9 C 78 % 5.28 C
257 11-02-2011 03:19:05 9 C 77 % 5.19 C
258 11-02-2011 03:31:05 9.1 C 77 % 5.29 C
259 11-02-2011 03:43:05 8.9 C 78 % 5.28 C
260 11-02-2011 03:55:05 9.1 C 77 % 5.29 C
261 11-02-2011 04:07:06 9.1 C 76 % 5.1 C
262 11-02-2011 04:19:06 8.9 C 78 % 5.28 C
263 11-02-2011 04:31:06 9.2 C 77 % 5.38 C
264 11-02-2011 04:43:06 9.2 C 75 % 5.01 C
265 11-02-2011 04:55:06 9.4 C 75 % 5.2 C
266 11-02-2011 05:07:06 9.3 C 74 % 4.91 C
267 11-02-2011 05:19:06 9.4 C 74 % 5.01 C
268 11-02-2011 05:31:06 9.1 C 75 % 4.91 C
269 11-02-2011 05:43:06 9.3 C 75 % 5.1 C
270 11-02-2011 05:55:06 9.4 C 74 % 5.01 C
271 11-02-2011 06:07:06 9.2 C 76 % 5.2 C
272 11-02-2011 06:19:06 9.1 C 77 % 5.29 C
273 11-02-2011 06:31:06 9.1 C 78 % 5.47 C
274 11-02-2011 06:43:06 9.2 C 78 % 5.57 C
275 11-02-2011 06:55:06 8.9 C 80 % 5.64 C
Sensor: Nr:Datum:Temp:Feuchte:Taupunkt:
Aussen-T/F 276 11-02-2011 07:07:06 9 C 79 % 5.56 C
277 11-02-2011 07:19:06 9.1 C 78 % 5.47 C
278 11-02-2011 07:31:03 9.2 C 78 % 5.57 C
279 11-02-2011 07:43:03 9.3 C 77 % 5.48 C
280 11-02-2011 07:55:01 9.1 C 78 % 5.47 C
281 11-02-2011 08:07:02 9.1 C 78 % 5.47 C
282 11-02-2011 08:19:01 9.2 C 78 % 5.57 C
283 11-02-2011 08:31:02 9.3 C 77 % 5.48 C
284 11-02-2011 08:43:02 9.3 C 77 % 5.48 C
285 11-02-2011 08:55:02 9.5 C 76 % 5.49 C
286 11-02-2011 09:07:02 9.6 C 75 % 5.39 C
287 11-02-2011 09:19:01 10 C 73 % 5.39 C
288 11-02-2011 09:31:02 9.9 C 73 % 5.29 C
289 11-02-2011 09:43:02 9.8 C 74 % 5.39 C
290 11-02-2011 09:55:02 10.3 C 73 % 5.68 C
291 11-02-2011 10:07:02 10.8 C 71 % 5.76 C
292 11-02-2011 10:19:02 10.7 C 70 % 5.46 C
293 11-02-2011 10:31:02 10.7 C 71 % 5.66 C
294 11-02-2011 10:43:02 11 C 69 % 5.54 C
295 11-02-2011 10:55:01 10.9 C 70 % 5.65 C
296 11-02-2011 11:07:02 11 C 69 % 5.54 C
297 11-02-2011 11:19:01 11 C 69 % 5.54 C
298 11-02-2011 11:31:01 11 C 70 % 5.75 C
299 11-02-2011 11:43:01 11.4 C 68 % 5.71 C
300 11-02-2011 11:55:02 12 C 67 % 6.07 C
Sensor: Nr:Datum:Temp:Feuchte:Taupunkt:
Aussen-T/F 301 11-02-2011 12:07:02 12.3 C 65 % 5.92 C
302 11-02-2011 12:19:01 12.7 C 64 % 6.07 C
303 11-02-2011 12:31:02 12.6 C 63 % 5.75 C
304 11-02-2011 12:43:02 12.6 C 63 % 5.75 C
305 11-02-2011 12:55:02 11.9 C 66 % 5.76 C
306 11-02-2011 13:07:02 11.3 C 71 % 6.24 C
307 11-02-2011 13:19:02 11.4 C 71 % 6.34 C
308 11-02-2011 13:31:02 11.6 C 70 % 6.32 C
309 11-02-2011 13:43:02 11.1 C 71 % 6.05 C
310 11-02-2011 13:55:02 11 C 74 % 6.55 C
311 11-02-2011 14:07:03 10.8 C 76 % 6.75 C
312 11-02-2011 14:19:02 11 C 74 % 6.55 C
313 11-02-2011 14:31:02 10.8 C 75 % 6.55 C
314 11-02-2011 14:43:03 10.9 C 76 % 6.84 C
315 11-02-2011 14:55:01 10.9 C 76 % 6.84 C
316 11-02-2011 15:07:02 11 C 75 % 6.75 C
317 11-02-2011 15:19:02 11.1 C 74 % 6.65 C
318 11-02-2011 15:31:02 10.9 C 75 % 6.65 C
319 11-02-2011 15:43:02 11.2 C 75 % 6.94 C
320 11-02-2011 15:55:01 11.4 C 74 % 6.94 C
321 11-02-2011 16:07:02 11.5 C 73 % 6.84 C
322 11-02-2011 16:19:02 11.4 C 73 % 6.74 C
323 11-02-2011 16:31:01 11.4 C 72 % 6.54 C
324 11-02-2011 16:43:01 11.4 C 73 % 6.74 C
325 11-02-2011 16:55:01 11.5 C 72 % 6.63 C
Sensor: Nr:Datum:Temp:Feuchte:Taupunkt:
Aussen-T/F 326 11-02-2011 17:07:01 11.4 C 72 % 6.54 C
327 11-02-2011 17:19:02 11.3 C 72 % 6.44 C
328 11-02-2011 17:31:01 11.3 C 72 % 6.44 C
329 11-02-2011 17:43:01 11.1 C 73 % 6.45 C
330 11-02-2011 17:55:02 11.1 C 73 % 6.45 C
331 11-02-2011 18:07:01 10.6 C 76 % 6.55 C
332 11-02-2011 18:19:02 10.2 C 79 % 6.73 C
333 11-02-2011 18:31:01 10.3 C 80 % 7.01 C
334 11-02-2011 18:43:01 10.4 C 81 % 7.28 C
335 11-02-2011 18:55:03 10.4 C 80 % 7.1 C
336 11-02-2011 19:07:02 10.6 C 79 % 7.11 C
337 11-02-2011 19:19:02 10.7 C 78 % 7.03 C
338 11-02-2011 19:31:02 10.3 C 78 % 6.64 C
339 11-02-2011 19:43:02 10.8 C 77 % 6.94 C
340 11-02-2011 19:55:02 10.2 C 78 % 6.54 C
341 11-02-2011 20:07:02 10.3 C 79 % 6.82 C
342 11-02-2011 20:19:02 10.7 C 77 % 6.84 C
343 11-02-2011 20:31:02 10.7 C 75 % 6.46 C
344 11-02-2011 20:43:02 10.9 C 74 % 6.45 C
345 11-02-2011 20:55:02 10.3 C 76 % 6.26 C
346 11-02-2011 21:07:01 10.8 C 76 % 6.75 C
347 11-02-2011 21:19:01 11 C 73 % 6.35 C
348 11-02-2011 21:31:02 10.9 C 73 % 6.26 C
349 11-02-2011 21:43:02 10.7 C 74 % 6.26 C
350 11-02-2011 21:56:03 10.2 C 74 % 5.78 C
Sensor: Nr:Datum:Temp:Feuchte:Taupunkt:
Aussen-T/F 351 11-02-2011 22:08:03 10.4 C 75 % 6.17 C
352 11-02-2011 22:20:04 10 C 75 % 5.78 C
353 11-02-2011 22:32:04 10.1 C 75 % 5.88 C
354 11-02-2011 22:44:04 10.1 C 75 % 5.88 C
355 11-02-2011 22:56:04 9.7 C 78 % 6.06 C
356 11-02-2011 23:08:04 9.6 C 78 % 5.96 C
357 11-02-2011 23:20:04 9.9 C 78 % 6.25 C
358 11-02-2011 23:32:04 9.7 C 78 % 6.06 C
359 11-02-2011 23:44:04 9.5 C 79 % 6.05 C
360 11-02-2011 23:56:04 10 C 78 % 6.35 C
361 12-02-2011 00:08:04 10.3 C 77 % 6.45 C
362 12-02-2011 00:20:04 10.5 C 76 % 6.45 C
363 12-02-2011 00:32:04 10.1 C 76 % 6.07 C
364 12-02-2011 00:44:04 9.6 C 79 % 6.14 C
365 12-02-2011 00:56:04 9.3 C 81 % 6.21 C
366 12-02-2011 01:08:04 9.3 C 83 % 6.57 C
367 12-02-2011 01:20:04 9.1 C 84 % 6.54 C
368 12-02-2011 01:32:04 9.1 C 85 % 6.72 C
369 12-02-2011 01:44:04 8.9 C 86 % 6.69 C
370 12-02-2011 01:56:04 8.7 C 87 % 6.66 C
371 12-02-2011 02:08:04 8.7 C 87 % 6.66 C
372 12-02-2011 02:20:05 8.6 C 87 % 6.56 C
373 12-02-2011 02:32:05 8.6 C 88 % 6.73 C
374 12-02-2011 02:44:05 8.6 C 88 % 6.73 C
375 12-02-2011 02:56:05 8.5 C 88 % 6.63 C
Sensor: Nr:Datum:Temp:Feuchte:Taupunkt:
Aussen-T/F 376 12-02-2011 03:08:05 8.4 C 88 % 6.53 C
377 12-02-2011 03:20:05 8.3 C 88 % 6.43 C
378 12-02-2011 03:32:05 8.2 C 89 % 6.5 C
379 12-02-2011 03:44:05 8.3 C 89 % 6.6 C
380 12-02-2011 03:56:05 8.2 C 89 % 6.5 C
381 12-02-2011 04:08:05 8.1 C 89 % 6.4 C
382 12-02-2011 04:20:05 7.9 C 90 % 6.36 C
383 12-02-2011 04:32:05 7.5 C 90 % 5.97 C
384 12-02-2011 04:44:05 7.4 C 90 % 5.87 C
385 12-02-2011 04:56:05 7.4 C 90 % 5.87 C
386 12-02-2011 05:08:05 7.3 C 90 % 5.77 C
387 12-02-2011 05:20:05 7.5 C 90 % 5.97 C
388 12-02-2011 05:32:05 7.7 C 90 % 6.17 C
389 12-02-2011 05:44:05 7.7 C 90 % 6.17 C
390 12-02-2011 05:56:05 7.8 C 91 % 6.43 C
391 12-02-2011 06:08:05 7.5 C 90 % 5.97 C
392 12-02-2011 06:20:06 7 C 90 % 5.48 C
393 12-02-2011 06:32:06 6.7 C 90 % 5.18 C
394 12-02-2011 06:44:06 6.6 C 89 % 4.92 C
395 12-02-2011 06:56:06 6.3 C 87 % 4.3 C
396 12-02-2011 07:08:06 6 C 84 % 3.51 C
397 12-02-2011 07:20:06 5.9 C 81 % 2.9 C
398 12-02-2011 07:32:06 5.8 C 80 % 2.62 C
399 12-02-2011 07:44:06 5.5 C 80 % 2.33 C
400 12-02-2011 07:56:06 5.4 C 80 % 2.23 C
Sensor: Nr:Datum:Temp:Feuchte:Taupunkt:
Aussen-T/F 401 12-02-2011 08:08:06 5.3 C 80 % 2.14 C
402 12-02-2011 08:20:03 5.3 C 80 % 2.14 C
403 12-02-2011 08:32:02 5.5 C 81 % 2.51 C
404 12-02-2011 08:44:02 5.7 C 80 % 2.53 C
405 12-02-2011 08:56:03 5.8 C 80 % 2.62 C
406 12-02-2011 09:08:02 5.8 C 79 % 2.45 C
407 12-02-2011 09:20:02 5.8 C 78 % 2.27 C
408 12-02-2011 09:32:02 6.1 C 78 % 2.56 C
409 12-02-2011 09:44:02 6.3 C 76 % 2.39 C
410 12-02-2011 09:56:02 6.5 C 76 % 2.58 C
411 12-02-2011 10:08:02 6.8 C 75 % 2.69 C
412 12-02-2011 10:20:02 7 C 73 % 2.5 C
413 12-02-2011 10:32:02 7.3 C 72 % 2.6 C
414 12-02-2011 10:44:03 7.6 C 71 % 2.69 C
415 12-02-2011 10:56:02 7.9 C 70 % 2.78 C
416 12-02-2011 11:08:02 7.8 C 70 % 2.68 C
417 12-02-2011 11:20:02 7.7 C 71 % 2.78 C
418 12-02-2011 11:32:02 8.4 C 69 % 3.05 C
419 12-02-2011 11:44:02 8.9 C 68 % 3.32 C
420 12-02-2011 11:56:01 8.7 C 68 % 3.13 C
421 12-02-2011 12:08:01 9.5 C 66 % 3.47 C
422 12-02-2011 12:20:02 9.3 C 65 % 3.07 C
423 12-02-2011 12:32:01 8.9 C 67 % 3.12 C
424 12-02-2011 12:44:01 9 C 66 % 3 C
425 12-02-2011 12:56:02 8.8 C 69 % 3.44 C
Sensor: Nr:Datum:Temp:Feuchte:Taupunkt:
Aussen-T/F 426 12-02-2011 13:08:02 8.4 C 69 % 3.05 C
427 12-02-2011 13:20:02 8 C 71 % 3.07 C
428 12-02-2011 13:32:03 8 C 72 % 3.27 C
429 12-02-2011 13:44:03 7.8 C 75 % 3.65 C
430 12-02-2011 13:56:02 7.6 C 77 % 3.83 C
431 12-02-2011 14:08:02 7.9 C 76 % 3.94 C
432 12-02-2011 14:20:02 7.9 C 75 % 3.75 C
433 12-02-2011 14:32:02 7.9 C 74 % 3.56 C
434 12-02-2011 14:44:02 8.2 C 72 % 3.46 C
435 12-02-2011 14:56:02 8.3 C 70 % 3.16 C
436 12-02-2011 15:08:02 8.2 C 71 % 3.26 C
437 12-02-2011 15:20:02 8.5 C 70 % 3.35 C
438 12-02-2011 15:32:02 9.2 C 67 % 3.4 C
439 12-02-2011 15:44:02 8.7 C 68 % 3.13 C
440 12-02-2011 15:56:01 8.2 C 70 % 3.06 C
441 12-02-2011 16:08:01 8.3 C 71 % 3.36 C
442 12-02-2011 16:20:01 7.6 C 72 % 2.88 C
443 12-02-2011 16:32:01 7.5 C 73 % 2.98 C
444 12-02-2011 16:44:01 6.9 C 75 % 2.78 C
445 12-02-2011 16:56:01 7.1 C 74 % 2.79 C
446 12-02-2011 17:08:01 7.1 C 75 % 2.98 C
447 12-02-2011 17:20:02 6.7 C 77 % 2.96 C
448 12-02-2011 17:32:01 6.4 C 78 % 2.85 C
449 12-02-2011 17:44:01 5.6 C 79 % 2.25 C
450 12-02-2011 17:56:03 5.7 C 82 % 2.87 C
Sensor: Nr:Datum:Temp:Feuchte:Taupunkt:
Aussen-T/F 451 12-02-2011 18:08:02 5 C 82 % 2.19 C
452 12-02-2011 18:20:02 4.3 C 83 % 1.67 C
453 12-02-2011 18:32:02 4.2 C 85 % 1.91 C
454 12-02-2011 18:44:02 4.1 C 86 % 1.97 C
455 12-02-2011 18:56:02 3.7 C 87 % 1.74 C
456 12-02-2011 19:08:01 3.4 C 87 % 1.45 C
457 12-02-2011 19:20:02 3.6 C 88 % 1.8 C
458 12-02-2011 19:32:02 3.7 C 88 % 1.9 C
459 12-02-2011 19:44:02 3.8 C 89 % 2.16 C
460 12-02-2011 19:56:01 3.7 C 89 % 2.06 C
461 12-02-2011 20:08:02 3.7 C 89 % 2.06 C
462 12-02-2011 20:20:01 4.2 C 89 % 2.55 C
463 12-02-2011 20:32:01 4.7 C 90 % 3.2 C
464 12-02-2011 20:44:02 4.7 C 90 % 3.2 C
465 12-02-2011 20:56:01 4.8 C 90 % 3.3 C
466 12-02-2011 21:08:02 4.8 C 90 % 3.3 C
467 12-02-2011 21:20:01 4.7 C 90 % 3.2 C
468 12-02-2011 21:32:02 4.7 C 90 % 3.2 C
469 12-02-2011 21:44:02 4.6 C 90 % 3.1 C
470 12-02-2011 21:56:01 4.6 C 90 % 3.1 C
471 12-02-2011 22:08:02 4.5 C 90 % 3.01 C
472 12-02-2011 22:20:02 4.6 C 90 % 3.1 C
473 12-02-2011 22:32:01 4.7 C 90 % 3.2 C
474 12-02-2011 22:44:01 4.9 C 91 % 3.56 C
475 12-02-2011 22:57:03 4.9 C 91 % 3.56 C
Sensor: Nr:Datum:Temp:Feuchte:Taupunkt:
Aussen-T/F 476 12-02-2011 23:09:03 4.9 C 91 % 3.56 C
477 12-02-2011 23:21:03 5 C 90 % 3.5 C
478 12-02-2011 23:33:03 5.1 C 90 % 3.6 C
479 12-02-2011 23:45:03 5.1 C 90 % 3.6 C
480 12-02-2011 23:57:03 5.2 C 90 % 3.7 C
481 13-02-2011 00:09:03 5.3 C 90 % 3.8 C
482 13-02-2011 00:21:03 5.3 C 90 % 3.8 C
483 13-02-2011 00:33:04 5.3 C 89 % 3.64 C
484 13-02-2011 00:45:04 5.2 C 89 % 3.54 C
485 13-02-2011 00:57:04 5.1 C 89 % 3.44 C
486 13-02-2011 01:09:04 5 C 89 % 3.34 C
487 13-02-2011 01:21:04 5.1 C 89 % 3.44 C
488 13-02-2011 01:33:04 5.1 C 90 % 3.6 C
489 13-02-2011 01:45:04 5.1 C 90 % 3.6 C
490 13-02-2011 01:57:04 5 C 90 % 3.5 C
491 13-02-2011 02:09:04 4.9 C 91 % 3.56 C
492 13-02-2011 02:21:04 4.8 C 91 % 3.46 C
493 13-02-2011 02:33:04 4.7 C 91 % 3.36 C
494 13-02-2011 02:45:04 4.7 C 91 % 3.36 C
495 13-02-2011 02:57:04 4.6 C 91 % 3.26 C
496 13-02-2011 03:09:04 4.7 C 91 % 3.36 C
497 13-02-2011 03:21:04 4.9 C 91 % 3.56 C
498 13-02-2011 03:33:04 4.9 C 91 % 3.56 C
499 13-02-2011 03:45:04 5 C 91 % 3.66 C
500 13-02-2011 03:57:04 5.1 C 91 % 3.76 C
Sensor: Nr:Datum:Temp:Feuchte:Taupunkt:
Aussen-T/F 501 13-02-2011 04:09:04 5 C 91 % 3.66 C
502 13-02-2011 04:21:04 5 C 91 % 3.66 C
503 13-02-2011 04:33:05 5 C 91 % 3.66 C
504 13-02-2011 04:45:05 4.8 C 92 % 3.61 C
505 13-02-2011 04:57:05 4.8 C 92 % 3.61 C
506 13-02-2011 05:09:05 4.6 C 92 % 3.42 C
507 13-02-2011 05:21:05 4.4 C 92 % 3.22 C
508 13-02-2011 05:33:05 3.9 C 92 % 2.72 C
509 13-02-2011 05:45:05 4.1 C 92 % 2.92 C
510 13-02-2011 05:57:05 4.2 C 92 % 3.02 C
511 13-02-2011 06:09:05 4.2 C 92 % 3.02 C
512 13-02-2011 06:21:05 4 C 92 % 2.82 C
513 13-02-2011 06:33:05 4 C 92 % 2.82 C
514 13-02-2011 06:45:05 3.8 C 92 % 2.62 C
515 13-02-2011 06:57:05 3.4 C 92 % 2.23 C
516 13-02-2011 07:09:05 3.2 C 92 % 2.03 C
517 13-02-2011 07:21:05 3 C 92 % 1.83 C
518 13-02-2011 07:33:05 2.8 C 93 % 1.78 C
519 13-02-2011 07:45:05 2.3 C 92 % 1.14 C
520 13-02-2011 07:57:05 2 C 92 % 0.84 C
521 13-02-2011 08:09:05 2.2 C 92 % 1.04 C
522 13-02-2011 08:21:05 2.1 C 92 % 0.94 C
523 13-02-2011 08:33:05 1.5 C 93 % 0.49 C
524 13-02-2011 08:45:06 1.4 C 93 % 0.4 C
525 13-02-2011 08:57:06 1.5 C 93 % 0.49 C
Sensor: Nr:Datum:Temp:Feuchte:Taupunkt:
Aussen-T/F 526 13-02-2011 09:09:03 1.8 C 93 % 0.79 C
527 13-02-2011 09:21:03 1.9 C 93 % 0.89 C
528 13-02-2011 09:33:03 2.4 C 92 % 1.24 C
529 13-02-2011 09:45:02 3.7 C 92 % 2.52 C
530 13-02-2011 09:57:02 4 C 92 % 2.82 C
531 13-02-2011 10:09:02 4.2 C 92 % 3.02 C
532 13-02-2011 10:21:01 4.3 C 91 % 2.96 C
533 13-02-2011 10:33:02 4.8 C 90 % 3.3 C
534 13-02-2011 10:45:01 5.1 C 88 % 3.28 C
535 13-02-2011 10:57:01 5.3 C 86 % 3.15 C
536 13-02-2011 11:09:02 5.4 C 84 % 2.92 C
537 13-02-2011 11:21:02 6.1 C 82 % 3.26 C
538 13-02-2011 11:33:02 6 C 78 % 2.46 C
539 13-02-2011 11:45:02 6.3 C 76 % 2.39 C
540 13-02-2011 11:57:02 6.9 C 75 % 2.78 C
541 13-02-2011 12:09:02 7.2 C 71 % 2.3 C
542 13-02-2011 12:21:02 7.6 C 70 % 2.49 C
543 13-02-2011 12:33:01 7.5 C 71 % 2.59 C
544 13-02-2011 12:45:02 7.7 C 71 % 2.78 C
545 13-02-2011 12:57:02 7.8 C 68 % 2.27 C
546 13-02-2011 13:09:01 7.2 C 67 % 1.49 C
547 13-02-2011 13:21:01 7.4 C 67 % 1.69 C
548 13-02-2011 13:33:02 7.5 C 63 % 0.92 C
549 13-02-2011 13:45:02 7.9 C 61 % 0.86 C
550 13-02-2011 13:57:03 7.8 C 61 % 0.76 C
Sensor: Nr:Datum:Temp:Feuchte:Taupunkt:
Aussen-T/F 551 13-02-2011 14:09:01 8.6 C 61 % 1.52 C
552 13-02-2011 14:21:02 8.6 C 60 % 1.29 C
553 13-02-2011 14:33:02 9.4 C 58 % 1.57 C
554 13-02-2011 14:45:02 8.8 C 58 % 1 C
555 13-02-2011 14:57:02 8.5 C 57 % 0.48 C
556 13-02-2011 15:09:02 8.4 C 57 % 0.39 C
557 13-02-2011 15:21:02 8.5 C 58 % 0.72 C
558 13-02-2011 15:33:02 8.9 C 56 % 0.61 C
559 13-02-2011 15:45:02 9.5 C 55 % 0.92 C
560 13-02-2011 15:57:02 9.2 C 55 % 0.64 C
561 13-02-2011 16:09:02 9.1 C 56 % 0.8 C
562 13-02-2011 16:21:02 8.5 C 56 % 0.24 C
563 13-02-2011 16:33:02 8.2 C 60 % 0.91 C
564 13-02-2011 16:45:02 7.7 C 65 % 1.55 C
565 13-02-2011 16:57:02 7.3 C 64 % 0.95 C
566 13-02-2011 17:09:02 6.9 C 70 % 1.82 C
567 13-02-2011 17:21:02 6.2 C 74 % 1.92 C
568 13-02-2011 17:33:02 5.9 C 77 % 2.19 C
569 13-02-2011 17:45:02 5.6 C 78 % 2.07 C
570 13-02-2011 17:57:02 5.2 C 79 % 1.86 C
571 13-02-2011 18:09:02 4.8 C 81 % 1.82 C
572 13-02-2011 18:21:02 4.6 C 82 % 1.8 C
573 13-02-2011 18:33:01 4.3 C 83 % 1.67 C
574 13-02-2011 18:45:02 4.3 C 84 % 1.84 C
575 13-02-2011 18:57:02 4.4 C 84 % 1.94 C
Sensor: Nr:Datum:Temp:Feuchte:Taupunkt:
Aussen-T/F 576 13-02-2011 19:09:01 4.3 C 85 % 2.01 C
577 13-02-2011 19:21:01 4.4 C 85 % 2.11 C
578 13-02-2011 19:33:02 4.5 C 86 % 2.37 C
579 13-02-2011 19:45:01 4.3 C 85 % 2.01 C
580 13-02-2011 19:57:01 4.3 C 85 % 2.01 C
581 13-02-2011 20:09:02 4.3 C 86 % 2.17 C
582 13-02-2011 20:21:02 4.4 C 86 % 2.27 C
583 13-02-2011 20:33:02 4.3 C 85 % 2.01 C
584 13-02-2011 20:45:01 4.2 C 85 % 1.91 C
585 13-02-2011 20:57:01 4.2 C 86 % 2.07 C
586 13-02-2011 21:09:02 4.4 C 86 % 2.27 C
587 13-02-2011 21:21:02 4.2 C 86 % 2.07 C
588 13-02-2011 21:33:01 4.2 C 86 % 2.07 C
589 13-02-2011 21:45:02 4.2 C 86 % 2.07 C
590 13-02-2011 21:57:02 4.1 C 86 % 1.97 C
591 13-02-2011 22:09:01 4.2 C 86 % 2.07 C
592 13-02-2011 22:21:02 4.2 C 86 % 2.07 C
593 13-02-2011 22:34:03 4 C 86 % 1.88 C
594 13-02-2011 22:46:03 3.9 C 87 % 1.94 C
595 13-02-2011 22:58:03 4 C 87 % 2.04 C
596 13-02-2011 23:10:03 4.1 C 87 % 2.14 C
597 13-02-2011 23:22:03 3.9 C 88 % 2.1 C
598 13-02-2011 23:34:03 3.8 C 88 % 2 C
599 13-02-2011 23:46:03 3.8 C 88 % 2 C
600 13-02-2011 23:58:03 3.7 C 88 % 1.9 C
Sensor: Nr:Datum:Temp:Feuchte:Taupunkt:
Aussen-T/F 601 14-02-2011 00:10:03 3.6 C 88 % 1.8 C
602 14-02-2011 00:22:03 3.5 C 88 % 1.7 C
603 14-02-2011 00:34:03 3.4 C 89 % 1.76 C
604 14-02-2011 00:46:03 3.2 C 89 % 1.57 C
605 14-02-2011 00:58:03 3.1 C 89 % 1.47 C
606 14-02-2011 01:10:03 2.8 C 89 % 1.17 C
607 14-02-2011 01:22:03 2.9 C 90 % 1.43 C
608 14-02-2011 01:34:04 3 C 89 % 1.37 C
609 14-02-2011 01:46:04 3.1 C 89 % 1.47 C
610 14-02-2011 01:58:04 3 C 90 % 1.52 C
611 14-02-2011 02:10:04 2.8 C 90 % 1.33 C
612 14-02-2011 02:22:04 2.7 C 90 % 1.23 C
613 14-02-2011 02:34:04 2.6 C 90 % 1.13 C
614 14-02-2011 02:46:04 2.5 C 90 % 1.03 C
615 14-02-2011 02:58:04 2.5 C 90 % 1.03 C
616 14-02-2011 03:10:04 2.6 C 91 % 1.28 C
617 14-02-2011 03:22:04 2.3 C 91 % 0.99 C
618 14-02-2011 03:34:04 2.2 C 91 % 0.89 C
619 14-02-2011 03:46:04 2.2 C 91 % 0.89 C
620 14-02-2011 03:58:04 2 C 91 % 0.69 C
621 14-02-2011 04:10:04 2.1 C 91 % 0.79 C
622 14-02-2011 04:22:04 1.7 C 91 % 0.39 C
623 14-02-2011 04:34:04 1.6 C 91 % 0.29 C
624 14-02-2011 04:46:04 1.7 C 91 % 0.39 C
625 14-02-2011 04:58:04 1.6 C 91 % 0.29 C
Sensor: Nr:Datum:Temp:Feuchte:Taupunkt:
Aussen-T/F 626 14-02-2011 05:10:04 1.7 C 92 % 0.54 C
627 14-02-2011 05:22:04 1.9 C 92 % 0.74 C
628 14-02-2011 05:34:05 1.7 C 92 % 0.54 C
629 14-02-2011 05:46:02 2 C 91 % 0.69 C
630 14-02-2011 05:58:02 2 C 91 % 0.69 C
631 14-02-2011 06:10:02 2.1 C 92 % 0.94 C
632 14-02-2011 06:22:02 1.6 C 92 % 0.44 C
633 14-02-2011 06:34:02 1.6 C 92 % 0.44 C
634 14-02-2011 06:46:02 1.3 C 92 % 0.15 C
635 14-02-2011 06:58:02 1.4 C 92 % 0.25 C
636 14-02-2011 07:10:01 0.8 C 92 % -0.35 C
637 14-02-2011 07:22:01 1 C 92 % -0.15 C
638 14-02-2011 07:34:02 1.1 C 92 % -0.05 C
639 14-02-2011 07:46:02 1.2 C 92 % 0.05 C
640 14-02-2011 07:58:02 0.7 C 92 % -0.45 C
641 14-02-2011 08:10:02 0.4 C 92 % -0.74 C
642 14-02-2011 08:22:02 0.6 C 92 % -0.55 C
643 14-02-2011 08:34:02 1.4 C 92 % 0.25 C
644 14-02-2011 08:46:02 1.6 C 93 % 0.59 C
645 14-02-2011 08:58:02 2.4 C 92 % 1.24 C
646 14-02-2011 09:10:02 2.5 C 92 % 1.34 C
647 14-02-2011 09:22:02 3 C 92 % 1.83 C
648 14-02-2011 09:34:02 3.4 C 92 % 2.23 C
649 14-02-2011 09:46:02 3.6 C 92 % 2.42 C
650 14-02-2011 09:58:02 3.6 C 92 % 2.42 C
Sensor: Nr:Datum:Temp:Feuchte:Taupunkt:
Aussen-T/F 651 14-02-2011 10:10:02 3.7 C 91 % 2.37 C
652 14-02-2011 10:22:02 4.2 C 90 % 2.71 C
653 14-02-2011 10:34:02 4.7 C 89 % 3.05 C
654 14-02-2011 10:46:02 5.4 C 87 % 3.41 C
655 14-02-2011 10:58:02 6 C 85 % 3.67 C
656 14-02-2011 11:10:01 6.3 C 81 % 3.29 C
657 14-02-2011 11:22:02 6.8 C 79 % 3.42 C
658 14-02-2011 11:34:02 6.7 C 75 % 2.59 C
659 14-02-2011 11:46:02 7.1 C 72 % 2.4 C
660 14-02-2011 11:58:02 7.7 C 70 % 2.58 C
661 14-02-2011 12:10:03 7.7 C 68 % 2.18 C
662 14-02-2011 12:22:02 8.2 C 66 % 2.24 C
663 14-02-2011 12:34:02 8.4 C 65 % 2.21 C
664 14-02-2011 12:46:01 9.1 C 62 % 2.22 C
665 14-02-2011 12:58:01 9.2 C 59 % 1.62 C
666 14-02-2011 13:10:02 9.8 C 59 % 2.18 C
667 14-02-2011 13:22:01 9.6 C 60 % 2.23 C
668 14-02-2011 13:34:01 10.1 C 58 % 2.22 C
669 14-02-2011 13:46:01 9.9 C 57 % 1.79 C
670 14-02-2011 13:58:01 11 C 55 % 2.32 C
671 14-02-2011 14:10:02 10.2 C 56 % 1.83 C
672 14-02-2011 14:22:52 10.2 C 56 % 1.83 C
673 14-02-2011 14:34:47 9.7 C 58 % 1.85 C
674 14-02-2011 14:46:02 9.5 C 59 % 1.9 C
675 14-02-2011 14:58:02 10 C 57 % 1.89 C
Sensor: Nr:Datum:Temp:Feuchte:Taupunkt:
Aussen-T/F 676 14-02-2011 15:10:01 10 C 58 % 2.13 C
677 14-02-2011 15:22:02 10.6 C 58 % 2.69 C
678 14-02-2011 15:34:01 11 C 54 % 2.06 C
679 14-02-2011 15:46:02 10.5 C 57 % 2.35 C
680 14-02-2011 15:58:02 9.6 C 60 % 2.23 C
681 14-02-2011 16:10:02 9.3 C 61 % 2.18 C
682 14-02-2011 16:22:02 9.2 C 62 % 2.31 C
683 14-02-2011 16:34:02 8.9 C 64 % 2.47 C
684 14-02-2011 16:46:01 8.6 C 66 % 2.62 C
685 14-02-2011 16:58:01 8 C 68 % 2.47 C
686 14-02-2011 17:10:02 7.2 C 72 % 2.5 C
687 14-02-2011 17:22:01 6.7 C 77 % 2.96 C
688 14-02-2011 17:34:02 6.3 C 79 % 2.93 C
689 14-02-2011 17:46:02 6.2 C 80 % 3.01 C
690 14-02-2011 17:58:02 5.9 C 82 % 3.07 C
691 14-02-2011 18:10:02 6.2 C 82 % 3.36 C
692 14-02-2011 18:22:01 6.3 C 83 % 3.63 C
693 14-02-2011 18:34:02 6.2 C 83 % 3.53 C
694 14-02-2011 18:46:02 6.4 C 83 % 3.73 C
695 14-02-2011 18:58:02 6.5 C 82 % 3.66 C
696 14-02-2011 19:10:02 6.6 C 82 % 3.75 C
697 14-02-2011 19:22:02 6.5 C 82 % 3.66 C
698 14-02-2011 19:34:02 6.5 C 83 % 3.83 C
699 14-02-2011 19:46:01 6.4 C 84 % 3.9 C
700 14-02-2011 19:58:01 6.4 C 85 % 4.07 C
Sensor: Nr:Datum:Temp:Feuchte:Taupunkt:
Aussen-T/F 701 14-02-2011 20:10:02 6.4 C 86 % 4.23 C
702 14-02-2011 20:22:01 6.3 C 86 % 4.14 C
703 14-02-2011 20:34:01 6.4 C 86 % 4.23 C
704 14-02-2011 20:46:01 6.4 C 86 % 4.23 C
705 14-02-2011 20:58:01 6.3 C 86 % 4.14 C
706 14-02-2011 21:10:02 6.3 C 86 % 4.14 C
707 14-02-2011 21:22:01 6.3 C 86 % 4.14 C
708 14-02-2011 21:35:01 6.3 C 86 % 4.14 C
709 14-02-2011 21:47:01 6.2 C 86 % 4.04 C
710 14-02-2011 21:59:01 6.2 C 86 % 4.04 C
711 14-02-2011 22:11:01 6.1 C 86 % 3.94 C
712 14-02-2011 22:23:01 6.2 C 86 % 4.04 C
713 14-02-2011 22:35:01 6.2 C 85 % 3.87 C
714 14-02-2011 22:47:01 6.1 C 85 % 3.77 C
715 14-02-2011 22:59:01 6 C 85 % 3.67 C
716 14-02-2011 23:11:01 6 C 85 % 3.67 C
717 14-02-2011 23:23:02 5.9 C 86 % 3.74 C
718 14-02-2011 23:35:02 5.9 C 86 % 3.74 C
719 14-02-2011 23:47:02 5.9 C 86 % 3.74 C
720 14-02-2011 23:59:02 5.9 C 87 % 3.91 C
721 15-02-2011 00:11:02 5.9 C 87 % 3.91 C
722 15-02-2011 00:23:02 5.9 C 87 % 3.91 C
723 15-02-2011 00:35:02 5.9 C 87 % 3.91 C
724 15-02-2011 00:47:02 6 C 87 % 4 C
725 15-02-2011 00:59:02 5.9 C 88 % 4.07 C
Sensor: Nr:Datum:Temp:Feuchte:Taupunkt:
Aussen-T/F 726 15-02-2011 01:11:02 5.9 C 88 % 4.07 C
727 15-02-2011 01:23:02 5.9 C 89 % 4.23 C
728 15-02-2011 01:35:02 5.9 C 89 % 4.23 C
729 15-02-2011 01:47:02 5.8 C 89 % 4.13 C
730 15-02-2011 01:59:02 5.9 C 89 % 4.23 C
731 15-02-2011 02:11:02 5.9 C 90 % 4.39 C
732 15-02-2011 02:23:02 5.7 C 90 % 4.19 C
733 15-02-2011 02:35:02 5.6 C 90 % 4.09 C
734 15-02-2011 02:47:02 5.4 C 90 % 3.89 C
735 15-02-2011 02:59:02 5.2 C 90 % 3.7 C
736 15-02-2011 03:11:02 4.9 C 90 % 3.4 C
737 15-02-2011 03:23:02 4.8 C 90 % 3.3 C
738 15-02-2011 03:35:03 4.6 C 90 % 3.1 C
739 15-02-2011 03:47:03 4.4 C 90 % 2.91 C
740 15-02-2011 03:59:03 4.4 C 90 % 2.91 C
741 15-02-2011 04:11:03 4.5 C 90 % 3.01 C
742 15-02-2011 04:23:03 4.5 C 90 % 3.01 C
743 15-02-2011 04:35:03 4.5 C 90 % 3.01 C
744 15-02-2011 04:47:03 4.6 C 91 % 3.26 C
745 15-02-2011 04:59:03 4.4 C 90 % 2.91 C
746 15-02-2011 05:11:03 4.3 C 90 % 2.81 C
747 15-02-2011 05:23:03 4.3 C 90 % 2.81 C
748 15-02-2011 05:35:03 4.2 C 90 % 2.71 C
749 15-02-2011 05:47:03 4.3 C 91 % 2.96 C
750 15-02-2011 05:59:03 4.3 C 91 % 2.96 C
Sensor: Nr:Datum:Temp:Feuchte:Taupunkt:
Aussen-T/F 751 15-02-2011 06:11:03 4.2 C 91 % 2.87 C
752 15-02-2011 06:23:03 4.2 C 91 % 2.87 C
753 15-02-2011 06:35:03 4.3 C 91 % 2.96 C
754 15-02-2011 06:47:03 4.3 C 91 % 2.96 C
755 15-02-2011 06:59:03 4.2 C 91 % 2.87 C
756 15-02-2011 07:11:03 4 C 91 % 2.67 C
757 15-02-2011 07:23:03 3.9 C 92 % 2.72 C
758 15-02-2011 07:35:01 3.6 C 91 % 2.27 C
759 15-02-2011 07:47:01 3.6 C 91 % 2.27 C
760 15-02-2011 07:59:01 3.6 C 91 % 2.27 C
761 15-02-2011 08:11:02 3.7 C 91 % 2.37 C
762 15-02-2011 08:23:02 3.7 C 91 % 2.37 C
763 15-02-2011 08:35:01 3.8 C 92 % 2.62 C
764 15-02-2011 08:47:02 3.9 C 92 % 2.72 C
765 15-02-2011 08:59:02 4.1 C 91 % 2.77 C
766 15-02-2011 09:11:01 4.2 C 91 % 2.87 C
767 15-02-2011 09:23:02 4.6 C 91 % 3.26 C
768 15-02-2011 09:35:01 4.7 C 90 % 3.2 C
769 15-02-2011 09:47:02 4.6 C 90 % 3.1 C
770 15-02-2011 09:59:02 4.9 C 89 % 3.24 C
771 15-02-2011 10:11:02 5.4 C 88 % 3.58 C
772 15-02-2011 10:23:02 5.6 C 87 % 3.61 C
773 15-02-2011 10:35:02 5.8 C 86 % 3.64 C
774 15-02-2011 10:47:01 5.6 C 83 % 2.95 C
775 15-02-2011 10:59:01 5.9 C 82 % 3.07 C
Sensor: Nr:Datum:Temp:Feuchte:Taupunkt:
Aussen-T/F 776 15-02-2011 11:11:01 6.4 C 79 % 3.03 C
777 15-02-2011 11:23:02 7.1 C 75 % 2.98 C
778 15-02-2011 11:35:01 6.8 C 74 % 2.5 C
779 15-02-2011 11:47:02 7.1 C 72 % 2.4 C
780 15-02-2011 11:59:03 7.5 C 71 % 2.59 C
781 15-02-2011 12:11:01 8 C 67 % 2.26 C
782 15-02-2011 12:23:01 7.8 C 68 % 2.27 C
783 15-02-2011 12:35:01 7.6 C 68 % 2.08 C
784 15-02-2011 12:47:02 7.4 C 69 % 2.1 C
785 15-02-2011 12:59:02 7.4 C 68 % 1.89 C
786 15-02-2011 13:11:01 7.3 C 67 % 1.59 C
787 15-02-2011 13:23:02 7.8 C 68 % 2.27 C
788 15-02-2011 13:35:01 7.8 C 68 % 2.27 C
789 15-02-2011 13:47:02 6.9 C 68 % 1.41 C
790 15-02-2011 13:59:02 7.1 C 69 % 1.81 C
791 15-02-2011 14:11:01 7.1 C 70 % 2.01 C
792 15-02-2011 14:23:02 6.5 C 72 % 1.83 C
793 15-02-2011 14:35:02 6.7 C 71 % 1.82 C
794 15-02-2011 14:47:02 7 C 70 % 1.91 C
795 15-02-2011 14:59:02 6.3 C 71 % 1.44 C
796 15-02-2011 15:11:02 6.7 C 72 % 2.02 C
797 15-02-2011 15:23:02 6.8 C 71 % 1.92 C
798 15-02-2011 15:35:03 6.3 C 72 % 1.63 C
799 15-02-2011 15:47:02 6.1 C 73 % 1.63 C
800 15-02-2011 15:59:02 5.7 C 74 % 1.44 C
Sensor: Nr:Datum:Temp:Feuchte:Taupunkt:
Aussen-T/F 801 15-02-2011 16:11:02 5.7 C 75 % 1.62 C
802 15-02-2011 16:23:02 5.5 C 76 % 1.62 C
803 15-02-2011 16:35:02 5.5 C 78 % 1.98 C
804 15-02-2011 16:47:01 5.3 C 78 % 1.78 C
805 15-02-2011 16:59:01 5.4 C 78 % 1.88 C
806 15-02-2011 17:11:02 5.2 C 77 % 1.51 C
807 15-02-2011 17:23:01 5.1 C 78 % 1.59 C
808 15-02-2011 17:35:02 5 C 77 % 1.31 C
809 15-02-2011 17:47:01 4.8 C 79 % 1.47 C
810 15-02-2011 17:59:01 4.8 C 79 % 1.47 C
811 15-02-2011 18:11:02 4.5 C 79 % 1.18 C
812 15-02-2011 18:23:02 4.5 C 80 % 1.36 C
813 15-02-2011 18:35:02 4.5 C 80 % 1.36 C
814 15-02-2011 18:47:02 4.8 C 79 % 1.47 C
815 15-02-2011 18:59:02 4.8 C 79 % 1.47 C
816 15-02-2011 19:11:02 4.7 C 79 % 1.38 C
817 15-02-2011 19:23:02 4.4 C 79 % 1.09 C
818 15-02-2011 19:35:02 4.1 C 81 % 1.14 C
819 15-02-2011 19:47:02 4 C 81 % 1.04 C
820 15-02-2011 19:59:02 3.7 C 83 % 1.09 C
821 15-02-2011 20:11:01 3.2 C 84 % 0.76 C
822 15-02-2011 20:23:02 3.4 C 85 % 1.12 C
823 15-02-2011 20:35:01 3 C 86 % 0.89 C
824 15-02-2011 20:47:02 3.5 C 87 % 1.55 C
825 15-02-2011 20:59:02 4 C 87 % 2.04 C
Sensor: Nr:Datum:Temp:Feuchte:Taupunkt:
Aussen-T/F 826 15-02-2011 21:11:01 3.9 C 87 % 1.94 C
827 15-02-2011 21:23:01 4.1 C 86 % 1.97 C
828 15-02-2011 21:35:02 4.1 C 86 % 1.97 C
829 15-02-2011 21:47:02 4.3 C 86 % 2.17 C
830 15-02-2011 21:59:02 4.8 C 86 % 2.66 C
831 15-02-2011 22:12:03 4.8 C 85 % 2.5 C
832 15-02-2011 22:24:03 4.6 C 84 % 2.14 C
833 15-02-2011 22:36:03 4.1 C 84 % 1.65 C
834 15-02-2011 22:48:03 3.5 C 85 % 1.22 C
835 15-02-2011 23:00:03 4.1 C 86 % 1.97 C
836 15-02-2011 23:12:03 4.2 C 87 % 2.23 C
837 15-02-2011 23:24:03 4.3 C 87 % 2.33 C
838 15-02-2011 23:36:03 4.6 C 87 % 2.63 C
839 15-02-2011 23:48:03 4.6 C 87 % 2.63 C
840 16-02-2011 00:00:03 4.5 C 87 % 2.53 C
841 16-02-2011 00:12:03 4.8 C 87 % 2.82 C
842 16-02-2011 00:24:03 5.2 C 84 % 2.72 C
843 16-02-2011 00:36:03 5.2 C 84 % 2.72 C
844 16-02-2011 00:48:03 4.2 C 83 % 1.58 C
845 16-02-2011 01:00:03 3.5 C 84 % 1.06 C
846 16-02-2011 01:12:03 2.9 C 86 % 0.8 C
847 16-02-2011 01:24:03 3.4 C 87 % 1.45 C
848 16-02-2011 01:36:03 3.7 C 88 % 1.9 C
849 16-02-2011 01:48:03 4.1 C 88 % 2.3 C
850 16-02-2011 02:00:03 4.3 C 89 % 2.65 C
Sensor: Nr:Datum:Temp:Feuchte:Taupunkt:
Aussen-T/F 851 16-02-2011 02:12:04 4.5 C 89 % 2.85 C
852 16-02-2011 02:24:04 4.4 C 89 % 2.75 C
853 16-02-2011 02:36:04 3.8 C 89 % 2.16 C
854 16-02-2011 02:48:04 4.1 C 89 % 2.45 C
855 16-02-2011 03:00:04 4.5 C 89 % 2.85 C
856 16-02-2011 03:12:04 4.3 C 89 % 2.65 C
857 16-02-2011 03:24:04 4.2 C 89 % 2.55 C
858 16-02-2011 03:36:04 4.4 C 89 % 2.75 C
859 16-02-2011 03:48:04 4.7 C 89 % 3.05 C
860 16-02-2011 04:00:04 4.5 C 88 % 2.69 C
861 16-02-2011 04:12:04 4.1 C 88 % 2.3 C
862 16-02-2011 04:24:04 4 C 88 % 2.2 C
863 16-02-2011 04:36:04 3.2 C 88 % 1.41 C
864 16-02-2011 04:48:04 3.1 C 88 % 1.31 C
865 16-02-2011 05:00:04 2.7 C 89 % 1.07 C
866 16-02-2011 05:12:04 2.2 C 89 % 0.58 C
867 16-02-2011 05:24:04 2.4 C 89 % 0.78 C
868 16-02-2011 05:36:04 2.3 C 89 % 0.68 C
869 16-02-2011 05:48:04 3.3 C 90 % 1.82 C
870 16-02-2011 06:00:04 3.2 C 90 % 1.72 C
871 16-02-2011 06:12:04 3.6 C 90 % 2.12 C
872 16-02-2011 06:24:05 3.8 C 90 % 2.31 C
873 16-02-2011 06:36:05 3.9 C 90 % 2.41 C
874 16-02-2011 06:48:05 4.2 C 89 % 2.55 C
875 16-02-2011 07:00:05 4.5 C 88 % 2.69 C
Sensor: Nr:Datum:Temp:Feuchte:Taupunkt:
Aussen-T/F 876 16-02-2011 07:12:05 4.3 C 87 % 2.33 C
877 16-02-2011 07:24:05 3.8 C 87 % 1.84 C
878 16-02-2011 07:36:05 4.1 C 86 % 1.97 C
879 16-02-2011 07:48:02 3.8 C 86 % 1.68 C
880 16-02-2011 08:00:02 3.8 C 86 % 1.68 C
881 16-02-2011 08:12:02 4.1 C 85 % 1.81 C
882 16-02-2011 08:24:03 4.2 C 85 % 1.91 C
883 16-02-2011 08:36:02 4.4 C 85 % 2.11 C
884 16-02-2011 08:48:03 4.5 C 85 % 2.2 C
885 16-02-2011 09:00:03 4.7 C 85 % 2.4 C
886 16-02-2011 09:12:02 5.1 C 82 % 2.29 C
887 16-02-2011 09:24:02 5.7 C 82 % 2.87 C
888 16-02-2011 09:36:02 5.9 C 80 % 2.72 C
889 16-02-2011 09:48:02 5.8 C 78 % 2.27 C
890 16-02-2011 10:00:02 6.6 C 75 % 2.49 C
891 16-02-2011 10:12:02 6.5 C 71 % 1.63 C
892 16-02-2011 10:24:02 6.7 C 70 % 1.63 C
893 16-02-2011 10:36:02 7.5 C 68 % 1.99 C
894 16-02-2011 10:48:02 7.6 C 67 % 1.88 C
895 16-02-2011 11:00:02 7.4 C 68 % 1.89 C
896 16-02-2011 11:12:03 7.4 C 66 % 1.48 C
897 16-02-2011 11:24:02 7.4 C 68 % 1.89 C
898 16-02-2011 11:36:02 7.9 C 66 % 1.95 C
899 16-02-2011 11:48:01 8.2 C 64 % 1.81 C
900 16-02-2011 12:00:01 8.3 C 63 % 1.68 C
Sensor: Nr:Datum:Temp:Feuchte:Taupunkt:
Aussen-T/F 901 16-02-2011 12:12:02 7.8 C 63 % 1.21 C
902 16-02-2011 12:24:01 7.9 C 66 % 1.95 C
903 16-02-2011 12:36:01 7.9 C 66 % 1.95 C
904 16-02-2011 12:48:01 7.7 C 66 % 1.76 C
905 16-02-2011 13:00:01 8.4 C 62 % 1.55 C
906 16-02-2011 13:12:02 9.5 C 59 % 1.9 C
907 16-02-2011 13:24:02 9.5 C 58 % 1.66 C
908 16-02-2011 13:36:01 9.3 C 59 % 1.71 C
909 16-02-2011 13:48:02 8.6 C 61 % 1.52 C
910 16-02-2011 14:00:02 8.4 C 62 % 1.55 C
911 16-02-2011 14:12:01 8.6 C 62 % 1.74 C
912 16-02-2011 14:24:02 9.6 C 59 % 1.99 C
913 16-02-2011 14:36:01 9.6 C 57 % 1.51 C
914 16-02-2011 14:48:02 9 C 59 % 1.43 C
915 16-02-2011 15:00:02 8.8 C 61 % 1.71 C
916 16-02-2011 15:12:02 8.7 C 61 % 1.61 C
917 16-02-2011 15:24:02 8.8 C 61 % 1.71 C
918 16-02-2011 15:36:02 9.5 C 61 % 2.37 C
919 16-02-2011 15:48:02 9.3 C 60 % 1.95 C
920 16-02-2011 16:00:02 10.6 C 56 % 2.2 C
921 16-02-2011 16:12:02 10.6 C 55 % 1.95 C
922 16-02-2011 16:24:01 10.7 C 53 % 1.52 C
923 16-02-2011 16:36:02 9.8 C 57 % 1.7 C
924 16-02-2011 16:48:02 8.8 C 62 % 1.93 C
925 16-02-2011 17:00:02 7.9 C 67 % 2.16 C
Sensor: Nr:Datum:Temp:Feuchte:Taupunkt:
Aussen-T/F 926 16-02-2011 17:12:02 7.5 C 69 % 2.19 C
927 16-02-2011 17:24:02 6.4 C 73 % 1.92 C
928 16-02-2011 17:36:02 5.4 C 77 % 1.7 C
929 16-02-2011 17:48:02 4.9 C 80 % 1.75 C
930 16-02-2011 18:00:02 4.4 C 82 % 1.6 C
931 16-02-2011 18:12:03 4.2 C 83 % 1.58 C
932 16-02-2011 18:24:02 3.8 C 84 % 1.35 C
933 16-02-2011 18:36:02 3.5 C 85 % 1.22 C
934 16-02-2011 18:48:02 3.5 C 86 % 1.38 C
935 16-02-2011 19:00:02 3.3 C 86 % 1.19 C
936 16-02-2011 19:12:01 3 C 87 % 1.05 C
937 16-02-2011 19:24:01 2.9 C 88 % 1.11 C
938 16-02-2011 19:36:02 2.7 C 88 % 0.92 C
939 16-02-2011 19:48:02 2.6 C 88 % 0.82 C
940 16-02-2011 20:00:02 2.3 C 88 % 0.52 C
941 16-02-2011 20:12:02 2.3 C 88 % 0.52 C
942 16-02-2011 20:24:02 2.1 C 89 % 0.48 C
943 16-02-2011 20:36:02 2.1 C 89 % 0.48 C
944 16-02-2011 20:48:01 1.4 C 89 % -0.21 C
945 16-02-2011 21:00:01 1.8 C 90 % 0.34 C
946 16-02-2011 21:12:02 1.5 C 89 % -0.11 C
947 16-02-2011 21:24:01 1.3 C 90 % -0.15 C
948 16-02-2011 21:36:02 1.5 C 90 % 0.04 C
949 16-02-2011 21:49:03 1.4 C 90 % -0.06 C
950 16-02-2011 22:01:04 1.4 C 90 % -0.06 C
Sensor: Nr:Datum:Temp:Feuchte:Taupunkt:
Aussen-T/F 951 16-02-2011 22:13:04 0.7 C 91 % -0.6 C
952 16-02-2011 22:25:04 0.6 C 91 % -0.7 C
953 16-02-2011 22:37:04 0.6 C 91 % -0.7 C
954 16-02-2011 22:49:04 0 C 91 % -1.29 C
955 16-02-2011 23:01:04 -0.2 C 91 % -1.49 C
956 16-02-2011 23:13:04 -0.4 C 91 % -1.69 C
957 16-02-2011 23:25:04 -0.4 C 91 % -1.69 C
958 16-02-2011 23:37:04 0 C 91 % -1.29 C
959 16-02-2011 23:49:04 -0.3 C 91 % -1.59 C
960 17-02-2011 00:01:04 -0.8 C 91 % -2.08 C
961 17-02-2011 00:13:04 -0.9 C 90 % -2.33 C
962 17-02-2011 00:25:04 -1 C 90 % -2.43 C
963 17-02-2011 00:37:04 -1 C 90 % -2.43 C
964 17-02-2011 00:49:04 -1 C 90 % -2.43 C
965 17-02-2011 01:01:04 -0.9 C 90 % -2.33 C
966 17-02-2011 01:13:04 -0.7 C 91 % -1.98 C
967 17-02-2011 01:25:04 -1 C 91 % -2.28 C
968 17-02-2011 01:37:04 -0.5 C 91 % -1.78 C
969 17-02-2011 01:49:04 -0.5 C 91 % -1.78 C
970 17-02-2011 02:01:05 -0.4 C 91 % -1.69 C
971 17-02-2011 02:13:05 -0.3 C 91 % -1.59 C
972 17-02-2011 02:25:05 -0.3 C 92 % -1.44 C
973 17-02-2011 02:37:05 -0.7 C 91 % -1.98 C
974 17-02-2011 02:49:05 -0.5 C 91 % -1.78 C
975 17-02-2011 03:01:05 -0.5 C 92 % -1.64 C
Sensor: Nr:Datum:Temp:Feuchte:Taupunkt:
Aussen-T/F 976 17-02-2011 03:13:05 -0.4 C 92 % -1.54 C
977 17-02-2011 03:25:05 -0.2 C 92 % -1.34 C
978 17-02-2011 03:37:05 -0.1 C 92 % -1.24 C
979 17-02-2011 03:49:05 0 C 92 % -1.14 C
980 17-02-2011 04:01:05 -0.1 C 92 % -1.24 C
981 17-02-2011 04:13:05 0 C 92 % -1.14 C
982 17-02-2011 04:25:05 0.1 C 92 % -1.04 C
983 17-02-2011 04:37:05 0.2 C 92 % -0.94 C
984 17-02-2011 04:49:05 0.4 C 93 % -0.6 C
985 17-02-2011 05:01:05 0.5 C 93 % -0.5 C
986 17-02-2011 05:13:05 0.5 C 93 % -0.5 C
987 17-02-2011 05:25:05 0.5 C 93 % -0.5 C
988 17-02-2011 05:37:05 0.5 C 93 % -0.5 C
989 17-02-2011 05:49:05 0.6 C 93 % -0.4 C
990 17-02-2011 06:01:05 0.8 C 93 % -0.2 C
991 17-02-2011 06:13:06 0.8 C 93 % -0.2 C
992 17-02-2011 06:25:06 0.9 C 93 % -0.1 C
993 17-02-2011 06:37:06 1.1 C 93 % 0.1 C
994 17-02-2011 06:49:06 1.1 C 93 % 0.1 C
995 17-02-2011 07:01:06 1.1 C 93 % 0.1 C
996 17-02-2011 07:13:06 1.2 C 93 % 0.2 C
997 17-02-2011 07:25:06 1.2 C 93 % 0.2 C
998 17-02-2011 07:37:03 1.3 C 93 % 0.3 C
999 17-02-2011 07:49:02 1.3 C 93 % 0.3 C
1000 17-02-2011 08:01:02 1.4 C 93 % 0.4 C
Sensor: Nr:Datum:Temp:Feuchte:Taupunkt:
Aussen-T/F 1001 17-02-2011 08:13:02 1.4 C 93 % 0.4 C
1002 17-02-2011 08:25:02 1.4 C 93 % 0.4 C
1003 17-02-2011 08:37:02 1.6 C 93 % 0.59 C
1004 17-02-2011 08:49:02 1.8 C 93 % 0.79 C
1005 17-02-2011 09:01:02 2.1 C 93 % 1.09 C
1006 17-02-2011 09:13:02 2.2 C 93 % 1.19 C
1007 17-02-2011 09:25:02 2.5 C 93 % 1.49 C
1008 17-02-2011 09:37:02 2.4 C 92 % 1.24 C
1009 17-02-2011 09:49:02 2.4 C 92 % 1.24 C
1010 17-02-2011 10:01:02 3.1 C 92 % 1.93 C
1011 17-02-2011 10:13:02 3.4 C 90 % 1.92 C
1012 17-02-2011 10:25:02 4.1 C 85 % 1.81 C
1013 17-02-2011 10:37:02 4.2 C 75 % 0.17 C
1014 17-02-2011 10:49:02 4.1 C 69 % -1.06 C
1015 17-02-2011 11:01:03 3.8 C 68 % -1.55 C
1016 17-02-2011 11:13:03 3.6 C 69 % -1.54 C
1017 17-02-2011 11:25:02 3.5 C 70 % -1.44 C
1018 17-02-2011 11:37:02 4.4 C 65 % -1.59 C
1019 17-02-2011 11:49:01 4.7 C 61 % -2.16 C
1020 17-02-2011 12:01:01 6.1 C 55 % -2.25 C
1021 17-02-2011 12:13:02 5.8 C 55 % -2.53 C
1022 17-02-2011 12:25:01 5.6 C 54 % -2.96 C
1023 17-02-2011 12:37:01 5.7 C 54 % -2.87 C
1024 17-02-2011 12:49:01 7.4 C 52 % -1.8 C
1025 17-02-2011 13:01:01 8 C 47 % -2.61 C
Sensor: Nr:Datum:Temp:Feuchte:Taupunkt:
Aussen-T/F 1026 17-02-2011 13:13:01 6.5 C 48 % -3.7 C
1027 17-02-2011 13:25:02 7 C 48 % -3.24 C
1028 17-02-2011 13:37:01 5.6 C 53 % -3.21 C
1029 17-02-2011 13:49:02 5 C 56 % -3.03 C
1030 17-02-2011 14:01:02 5.1 C 57 % -2.7 C
1031 17-02-2011 14:13:02 5.3 C 56 % -2.75 C
1032 17-02-2011 14:25:02 5.7 C 55 % -2.62 C
1033 17-02-2011 14:37:02 5.8 C 55 % -2.53 C
1034 17-02-2011 14:49:02 5.6 C 52 % -3.46 C
1035 17-02-2011 15:01:01 6.1 C 53 % -2.74 C
1036 17-02-2011 15:13:01 6.1 C 52 % -3 C
1037 17-02-2011 15:25:02 5.5 C 54 % -3.05 C
1038 17-02-2011 15:37:02 5.5 C 54 % -3.05 C
1039 17-02-2011 15:49:02 5.8 C 52 % -3.28 C
1040 17-02-2011 16:01:02 4.7 C 56 % -3.31 C
1041 17-02-2011 16:13:02 4.4 C 58 % -3.12 C
1042 17-02-2011 16:25:02 4.1 C 59 % -3.18 C
1043 17-02-2011 16:37:02 4 C 59 % -3.27 C
1044 17-02-2011 16:49:01 3.6 C 62 % -2.98 C
1045 17-02-2011 17:01:01 3.3 C 61 % -3.49 C
1046 17-02-2011 17:13:01 3 C 62 % -3.55 C
1047 17-02-2011 17:25:01 2.9 C 64 % -3.22 C
1048 17-02-2011 17:37:01 2.6 C 63 % -3.72 C
1049 17-02-2011 17:49:01 2.1 C 66 % -3.57 C
1050 17-02-2011 18:01:01 1.5 C 69 % -3.55 C
Sensor: Nr:Datum:Temp:Feuchte:Taupunkt:
Aussen-T/F 1051 17-02-2011 18:13:01 1.4 C 71 % -3.27 C
1052 17-02-2011 18:25:02 1 C 72 % -3.47 C
1053 17-02-2011 18:37:01 0.6 C 73 % -3.67 C
1054 17-02-2011 18:49:03 0.3 C 74 % -3.78 C
1055 17-02-2011 19:01:02 0 C 76 % -3.71 C
1056 17-02-2011 19:13:02 -0.4 C 78 % -3.76 C
1057 17-02-2011 19:25:02 -0.4 C 79 % -3.59 C
1058 17-02-2011 19:37:02 -0.9 C 79 % -4.08 C
1059 17-02-2011 19:49:02 -0.8 C 81 % -3.64 C
1060 17-02-2011 20:01:02 -0.2 C 83 % -2.73 C
1061 17-02-2011 20:13:02 0.2 C 83 % -2.34 C
1062 17-02-2011 20:25:02 0.2 C 83 % -2.34 C
1063 17-02-2011 20:37:02 0.3 C 82 % -2.4 C
1064 17-02-2011 20:49:01 0.5 C 81 % -2.37 C
1065 17-02-2011 21:02:02 0.5 C 81 % -2.37 C
1066 17-02-2011 21:14:03 0.8 C 80 % -2.25 C
1067 17-02-2011 21:26:03 1 C 78 % -2.39 C
1068 17-02-2011 21:38:03 1.1 C 76 % -2.65 C
1069 17-02-2011 21:50:03 1.3 C 74 % -2.81 C
1070 17-02-2011 22:02:03 1.3 C 73 % -2.99 C
1071 17-02-2011 22:14:03 1.3 C 72 % -3.18 C
1072 17-02-2011 22:26:03 1.3 C 72 % -3.18 C
1073 17-02-2011 22:38:03 1.3 C 72 % -3.18 C
1074 17-02-2011 22:50:03 1.3 C 72 % -3.18 C
1075 17-02-2011 23:02:03 1.3 C 72 % -3.18 C
Sensor: Nr:Datum:Temp:Feuchte:Taupunkt:
Aussen-T/F 1076 17-02-2011 23:14:03 1.4 C 71 % -3.27 C
1077 17-02-2011 23:26:03 1.4 C 71 % -3.27 C
1078 17-02-2011 23:38:03 1.4 C 72 % -3.08 C
1079 17-02-2011 23:50:03 1.3 C 72 % -3.18 C
1080 18-02-2011 00:02:03 1.3 C 72 % -3.18 C
1081 18-02-2011 00:14:03 1.4 C 72 % -3.08 C
1082 18-02-2011 00:26:03 1.3 C 72 % -3.18 C
1083 18-02-2011 00:38:03 1.2 C 73 % -3.09 C
1084 18-02-2011 00:50:03 1.2 C 73 % -3.09 C
1085 18-02-2011 01:02:03 1.3 C 73 % -2.99 C
1086 18-02-2011 01:14:03 1.2 C 72 % -3.27 C
1087 18-02-2011 01:26:04 1.2 C 72 % -3.27 C
1088 18-02-2011 01:38:04 1.2 C 72 % -3.27 C
1089 18-02-2011 01:50:04 1.2 C 72 % -3.27 C
1090 18-02-2011 02:02:04 1.2 C 73 % -3.09 C
1091 18-02-2011 02:14:04 1.3 C 74 % -2.81 C
1092 18-02-2011 02:26:04 1.2 C 74 % -2.91 C
1093 18-02-2011 02:38:04 1.2 C 74 % -2.91 C
1094 18-02-2011 02:50:04 1.2 C 74 % -2.91 C
1095 18-02-2011 03:02:04 1.2 C 74 % -2.91 C
1096 18-02-2011 03:14:04 1.2 C 74 % -2.91 C
1097 18-02-2011 03:26:04 1.3 C 73 % -2.99 C
1098 18-02-2011 03:38:04 1.3 C 73 % -2.99 C
1099 18-02-2011 03:50:04 1.3 C 72 % -3.18 C
1100 18-02-2011 04:02:04 1.3 C 73 % -2.99 C
Sensor: Nr:Datum:Temp:Feuchte:Taupunkt:
Aussen-T/F 1101 18-02-2011 04:14:04 1.3 C 73 % -2.99 C
1102 18-02-2011 04:26:04 1.3 C 72 % -3.18 C
1103 18-02-2011 04:38:04 1.3 C 72 % -3.18 C
1104 18-02-2011 04:50:04 1.3 C 72 % -3.18 C
1105 18-02-2011 05:02:04 1.2 C 72 % -3.27 C
1106 18-02-2011 05:14:04 1.2 C 72 % -3.27 C
1107 18-02-2011 05:26:04 1.2 C 73 % -3.09 C
1108 18-02-2011 05:38:05 1.2 C 73 % -3.09 C
1109 18-02-2011 05:50:05 1.1 C 74 % -3 C
1110 18-02-2011 06:02:05 1.1 C 74 % -3 C
1111 18-02-2011 06:14:05 1.2 C 74 % -2.91 C
1112 18-02-2011 06:26:05 1.2 C 75 % -2.73 C
1113 18-02-2011 06:38:05 1.2 C 74 % -2.91 C
1114 18-02-2011 06:50:05 1.2 C 74 % -2.91 C
1115 18-02-2011 07:02:05 1.3 C 74 % -2.81 C
1116 18-02-2011 07:14:05 1.2 C 75 % -2.73 C
1117 18-02-2011 07:26:05 1.2 C 75 % -2.73 C
1118 18-02-2011 07:38:02 1.3 C 74 % -2.81 C
1119 18-02-2011 07:50:02 1.2 C 74 % -2.91 C
1120 18-02-2011 08:02:03 1.4 C 74 % -2.71 C
1121 18-02-2011 08:14:03 1.4 C 75 % -2.53 C
1122 18-02-2011 08:26:02 1.5 C 74 % -2.62 C
1123 18-02-2011 08:38:03 1.6 C 74 % -2.52 C
1124 18-02-2011 08:50:02 1.7 C 74 % -2.42 C
1125 18-02-2011 09:02:02 1.8 C 74 % -2.33 C
Sensor: Nr:Datum:Temp:Feuchte:Taupunkt:
Aussen-T/F 1126 18-02-2011 09:14:02 2 C 71 % -2.69 C
1127 18-02-2011 09:26:01 2.2 C 70 % -2.69 C
1128 18-02-2011 09:38:02 2.3 C 69 % -2.79 C
1129 18-02-2011 09:50:02 2.3 C 69 % -2.79 C
1130 18-02-2011 10:02:02 2.5 C 69 % -2.6 C
1131 18-02-2011 10:14:02 2.4 C 68 % -2.89 C
1132 18-02-2011 10:26:02 2.5 C 68 % -2.79 C
1133 18-02-2011 10:38:02 2.5 C 69 % -2.6 C
1134 18-02-2011 10:50:02 2.7 C 69 % -2.4 C
1135 18-02-2011 11:02:01 2.8 C 69 % -2.31 C
1136 18-02-2011 11:14:01 2.8 C 68 % -2.51 C
1137 18-02-2011 11:26:02 3 C 67 % -2.51 C
1138 18-02-2011 11:38:02 3 C 67 % -2.51 C
1139 18-02-2011 11:50:02 3 C 67 % -2.51 C
1140 18-02-2011 12:02:02 3.1 C 67 % -2.42 C
1141 18-02-2011 12:14:02 3.3 C 67 % -2.23 C
1142 18-02-2011 12:26:02 3.2 C 67 % -2.32 C
1143 18-02-2011 12:38:02 3.2 C 67 % -2.32 C
1144 18-02-2011 12:50:02 3.1 C 67 % -2.42 C
1145 18-02-2011 13:02:02 3.2 C 68 % -2.12 C
1146 18-02-2011 13:14:02 3.2 C 67 % -2.32 C
1147 18-02-2011 13:26:01 3.5 C 68 % -1.84 C
1148 18-02-2011 13:38:02 3.4 C 67 % -2.13 C
1149 18-02-2011 13:50:02 3.6 C 66 % -2.14 C
1150 18-02-2011 14:02:02 3.4 C 67 % -2.13 C
Sensor: Nr:Datum:Temp:Feuchte:Taupunkt:
Aussen-T/F 1151 18-02-2011 14:14:03 3.7 C 67 % -1.85 C
1152 18-02-2011 14:26:01 3.6 C 67 % -1.94 C
1153 18-02-2011 14:38:02 3.6 C 67 % -1.94 C
1154 18-02-2011 14:50:01 3.5 C 68 % -1.84 C
1155 18-02-2011 15:02:02 3.7 C 68 % -1.64 C
1156 18-02-2011 15:14:02 3.8 C 67 % -1.75 C
1157 18-02-2011 15:26:02 3.6 C 66 % -2.14 C
1158 18-02-2011 15:38:02 3.6 C 66 % -2.14 C
1159 18-02-2011 15:50:02 3.6 C 67 % -1.94 C
1160 18-02-2011 16:02:01 3.6 C 67 % -1.94 C
1161 18-02-2011 16:14:01 3.5 C 68 % -1.84 C
1162 18-02-2011 16:26:02 3.4 C 68 % -1.93 C
1163 18-02-2011 16:38:01 3.2 C 69 % -1.93 C
1164 18-02-2011 16:50:03 3.1 C 70 % -1.83 C
1165 18-02-2011 17:02:02 3 C 71 % -1.73 C
1166 18-02-2011 17:14:02 2.9 C 72 % -1.64 C
1167 18-02-2011 17:26:02 2.9 C 72 % -1.64 C
1168 18-02-2011 17:38:03 2.9 C 73 % -1.45 C
1169 18-02-2011 17:50:02 2.8 C 74 % -1.36 C
1170 18-02-2011 18:02:02 2.8 C 74 % -1.36 C
1171 18-02-2011 18:14:02 2.8 C 75 % -1.18 C
1172 18-02-2011 18:26:02 2.7 C 75 % -1.28 C
1173 18-02-2011 18:38:02 2.7 C 76 % -1.1 C
1174 18-02-2011 18:50:02 2.6 C 75 % -1.37 C
1175 18-02-2011 19:02:01 2.6 C 76 % -1.19 C
Sensor: Nr:Datum:Temp:Feuchte:Taupunkt:
Aussen-T/F 1176 18-02-2011 19:14:01 2.7 C 76 % -1.1 C
1177 18-02-2011 19:26:02 2.6 C 76 % -1.19 C
1178 18-02-2011 19:38:01 2.7 C 77 % -0.92 C
1179 18-02-2011 19:50:02 2.6 C 77 % -1.02 C
1180 18-02-2011 20:02:01 2.5 C 77 % -1.11 C
1181 18-02-2011 20:14:01 2.5 C 77 % -1.11 C
1182 18-02-2011 20:26:01 2.5 C 77 % -1.11 C
1183 18-02-2011 20:38:02 2.5 C 78 % -0.94 C
1184 18-02-2011 20:50:02 2.4 C 78 % -1.03 C
1185 18-02-2011 21:02:02 2.4 C 79 % -0.86 C
1186 18-02-2011 21:14:02 2.4 C 79 % -0.86 C
1187 18-02-2011 21:26:02 2.4 C 79 % -0.86 C
1188 18-02-2011 21:38:02 2.4 C 79 % -0.86 C
1189 18-02-2011 21:51:04 2.3 C 79 % -0.96 C
1190 18-02-2011 22:03:04 2.3 C 79 % -0.96 C
1191 18-02-2011 22:15:04 2.3 C 79 % -0.96 C
1192 18-02-2011 22:27:04 2.2 C 79 % -1.05 C
1193 18-02-2011 22:39:04 2.2 C 80 % -0.88 C
1194 18-02-2011 22:51:04 2.2 C 80 % -0.88 C
1195 18-02-2011 23:03:04 2.3 C 80 % -0.79 C
1196 18-02-2011 23:15:04 2.2 C 81 % -0.71 C
1197 18-02-2011 23:27:04 2.2 C 81 % -0.71 C
1198 18-02-2011 23:39:04 2.2 C 81 % -0.71 C
1199 18-02-2011 23:51:04 2.2 C 81 % -0.71 C
1200 19-02-2011 00:03:04 2.1 C 81 % -0.81 C
Sensor: Nr:Datum:Temp:Feuchte:Taupunkt:
Aussen-T/F 1201 19-02-2011 00:15:04 2.1 C 81 % -0.81 C
1202 19-02-2011 00:27:04 2.2 C 81 % -0.71 C
1203 19-02-2011 00:39:04 2.2 C 82 % -0.55 C
1204 19-02-2011 00:51:04 2.2 C 82 % -0.55 C
1205 19-02-2011 01:03:04 2.1 C 82 % -0.64 C
1206 19-02-2011 01:15:05 2.1 C 82 % -0.64 C
1207 19-02-2011 01:27:05 2.1 C 82 % -0.64 C
1208 19-02-2011 01:39:05 2.1 C 82 % -0.64 C
1209 19-02-2011 01:51:05 2 C 82 % -0.74 C
1210 19-02-2011 02:03:05 2 C 82 % -0.74 C
1211 19-02-2011 02:15:05 2 C 82 % -0.74 C
1212 19-02-2011 02:27:05 1.9 C 83 % -0.67 C
1213 19-02-2011 02:39:05 2 C 82 % -0.74 C
1214 19-02-2011 02:51:05 2 C 82 % -0.74 C
1215 19-02-2011 03:03:05 1.9 C 83 % -0.67 C
1216 19-02-2011 03:15:05 1.9 C 83 % -0.67 C
1217 19-02-2011 03:27:05 2 C 83 % -0.58 C
1218 19-02-2011 03:39:05 2 C 83 % -0.58 C
1219 19-02-2011 03:51:05 1.9 C 83 % -0.67 C
1220 19-02-2011 04:03:05 1.9 C 84 % -0.51 C
1221 19-02-2011 04:15:05 1.9 C 84 % -0.51 C
1222 19-02-2011 04:27:05 1.8 C 84 % -0.61 C
1223 19-02-2011 04:39:05 1.9 C 84 % -0.51 C
1224 19-02-2011 04:51:05 1.8 C 84 % -0.61 C
1225 19-02-2011 05:03:05 1.8 C 84 % -0.61 C
Sensor: Nr:Datum:Temp:Feuchte:Taupunkt:
Aussen-T/F 1226 19-02-2011 05:15:05 1.8 C 84 % -0.61 C
1227 19-02-2011 05:27:06 1.9 C 83 % -0.67 C
1228 19-02-2011 05:39:06 1.9 C 82 % -0.84 C
1229 19-02-2011 05:51:06 2 C 79 % -1.25 C
1230 19-02-2011 06:03:06 2 C 79 % -1.25 C
1231 19-02-2011 06:15:06 1.8 C 79 % -1.44 C
1232 19-02-2011 06:27:06 1.7 C 80 % -1.37 C
1233 19-02-2011 06:39:06 1.7 C 81 % -1.2 C
1234 19-02-2011 06:51:06 1.8 C 81 % -1.1 C
1235 19-02-2011 07:03:06 1.8 C 80 % -1.27 C
1236 19-02-2011 07:15:06 1.7 C 80 % -1.37 C
1237 19-02-2011 07:27:06 1.6 C 80 % -1.47 C
1238 19-02-2011 07:39:06 1.6 C 81 % -1.3 C
1239 19-02-2011 07:51:06 1.7 C 80 % -1.37 C
1240 19-02-2011 08:03:06 1.7 C 80 % -1.37 C
1241 19-02-2011 08:15:06 1.7 C 79 % -1.54 C
1242 19-02-2011 08:27:06 1.8 C 78 % -1.62 C
1243 19-02-2011 08:39:06 1.8 C 77 % -1.79 C
1244 19-02-2011 08:51:02 1.9 C 77 % -1.69 C
1245 19-02-2011 09:03:02 2 C 75 % -1.95 C
1246 19-02-2011 09:15:02 2 C 74 % -2.13 C
1247 19-02-2011 09:27:02 2.1 C 73 % -2.22 C
1248 19-02-2011 09:39:02 2.2 C 73 % -2.13 C
1249 19-02-2011 09:51:02 2.1 C 73 % -2.22 C
1250 19-02-2011 10:03:02 2.2 C 73 % -2.13 C
Sensor: Nr:Datum:Temp:Feuchte:Taupunkt:
Aussen-T/F 1251 19-02-2011 10:15:02 2.5 C 72 % -2.02 C
1252 19-02-2011 10:27:02 2.8 C 71 % -1.92 C
1253 19-02-2011 10:39:02 3.2 C 69 % -1.93 C
1254 19-02-2011 10:51:02 3.4 C 68 % -1.93 C
1255 19-02-2011 11:03:02 3.4 C 67 % -2.13 C
1256 19-02-2011 11:15:02 3.8 C 66 % -1.95 C
1257 19-02-2011 11:27:02 3.8 C 65 % -2.16 C
1258 19-02-2011 11:39:02 4 C 63 % -2.39 C
1259 19-02-2011 11:51:02 4.1 C 61 % -2.73 C
1260 19-02-2011 12:03:02 4.4 C 61 % -2.45 C
1261 19-02-2011 12:15:02 4.9 C 60 % -2.2 C
1262 19-02-2011 12:27:03 5.4 C 57 % -2.42 C
1263 19-02-2011 12:39:01 5.3 C 56 % -2.75 C
1264 19-02-2011 12:51:02 4.7 C 60 % -2.39 C
1265 19-02-2011 13:03:01 4.7 C 61 % -2.16 C
1266 19-02-2011 13:15:01 4.9 C 60 % -2.2 C
1267 19-02-2011 13:27:01 5.1 C 59 % -2.24 C
1268 19-02-2011 13:39:02 5.2 C 59 % -2.14 C
1269 19-02-2011 13:51:02 5.8 C 57 % -2.04 C
1270 19-02-2011 14:03:02 5.2 C 58 % -2.37 C
1271 19-02-2011 14:15:02 4.8 C 59 % -2.52 C
1272 19-02-2011 14:27:02 4.6 C 61 % -2.26 C
1273 19-02-2011 14:39:02 4.5 C 61 % -2.35 C
1274 19-02-2011 14:51:02 4.6 C 61 % -2.26 C
1275 19-02-2011 15:03:02 4.7 C 61 % -2.16 C
Sensor: Nr:Datum:Temp:Feuchte:Taupunkt:
Aussen-T/F 1276 19-02-2011 15:15:02 4.6 C 62 % -2.04 C
1277 19-02-2011 15:27:02 4.6 C 61 % -2.26 C
1278 19-02-2011 15:39:02 4.5 C 61 % -2.35 C
1279 19-02-2011 15:51:02 4.9 C 61 % -1.97 C
1280 19-02-2011 16:03:02 4.8 C 61 % -2.07 C
1281 19-02-2011 16:15:03 4.6 C 62 % -2.04 C
1282 19-02-2011 16:27:03 4.3 C 64 % -1.89 C
1283 19-02-2011 16:39:02 4.2 C 65 % -1.78 C
1284 19-02-2011 16:51:02 4.1 C 65 % -1.87 C
1285 19-02-2011 17:03:02 4.1 C 66 % -1.67 C
1286 19-02-2011 17:15:02 3.8 C 67 % -1.75 C
1287 19-02-2011 17:27:02 3.6 C 69 % -1.54 C
1288 19-02-2011 17:39:02 3.6 C 70 % -1.35 C
1289 19-02-2011 17:51:02 3.6 C 70 % -1.35 C
1290 19-02-2011 18:03:02 3.3 C 71 % -1.44 C
1291 19-02-2011 18:15:02 3.1 C 71 % -1.63 C
1292 19-02-2011 18:27:02 3 C 72 % -1.54 C
1293 19-02-2011 18:39:01 2.9 C 74 % -1.27 C
1294 19-02-2011 18:51:02 2.8 C 74 % -1.36 C
1295 19-02-2011 19:03:01 2.8 C 74 % -1.36 C
1296 19-02-2011 19:15:01 3 C 74 % -1.17 C
1297 19-02-2011 19:27:01 2.9 C 74 % -1.27 C
1298 19-02-2011 19:39:02 2.9 C 74 % -1.27 C
1299 19-02-2011 19:51:02 2.9 C 74 % -1.27 C
1300 19-02-2011 20:03:02 2.6 C 74 % -1.56 C
Sensor: Nr:Datum:Temp:Feuchte:Taupunkt:
Aussen-T/F 1301 19-02-2011 20:15:01 2.5 C 74 % -1.65 C
1302 19-02-2011 20:27:01 2.4 C 74 % -1.75 C
1303 19-02-2011 20:39:02 1.6 C 76 % -2.16 C
1304 19-02-2011 20:51:02 1.6 C 79 % -1.64 C
1305 19-02-2011 21:03:02 2 C 80 % -1.08 C
1306 19-02-2011 21:15:01 2.3 C 79 % -0.96 C
1307 19-02-2011 21:27:01 2.4 C 77 % -1.21 C
1308 19-02-2011 21:39:02 2.5 C 76 % -1.29 C
1309 19-02-2011 21:51:02 2.6 C 74 % -1.56 C
1310 19-02-2011 22:03:02 2.5 C 74 % -1.65 C
1311 19-02-2011 22:15:02 2.4 C 73 % -1.93 C
1312 19-02-2011 22:27:02 2.2 C 73 % -2.13 C
1313 19-02-2011 22:40:03 1.9 C 75 % -2.05 C
1314 19-02-2011 22:52:03 1.8 C 75 % -2.15 C
1315 19-02-2011 23:04:03 1.8 C 75 % -2.15 C
1316 19-02-2011 23:16:03 1.7 C 76 % -2.07 C
1317 19-02-2011 23:28:03 1.8 C 76 % -1.97 C
1318 19-02-2011 23:40:03 1.9 C 75 % -2.05 C
1319 19-02-2011 23:52:03 1.8 C 74 % -2.33 C
1320 20-02-2011 00:04:03 1.7 C 74 % -2.42 C
1321 20-02-2011 00:16:03 1.7 C 73 % -2.61 C
1322 20-02-2011 00:28:03 1.6 C 72 % -2.89 C
1323 20-02-2011 00:40:04 1.5 C 72 % -2.99 C
1324 20-02-2011 00:52:04 1.4 C 72 % -3.08 C
1325 20-02-2011 01:04:04 1.3 C 72 % -3.18 C
Sensor: Nr:Datum:Temp:Feuchte:Taupunkt:
Aussen-T/F 1326 20-02-2011 01:16:04 1.1 C 72 % -3.37 C
1327 20-02-2011 01:28:04 0.9 C 74 % -3.2 C
1328 20-02-2011 01:40:04 0.7 C 75 % -3.21 C
1329 20-02-2011 01:52:04 0.5 C 75 % -3.4 C
1330 20-02-2011 02:04:04 0.5 C 76 % -3.23 C
1331 20-02-2011 02:16:04 0.5 C 76 % -3.23 C
1332 20-02-2011 02:28:04 0.5 C 76 % -3.23 C
1333 20-02-2011 02:40:04 0.6 C 76 % -3.13 C
1334 20-02-2011 02:52:04 0.7 C 75 % -3.21 C
1335 20-02-2011 03:04:04 0.8 C 74 % -3.29 C
1336 20-02-2011 03:16:04 0.8 C 73 % -3.48 C
1337 20-02-2011 03:28:04 0.7 C 73 % -3.57 C
1338 20-02-2011 03:40:04 0.6 C 72 % -3.85 C
1339 20-02-2011 03:52:04 0.6 C 72 % -3.85 C
1340 20-02-2011 04:04:04 0.6 C 72 % -3.85 C
1341 20-02-2011 04:16:04 0.5 C 72 % -3.95 C
1342 20-02-2011 04:28:04 0.5 C 72 % -3.95 C
1343 20-02-2011 04:40:05 0.5 C 72 % -3.95 C
1344 20-02-2011 04:52:05 0.5 C 72 % -3.95 C
1345 20-02-2011 05:04:05 0.5 C 71 % -4.13 C
1346 20-02-2011 05:16:05 0.4 C 72 % -4.04 C
1347 20-02-2011 05:28:05 0.3 C 72 % -4.14 C
1348 20-02-2011 05:40:05 0.3 C 72 % -4.14 C
1349 20-02-2011 05:52:05 0.2 C 72 % -4.24 C
1350 20-02-2011 06:04:05 0.3 C 71 % -4.33 C
Sensor: Nr:Datum:Temp:Feuchte:Taupunkt:
Aussen-T/F 1351 20-02-2011 06:16:05 0.3 C 71 % -4.33 C
1352 20-02-2011 06:28:05 0.4 C 71 % -4.23 C
1353 20-02-2011 06:40:05 0.4 C 71 % -4.23 C
1354 20-02-2011 06:52:05 0.4 C 71 % -4.23 C
1355 20-02-2011 07:04:05 0.4 C 71 % -4.23 C
1356 20-02-2011 07:16:05 0.5 C 70 % -4.32 C
1357 20-02-2011 07:28:05 0.4 C 70 % -4.42 C
1358 20-02-2011 07:40:05 0.4 C 69 % -4.61 C
1359 20-02-2011 07:52:05 0.4 C 68 % -4.8 C
1360 20-02-2011 08:04:05 0.5 C 68 % -4.71 C
1361 20-02-2011 08:16:05 0.4 C 68 % -4.8 C
1362 20-02-2011 08:28:05 0.5 C 67 % -4.9 C
1363 20-02-2011 08:40:05 0.6 C 67 % -4.81 C
1364 20-02-2011 08:52:06 0.7 C 66 % -4.91 C
1365 20-02-2011 09:04:06 0.7 C 66 % -4.91 C
1366 20-02-2011 09:16:06 0.9 C 65 % -4.92 C
1367 20-02-2011 09:28:06 1.2 C 63 % -5.05 C
1368 20-02-2011 09:40:03 1.2 C 62 % -5.26 C
1369 20-02-2011 09:52:01 1.5 C 61 % -5.19 C
1370 20-02-2011 10:04:02 1.5 C 60 % -5.4 C
1371 20-02-2011 10:16:02 1.6 C 60 % -5.31 C
1372 20-02-2011 10:28:02 1.6 C 59 % -5.53 C
1373 20-02-2011 10:40:01 1.7 C 59 % -5.43 C
1374 20-02-2011 10:52:02 1.7 C 58 % -5.66 C
1375 20-02-2011 11:04:01 1.8 C 57 % -5.79 C
Sensor: Nr:Datum:Temp:Feuchte:Taupunkt:
Aussen-T/F 1376 20-02-2011 11:16:02 2.3 C 57 % -5.32 C
1377 20-02-2011 11:28:02 2 C 56 % -5.84 C
1378 20-02-2011 11:40:01 2.4 C 56 % -5.46 C
1379 20-02-2011 11:52:03 2.2 C 55 % -5.89 C
1380 20-02-2011 12:04:02 2.5 C 55 % -5.61 C
1381 20-02-2011 12:16:02 2.4 C 54 % -5.94 C
1382 20-02-2011 12:28:02 2.5 C 54 % -5.85 C
1383 20-02-2011 12:40:02 2.5 C 54 % -5.85 C
1384 20-02-2011 12:52:02 2.2 C 54 % -6.12 C
1385 20-02-2011 13:04:01 2.3 C 54 % -6.03 C
1386 20-02-2011 13:16:02 2.2 C 54 % -6.12 C
1387 20-02-2011 13:28:02 2.3 C 54 % -6.03 C
1388 20-02-2011 13:40:02 2.1 C 54 % -6.22 C
1389 20-02-2011 13:52:01 2.2 C 54 % -6.12 C
1390 20-02-2011 14:04:02 2.2 C 54 % -6.12 C
1391 20-02-2011 14:16:01 2.2 C 53 % -6.37 C
1392 20-02-2011 14:28:01 2 C 53 % -6.55 C
1393 20-02-2011 14:40:01 1.9 C 54 % -6.4 C
1394 20-02-2011 14:52:01 2.4 C 52 % -6.43 C
1395 20-02-2011 15:04:02 2.5 C 51 % -6.59 C
1396 20-02-2011 15:16:01 2.6 C 50 % -6.75 C
1397 20-02-2011 15:28:01 2.5 C 50 % -6.85 C
1398 20-02-2011 15:40:02 2.6 C 50 % -6.75 C
1399 20-02-2011 15:52:01 2.2 C 50 % -7.12 C
1400 20-02-2011 16:04:02 1.7 C 53 % -6.83 C
Sensor: Nr:Datum:Temp:Feuchte:Taupunkt:
Aussen-T/F 1401 20-02-2011 16:16:02 1.6 C 53 % -6.93 C
1402 20-02-2011 16:28:02 1.3 C 55 % -6.73 C
1403 20-02-2011 16:40:01 1.1 C 55 % -6.91 C
1404 20-02-2011 16:52:01 1 C 56 % -6.77 C
1405 20-02-2011 17:04:01 1 C 57 % -6.54 C
1406 20-02-2011 17:16:02 0.7 C 57 % -6.82 C
1407 20-02-2011 17:28:02 0.5 C 58 % -6.79 C
1408 20-02-2011 17:40:01 0.5 C 58 % -6.79 C
1409 20-02-2011 17:52:02 0.3 C 58 % -6.97 C
1410 20-02-2011 18:04:01 0.1 C 57 % -7.39 C
1411 20-02-2011 18:16:01 0.1 C 58 % -7.16 C
1412 20-02-2011 18:28:01 0 C 59 % -7.04 C
1413 20-02-2011 18:40:01 0 C 58 % -7.26 C
1414 20-02-2011 18:52:02 -0.2 C 58 % -7.45 C
1415 20-02-2011 19:04:01 -0.2 C 58 % -7.45 C
1416 20-02-2011 19:16:02 -0.3 C 58 % -7.55 C
1417 20-02-2011 19:28:02 -0.3 C 59 % -7.33 C
1418 20-02-2011 19:40:02 -0.3 C 58 % -7.55 C
1419 20-02-2011 19:52:02 -0.5 C 57 % -7.96 C
1420 20-02-2011 20:04:02 -0.6 C 58 % -7.83 C
1421 20-02-2011 20:16:02 -0.7 C 58 % -7.92 C
1422 20-02-2011 20:28:02 -0.8 C 57 % -8.24 C
1423 20-02-2011 20:40:01 -0.9 C 57 % -8.34 C
1424 20-02-2011 20:52:01 -0.9 C 57 % -8.34 C
1425 20-02-2011 21:04:01 -0.9 C 57 % -8.34 C
Sensor: Nr:Datum:Temp:Feuchte:Taupunkt:
Aussen-T/F 1426 20-02-2011 21:16:02 -0.9 C 56 % -8.56 C
1427 20-02-2011 21:28:02 -1.1 C 56 % -8.75 C
1428 20-02-2011 21:40:01 -1.1 C 57 % -8.52 C
1429 20-02-2011 21:53:06 -1.2 C 57 % -8.62 C
1430 20-02-2011 22:05:06 -1.3 C 57 % -8.71 C
1431 20-02-2011 22:17:06 -1.4 C 57 % -8.81 C
1432 20-02-2011 22:29:06 -1.4 C 57 % -8.81 C
1433 20-02-2011 22:41:06 -1.4 C 57 % -8.81 C
1434 20-02-2011 22:53:06 -1.5 C 57 % -8.9 C
1435 20-02-2011 23:05:06 -1.6 C 57 % -8.99 C
1436 20-02-2011 23:17:07 -1.6 C 57 % -8.99 C
1437 20-02-2011 23:29:07 -1.7 C 57 % -9.09 C
1438 20-02-2011 23:41:07 -1.6 C 57 % -8.99 C
1439 20-02-2011 23:53:07 -1.7 C 56 % -9.31 C
1440 21-02-2011 00:05:07 -1.8 C 56 % -9.41 C
1441 21-02-2011 00:17:07 -1.8 C 56 % -9.41 C
1442 21-02-2011 00:29:07 -1.8 C 56 % -9.41 C
1443 21-02-2011 00:41:07 -1.9 C 57 % -9.28 C
1444 21-02-2011 00:53:07 -1.9 C 57 % -9.28 C
1445 21-02-2011 01:05:07 -1.9 C 56 % -9.5 C
1446 21-02-2011 01:17:07 -2 C 55 % -9.82 C
1447 21-02-2011 01:29:07 -2 C 56 % -9.59 C
1448 21-02-2011 01:41:07 -2.1 C 56 % -9.69 C
1449 21-02-2011 01:53:07 -2.1 C 56 % -9.69 C
1450 21-02-2011 02:05:07 -2.1 C 56 % -9.69 C
Sensor: Nr:Datum:Temp:Feuchte:Taupunkt:
Aussen-T/F 1451 21-02-2011 02:17:07 -2.2 C 56 % -9.78 C
1452 21-02-2011 02:29:07 -2.3 C 56 % -9.87 C
1453 21-02-2011 02:41:07 -2.3 C 56 % -9.87 C
1454 21-02-2011 02:53:07 -2.3 C 56 % -9.87 C
1455 21-02-2011 03:05:07 -2.3 C 56 % -9.87 C
1456 21-02-2011 03:17:08 -2.3 C 56 % -9.87 C
1457 21-02-2011 03:29:08 -2.4 C 55 % -10.2 C
1458 21-02-2011 03:41:08 -2.5 C 55 % -10.29 C
1459 21-02-2011 03:53:08 -2.5 C 56 % -10.06 C
1460 21-02-2011 04:05:08 -2.6 C 55 % -10.38 C
1461 21-02-2011 04:17:08 -2.6 C 54 % -10.61 C
1462 21-02-2011 04:29:08 -2.7 C 55 % -10.48 C
1463 21-02-2011 04:41:08 -2.6 C 55 % -10.38 C
1464 21-02-2011 04:53:08 -2.7 C 55 % -10.48 C
1465 21-02-2011 05:05:08 -2.7 C 55 % -10.48 C
1466 21-02-2011 05:17:08 -2.7 C 55 % -10.48 C
1467 21-02-2011 05:29:08 -2.7 C 55 % -10.48 C
1468 21-02-2011 05:41:08 -2.7 C 55 % -10.48 C
1469 21-02-2011 05:53:08 -2.8 C 55 % -10.57 C
1470 21-02-2011 06:05:08 -2.8 C 55 % -10.57 C
1471 21-02-2011 06:17:08 -2.9 C 55 % -10.66 C
1472 21-02-2011 06:29:08 -2.9 C 55 % -10.66 C
1473 21-02-2011 06:41:08 -3 C 55 % -10.76 C
1474 21-02-2011 06:53:08 -3 C 55 % -10.76 C
1475 21-02-2011 07:05:08 -3.1 C 55 % -10.85 C
Sensor: Nr:Datum:Temp:Feuchte:Taupunkt:
Aussen-T/F 1476 21-02-2011 07:17:02 -3.2 C 55 % -10.94 C
1477 21-02-2011 07:29:02 -3.2 C 55 % -10.94 C
1478 21-02-2011 07:41:02 -3.3 C 54 % -11.27 C
1479 21-02-2011 07:53:02 -3.3 C 54 % -11.27 C
1480 21-02-2011 08:05:03 -3.3 C 54 % -11.27 C
1481 21-02-2011 08:17:02 -3.4 C 53 % -11.59 C
1482 21-02-2011 08:29:02 -3.3 C 54 % -11.27 C
1483 21-02-2011 08:41:02 -3.3 C 54 % -11.27 C
1484 21-02-2011 08:53:01 -3.3 C 54 % -11.27 C
1485 21-02-2011 09:05:02 -3.2 C 53 % -11.41 C
1486 21-02-2011 09:17:01 -3.2 C 53 % -11.41 C
1487 21-02-2011 09:29:01 -3 C 53 % -11.22 C
1488 21-02-2011 09:41:02 -2.7 C 52 % -11.18 C
1489 21-02-2011 09:53:02 -2.5 C 51 % -11.24 C
1490 21-02-2011 10:05:02 -2.4 C 51 % -11.14 C
1491 21-02-2011 10:17:02 -2.2 C 50 % -11.21 C
1492 21-02-2011 10:29:03 -2 C 50 % -11.02 C
1493 21-02-2011 10:41:01 -1.6 C 49 % -10.91 C
1494 21-02-2011 10:53:02 -2 C 48 % -11.53 C
1495 21-02-2011 11:05:01 -1.8 C 47 % -11.61 C
1496 21-02-2011 11:17:01 -1.5 C 48 % -11.07 C
1497 21-02-2011 11:29:01 -1.1 C 47 % -10.97 C
1498 21-02-2011 11:41:02 -1.9 C 46 % -11.97 C
1499 21-02-2011 11:53:02 -1.3 C 46 % -11.42 C
1500 21-02-2011 12:05:02 -1 C 45 % -11.42 C
Sensor: Nr:Datum:Temp:Feuchte:Taupunkt:
Aussen-T/F 1501 21-02-2011 12:17:02 -1.2 C 46 % -11.33 C
1502 21-02-2011 12:29:02 -1.1 C 46 % -11.24 C
1503 21-02-2011 12:41:02 -1.1 C 46 % -11.24 C
1504 21-02-2011 12:53:02 -1.3 C 46 % -11.42 C
1505 21-02-2011 13:05:02 -1.1 C 46 % -11.24 C
1506 21-02-2011 13:17:02 -1 C 47 % -10.87 C
1507 21-02-2011 13:29:02 -1 C 47 % -10.87 C
1508 21-02-2011 13:41:02 -0.7 C 47 % -10.6 C
1509 21-02-2011 13:53:02 -0.6 C 46 % -10.78 C
1510 21-02-2011 14:05:02 -0.4 C 46 % -10.59 C
1511 21-02-2011 14:17:03 -0.2 C 46 % -10.41 C
1512 21-02-2011 14:29:03 -0.7 C 46 % -10.87 C
1513 21-02-2011 14:41:02 -0.6 C 46 % -10.78 C
1514 21-02-2011 14:53:02 -0.4 C 47 % -10.32 C
1515 21-02-2011 15:05:02 -0.3 C 46 % -10.5 C
1516 21-02-2011 15:17:02 0 C 46 % -10.21 C
1517 21-02-2011 15:29:02 -0.2 C 46 % -10.41 C
1518 21-02-2011 15:41:02 -0.1 C 47 % -10.05 C
1519 21-02-2011 15:53:02 -0.2 C 47 % -10.14 C
1520 21-02-2011 16:05:02 -0.6 C 47 % -10.51 C
1521 21-02-2011 16:17:02 -0.7 C 48 % -10.33 C
1522 21-02-2011 16:29:02 -0.6 C 49 % -9.98 C
1523 21-02-2011 16:41:01 -0.6 C 49 % -9.98 C
1524 21-02-2011 16:53:02 -0.7 C 50 % -9.82 C
1525 21-02-2011 17:05:01 -0.8 C 50 % -9.91 C
Sensor: Nr:Datum:Temp:Feuchte:Taupunkt:
Aussen-T/F 1526 21-02-2011 17:17:02 -0.9 C 50 % -10 C
1527 21-02-2011 17:29:02 -1 C 51 % -9.85 C
1528 21-02-2011 17:41:02 -1.1 C 51 % -9.94 C
1529 21-02-2011 17:53:02 -1.2 C 51 % -10.03 C
1530 21-02-2011 18:05:03 -1.1 C 52 % -9.69 C
1531 21-02-2011 18:17:02 -1.1 C 51 % -9.94 C
1532 21-02-2011 18:29:02 -1.2 C 51 % -10.03 C
1533 21-02-2011 18:41:02 -1.2 C 52 % -9.79 C
1534 21-02-2011 18:53:01 -1.2 C 51 % -10.03 C
1535 21-02-2011 19:05:02 -1.2 C 51 % -10.03 C
1536 21-02-2011 19:17:01 -1.1 C 51 % -9.94 C
1537 21-02-2011 19:29:01 -1.2 C 51 % -10.03 C
1538 21-02-2011 19:41:02 -1.1 C 51 % -9.94 C
1539 21-02-2011 19:53:01 -1.1 C 51 % -9.94 C
1540 21-02-2011 20:05:02 -1.1 C 51 % -9.94 C
1541 21-02-2011 20:17:01 -1.1 C 51 % -9.94 C
1542 21-02-2011 20:29:01 -1.1 C 52 % -9.69 C
1543 21-02-2011 20:41:02 -1.2 C 51 % -10.03 C
1544 21-02-2011 20:53:02 -1.1 C 51 % -9.94 C
1545 21-02-2011 21:05:02 -1.2 C 52 % -9.79 C
1546 21-02-2011 21:17:01 -1.3 C 53 % -9.64 C
1547 21-02-2011 21:29:01 -1.4 C 52 % -9.97 C
1548 21-02-2011 21:41:02 -1.3 C 52 % -9.88 C
1549 21-02-2011 21:53:02 -1.3 C 50 % -10.37 C
1550 21-02-2011 22:05:02 -1.5 C 50 % -10.56 C
Sensor: Nr:Datum:Temp:Feuchte:Taupunkt:
Aussen-T/F 1551 21-02-2011 22:17:02 -1.5 C 50 % -10.56 C
1552 21-02-2011 22:29:02 -1.7 C 49 % -11 C
1553 21-02-2011 22:42:10 -1.9 C 50 % -10.93 C
1554 21-02-2011 22:54:10 -2 C 50 % -11.02 C
1555 21-02-2011 23:06:11 -2.4 C 51 % -11.14 C
1556 21-02-2011 23:18:11 -2.6 C 52 % -11.09 C
1557 21-02-2011 23:30:11 -2.9 C 53 % -11.13 C
1558 21-02-2011 23:42:11 -3.3 C 54 % -11.27 C
1559 21-02-2011 23:54:12 -3.7 C 56 % -11.19 C
1560 22-02-2011 00:06:12 -3.9 C 57 % -11.15 C
1561 22-02-2011 00:18:12 -3.7 C 58 % -10.75 C
1562 22-02-2011 00:30:12 -3.6 C 56 % -11.09 C
1563 22-02-2011 00:42:12 -3.3 C 55 % -11.04 C
1564 22-02-2011 00:54:12 -3.3 C 54 % -11.27 C
1565 22-02-2011 01:06:12 -3.1 C 54 % -11.08 C
1566 22-02-2011 01:18:12 -3.1 C 53 % -11.31 C
1567 22-02-2011 01:30:13 -3.2 C 53 % -11.41 C
1568 22-02-2011 01:42:13 -3.3 C 53 % -11.5 C
1569 22-02-2011 01:54:13 -3.2 C 53 % -11.41 C
1570 22-02-2011 02:06:13 -3.3 C 53 % -11.5 C
1571 22-02-2011 02:18:13 -3.3 C 53 % -11.5 C
1572 22-02-2011 02:30:13 -3.3 C 52 % -11.74 C
1573 22-02-2011 02:42:13 -3.3 C 52 % -11.74 C
1574 22-02-2011 02:54:13 -3.5 C 53 % -11.69 C
1575 22-02-2011 03:06:13 -3.7 C 53 % -11.87 C
Sensor: Nr:Datum:Temp:Feuchte:Taupunkt:
Aussen-T/F 1576 22-02-2011 03:18:13 -3.8 C 53 % -11.97 C
1577 22-02-2011 03:30:13 -4 C 53 % -12.15 C
1578 22-02-2011 03:42:13 -4.2 C 54 % -12.11 C
1579 22-02-2011 03:54:13 -4.4 C 55 % -12.07 C
1580 22-02-2011 04:06:13 -4.5 C 55 % -12.16 C
1581 22-02-2011 04:18:13 -4.7 C 55 % -12.35 C
1582 22-02-2011 04:30:13 -4.9 C 55 % -12.54 C
1583 22-02-2011 04:42:13 -5.2 C 56 % -12.59 C
1584 22-02-2011 04:54:13 -5.5 C 56 % -12.88 C
1585 22-02-2011 05:06:13 -5.6 C 58 % -12.54 C
1586 22-02-2011 05:18:13 -5.7 C 58 % -12.63 C
1587 22-02-2011 05:30:14 -6 C 58 % -12.91 C
1588 22-02-2011 05:42:14 -6.3 C 60 % -12.78 C
1589 22-02-2011 05:54:14 -6.7 C 60 % -13.16 C
1590 22-02-2011 06:06:14 -7.2 C 62 % -13.23 C
1591 22-02-2011 06:18:14 -7.9 C 64 % -13.5 C
1592 22-02-2011 06:30:14 -8.1 C 67 % -13.13 C
1593 22-02-2011 06:42:14 -8 C 68 % -12.85 C
1594 22-02-2011 06:54:14 -7.7 C 69 % -12.39 C
1595 22-02-2011 07:06:14 -8 C 68 % -12.85 C
1596 22-02-2011 07:18:03 -8.2 C 69 % -12.87 C
1597 22-02-2011 07:30:03 -8.7 C 69 % -13.35 C
1598 22-02-2011 07:42:03 -8.4 C 71 % -12.71 C
1599 22-02-2011 07:54:02 -8.3 C 71 % -12.61 C
1600 22-02-2011 08:06:02 -8.1 C 71 % -12.42 C
Sensor: Nr:Datum:Temp:Feuchte:Taupunkt:
Aussen-T/F 1601 22-02-2011 08:18:02 -7.7 C 70 % -12.21 C
1602 22-02-2011 08:30:02 -7.8 C 67 % -12.85 C
1603 22-02-2011 08:42:02 -7.5 C 66 % -12.74 C
1604 22-02-2011 08:54:01 -7.5 C 65 % -12.93 C
1605 22-02-2011 09:06:01 -7.3 C 65 % -12.74 C
1606 22-02-2011 09:18:02 -6.9 C 64 % -12.55 C
1607 22-02-2011 09:30:02 -6.9 C 63 % -12.75 C
1608 22-02-2011 09:42:01 -6.9 C 62 % -12.94 C
1609 22-02-2011 09:54:02 -6.8 C 61 % -13.05 C
1610 22-02-2011 10:06:02 -6.5 C 60 % -12.97 C
1611 22-02-2011 10:18:02 -6.1 C 59 % -12.8 C
1612 22-02-2011 10:30:02 -5.7 C 58 % -12.63 C
1613 22-02-2011 10:42:03 -5.3 C 57 % -12.47 C
1614 22-02-2011 10:54:01 -5 C 55 % -12.63 C
1615 22-02-2011 11:06:02 -4.5 C 53 % -12.62 C
1616 22-02-2011 11:18:01 -3.6 C 50 % -12.5 C
1617 22-02-2011 11:30:01 -3.7 C 49 % -12.85 C
1618 22-02-2011 11:42:01 -3.1 C 47 % -12.81 C
1619 22-02-2011 11:54:01 -2.8 C 45 % -13.07 C
1620 22-02-2011 12:06:01 -1.9 C 44 % -12.52 C
1621 22-02-2011 12:18:02 -1 C 41 % -12.57 C
1622 22-02-2011 12:30:02 -1.1 C 41 % -12.67 C
1623 22-02-2011 12:42:01 0.3 C 40 % -11.69 C
1624 22-02-2011 12:54:03 3.5 C 31 % -12 C
1625 22-02-2011 13:06:02 3.1 C 26 % -14.51 C
Sensor: Nr:Datum:Temp:Feuchte:Taupunkt:
Aussen-T/F 1626 22-02-2011 13:18:02 3.8 C 26 % -13.9 C
1627 22-02-2011 13:30:02 2.3 C 23 % -16.66 C
1628 22-02-2011 13:42:02 0.7 C 32 % -14.07 C
1629 22-02-2011 13:54:02 -0.2 C 37 % -13.12 C
1630 22-02-2011 14:06:02 0.4 C 38 % -12.23 C
1631 22-02-2011 14:18:02 1.3 C 35 % -12.44 C
1632 22-02-2011 14:30:02 1.3 C 35 % -12.44 C
1633 22-02-2011 14:42:02 2.9 C 32 % -12.14 C
1634 22-02-2011 14:54:02 2.2 C 30 % -13.54 C
1635 22-02-2011 15:06:02 3 C 30 % -12.85 C
1636 22-02-2011 15:18:01 4.1 C 27 % -13.19 C
1637 22-02-2011 15:30:01 3.5 C 25 % -14.64 C
1638 22-02-2011 15:42:02 3 C 25 % -15.07 C
1639 22-02-2011 15:54:02 3.8 C 25 % -14.38 C
1640 22-02-2011 16:06:02 4.4 C 20 % -16.55 C
1641 22-02-2011 16:18:01 6.3 C 20 % -14.97 C
1642 22-02-2011 16:30:01 6.6 C 20 % -14.72 C
1643 22-02-2011 16:42:02 5.5 C 20 % -15.64 C
1644 22-02-2011 16:54:02 6.7 C 20 % -14.64 C
1645 22-02-2011 17:06:02 5.2 C 20 % -15.89 C
1646 22-02-2011 17:18:01 4 C 20 % -16.89 C
1647 22-02-2011 17:30:01 1 C 36 % -12.36 C
1648 22-02-2011 17:42:02 -1.2 C 42 % -12.46 C
1649 22-02-2011 17:54:02 -2.5 C 46 % -12.52 C
1650 22-02-2011 18:06:02 -3.3 C 50 % -12.23 C
Sensor: Nr:Datum:Temp:Feuchte:Taupunkt:
Aussen-T/F 1651 22-02-2011 18:18:02 -3.8 C 55 % -11.51 C
1652 22-02-2011 18:30:02 -3.8 C 57 % -11.06 C
1653 22-02-2011 18:42:02 -4 C 58 % -11.03 C
1654 22-02-2011 18:54:02 -3.9 C 60 % -10.51 C
1655 22-02-2011 19:06:01 -4.4 C 59 % -11.19 C
1656 22-02-2011 19:18:02 -4.5 C 59 % -11.29 C
1657 22-02-2011 19:30:03 -4.2 C 60 % -10.79 C
1658 22-02-2011 19:42:01 -4.7 C 61 % -11.06 C
1659 22-02-2011 19:54:02 -4.8 C 61 % -11.15 C
1660 22-02-2011 20:06:03 -4.8 C 59 % -11.57 C
1661 22-02-2011 20:18:01 -5.3 C 60 % -11.83 C
1662 22-02-2011 20:30:01 -5.4 C 62 % -11.52 C
1663 22-02-2011 20:42:01 -5.2 C 64 % -10.93 C
1664 22-02-2011 20:54:01 -5 C 66 % -10.36 C
1665 22-02-2011 21:06:01 -5.2 C 64 % -10.93 C
1666 22-02-2011 21:18:02 -5.1 C 63 % -11.04 C
1667 22-02-2011 21:30:02 -5.3 C 62 % -11.43 C
1668 22-02-2011 21:42:01 -5.5 C 61 % -11.82 C
1669 22-02-2011 21:54:02 -5.7 C 62 % -11.8 C
1670 22-02-2011 22:06:01 -5.5 C 62 % -11.61 C
1671 22-02-2011 22:19:03 -5.4 C 62 % -11.52 C
1672 22-02-2011 22:31:03 -5.6 C 63 % -11.51 C
1673 22-02-2011 22:43:03 -5.5 C 64 % -11.22 C
1674 22-02-2011 22:55:03 -5.8 C 61 % -12.1 C
1675 22-02-2011 23:07:03 -5.9 C 61 % -12.2 C
Sensor: Nr:Datum:Temp:Feuchte:Taupunkt:
Aussen-T/F 1676 22-02-2011 23:19:04 -6 C 61 % -12.29 C
1677 22-02-2011 23:31:04 -6.1 C 60 % -12.59 C
1678 22-02-2011 23:43:04 -6.3 C 59 % -12.99 C
1679 22-02-2011 23:55:04 -6.2 C 62 % -12.28 C
1680 23-02-2011 00:07:04 -6.4 C 63 % -12.27 C
1681 23-02-2011 00:19:04 -6.4 C 63 % -12.27 C
1682 23-02-2011 00:31:04 -6.8 C 63 % -12.65 C
1683 23-02-2011 00:43:04 -7 C 64 % -12.65 C
1684 23-02-2011 00:55:04 -6.9 C 64 % -12.55 C
1685 23-02-2011 01:07:04 -6.9 C 65 % -12.36 C
1686 23-02-2011 01:19:04 -7.3 C 65 % -12.74 C
1687 23-02-2011 01:31:04 -7.4 C 65 % -12.84 C
1688 23-02-2011 01:43:04 -7 C 66 % -12.27 C
1689 23-02-2011 01:55:04 -7.4 C 65 % -12.84 C
1690 23-02-2011 02:07:04 -7.8 C 65 % -13.22 C
1691 23-02-2011 02:19:04 -7.8 C 65 % -13.22 C
1692 23-02-2011 02:31:04 -7.9 C 65 % -13.31 C
1693 23-02-2011 02:43:04 -8.1 C 66 % -13.32 C
1694 23-02-2011 02:55:04 -7.9 C 67 % -12.94 C
1695 23-02-2011 03:07:04 -7.9 C 68 % -12.76 C
1696 23-02-2011 03:19:05 -7.3 C 68 % -12.18 C
1697 23-02-2011 03:31:05 -8.1 C 67 % -13.13 C
1698 23-02-2011 03:43:05 -8.6 C 68 % -13.43 C
1699 23-02-2011 03:55:05 -8.8 C 69 % -13.44 C
1700 23-02-2011 04:07:05 -8.6 C 70 % -13.07 C
Sensor: Nr:Datum:Temp:Feuchte:Taupunkt:
Aussen-T/F 1701 23-02-2011 04:19:05 -8.5 C 70 % -12.98 C
1702 23-02-2011 04:31:05 -8.7 C 70 % -13.17 C
1703 23-02-2011 04:43:05 -8.9 C 71 % -13.19 C
1704 23-02-2011 04:55:05 -9.1 C 71 % -13.38 C
1705 23-02-2011 05:07:05 -8.9 C 72 % -13.02 C
1706 23-02-2011 05:19:05 -8.8 C 73 % -12.75 C
1707 23-02-2011 05:31:05 -8.7 C 73 % -12.65 C
1708 23-02-2011 05:43:05 -8.7 C 73 % -12.65 C
1709 23-02-2011 05:55:05 -8.9 C 72 % -13.02 C
1710 23-02-2011 06:07:05 -9.1 C 72 % -13.21 C
1711 23-02-2011 06:19:05 -9.4 C 72 % -13.5 C
1712 23-02-2011 06:31:05 -9.5 C 72 % -13.59 C
1713 23-02-2011 06:43:05 -9.4 C 72 % -13.5 C
1714 23-02-2011 06:55:05 -9.4 C 72 % -13.5 C
1715 23-02-2011 07:07:05 -9.5 C 72 % -13.59 C
1716 23-02-2011 07:19:02 -9.1 C 73 % -13.04 C
1717 23-02-2011 07:31:02 -9.2 C 73 % -13.14 C
1718 23-02-2011 07:43:02 -9.3 C 73 % -13.23 C
1719 23-02-2011 07:55:02 -8.8 C 74 % -12.58 C
1720 23-02-2011 08:07:02 -8.3 C 75 % -11.93 C
1721 23-02-2011 08:19:01 -7.9 C 75 % -11.54 C
1722 23-02-2011 08:31:02 -7.6 C 75 % -11.25 C
1723 23-02-2011 08:43:02 -7.2 C 75 % -10.87 C
1724 23-02-2011 08:55:02 -6.5 C 74 % -10.36 C
1725 23-02-2011 09:07:02 -5.8 C 73 % -9.85 C
Sensor: Nr:Datum:Temp:Feuchte:Taupunkt:
Aussen-T/F 1726 23-02-2011 09:19:01 -5.3 C 70 % -9.9 C
1727 23-02-2011 09:31:02 -4.8 C 67 % -9.97 C
1728 23-02-2011 09:43:02 -4.5 C 65 % -10.07 C
1729 23-02-2011 09:55:02 -3.8 C 61 % -10.21 C
1730 23-02-2011 10:07:02 -3.3 C 61 % -9.73 C
1731 23-02-2011 10:19:02 -2.7 C 59 % -9.59 C
1732 23-02-2011 10:31:02 -2.3 C 56 % -9.87 C
1733 23-02-2011 10:43:02 -1.8 C 53 % -10.1 C
1734 23-02-2011 10:55:02 -1.3 C 49 % -10.63 C
1735 23-02-2011 11:07:01 -0.9 C 46 % -11.05 C
1736 23-02-2011 11:19:01 -0.5 C 44 % -11.24 C
1737 23-02-2011 11:31:02 -0.6 C 41 % -12.21 C
1738 23-02-2011 11:43:02 0.3 C 38 % -12.32 C
1739 23-02-2011 11:55:02 0.2 C 39 % -12.09 C
1740 23-02-2011 12:07:02 1.1 C 37 % -11.94 C
1741 23-02-2011 12:19:02 1.2 C 32 % -13.63 C
1742 23-02-2011 12:31:02 1.3 C 29 % -14.74 C
1743 23-02-2011 12:43:02 1.8 C 23 % -17.08 C
1744 23-02-2011 12:55:02 3.2 C 20 % -17.56 C
1745 23-02-2011 13:07:02 4.4 C 20 % -16.55 C
1746 23-02-2011 13:19:02 3.1 C 20 % -17.64 C
1747 23-02-2011 13:31:02 3.8 C 20 % -17.05 C
1748 23-02-2011 13:43:02 3.3 C 20 % -17.47 C
1749 23-02-2011 13:55:02 3.7 C 20 % -17.14 C
1750 23-02-2011 14:07:02 3.9 C 20 % -16.97 C
Sensor: Nr:Datum:Temp:Feuchte:Taupunkt:
Aussen-T/F 1751 23-02-2011 14:19:03 4.2 C 20 % -16.72 C
1752 23-02-2011 14:31:02 3.9 C 20 % -16.97 C
1753 23-02-2011 14:43:02 3.8 C 20 % -17.05 C
1754 23-02-2011 14:55:02 4 C 20 % -16.89 C
1755 23-02-2011 15:07:02 4.1 C 20 % -16.8 C
1756 23-02-2011 15:19:02 3.7 C 20 % -17.14 C
1757 23-02-2011 15:31:02 3.5 C 20 % -17.31 C
1758 23-02-2011 15:43:02 3.7 C 20 % -17.14 C
1759 23-02-2011 15:55:02 3.7 C 20 % -17.14 C
1760 23-02-2011 16:07:01 3.2 C 20 % -17.56 C
1761 23-02-2011 16:19:02 3 C 20 % -17.72 C
1762 23-02-2011 16:31:02 3.1 C 20 % -17.64 C
1763 23-02-2011 16:43:02 2.8 C 20 % -17.89 C
1764 23-02-2011 16:55:01 2.9 C 20 % -17.81 C
1765 23-02-2011 17:07:02 2.3 C 20 % -18.31 C
1766 23-02-2011 17:19:01 1.6 C 30 % -14.07 C
1767 23-02-2011 17:31:02 1.4 C 30 % -14.24 C
1768 23-02-2011 17:43:02 0.8 C 35 % -12.89 C
1769 23-02-2011 17:55:02 0.2 C 41 % -11.47 C
1770 23-02-2011 18:07:02 -0.1 C 45 % -10.6 C
1771 23-02-2011 18:19:01 -0.2 C 45 % -10.69 C
1772 23-02-2011 18:31:02 -0.3 C 45 % -10.78 C
1773 23-02-2011 18:43:02 -0.3 C 46 % -10.5 C
1774 23-02-2011 18:55:02 -0.6 C 48 % -10.24 C
1775 23-02-2011 19:07:02 0.1 C 45 % -10.4 C
Sensor: Nr:Datum:Temp:Feuchte:Taupunkt:
Aussen-T/F 1776 23-02-2011 19:19:02 0.1 C 42 % -11.26 C
1777 23-02-2011 19:31:02 0.4 C 42 % -10.99 C
1778 23-02-2011 19:43:02 0.3 C 42 % -11.08 C
1779 23-02-2011 19:55:02 0.4 C 41 % -11.29 C
1780 23-02-2011 20:07:02 0.3 C 41 % -11.38 C
1781 23-02-2011 20:19:02 0.2 C 41 % -11.47 C
1782 23-02-2011 20:31:02 0.1 C 43 % -10.97 C
1783 23-02-2011 20:43:02 -0.3 C 45 % -10.78 C
1784 23-02-2011 20:55:02 0.1 C 45 % -10.4 C
1785 23-02-2011 21:07:02 0.5 C 42 % -10.9 C
1786 23-02-2011 21:19:02 0.1 C 45 % -10.4 C
1787 23-02-2011 21:31:02 -0.2 C 47 % -10.14 C
1788 23-02-2011 21:43:02 -0.3 C 49 % -9.7 C
1789 23-02-2011 21:55:02 -0.4 C 50 % -9.54 C
1790 23-02-2011 22:07:02 -0.1 C 49 % -9.52 C
1791 23-02-2011 22:19:02 0 C 47 % -9.94 C
1792 23-02-2011 22:31:02 -0.1 C 48 % -9.78 C
1793 23-02-2011 22:43:02 -0.1 C 49 % -9.52 C
1794 23-02-2011 22:55:02 -0.1 C 48 % -9.78 C
1795 23-02-2011 23:07:02 -0.2 C 52 % -8.86 C
1796 23-02-2011 23:19:02 -0.3 C 50 % -9.45 C
1797 23-02-2011 23:31:02 -0.2 C 54 % -8.37 C
1798 23-02-2011 23:43:02 -0.3 C 54 % -8.47 C
1799 23-02-2011 23:55:01 -0.3 C 54 % -8.47 C
1800 24-02-2011 00:07:01 -0.3 C 55 % -8.23 C
Sensor: Nr:Datum:Temp:Feuchte:Taupunkt:
Aussen-T/F 1801 24-02-2011 00:19:02 -0.4 C 54 % -8.56 C
1802 24-02-2011 00:31:01 -0.4 C 55 % -8.33 C
1803 24-02-2011 00:43:01 -0.5 C 55 % -8.42 C
1804 24-02-2011 00:55:03 -0.6 C 56 % -8.28 C
1805 24-02-2011 01:07:02 -0.7 C 57 % -8.15 C
1806 24-02-2011 01:19:02 -0.9 C 58 % -8.11 C
1807 24-02-2011 01:31:03 -0.9 C 59 % -7.89 C
1808 24-02-2011 01:43:03 -0.6 C 59 % -7.61 C
1809 24-02-2011 01:55:02 -0.6 C 58 % -7.83 C
1810 24-02-2011 02:07:01 -0.6 C 58 % -7.83 C
1811 24-02-2011 02:19:02 -0.6 C 58 % -7.83 C
1812 24-02-2011 02:31:02 -0.5 C 56 % -8.19 C
1813 24-02-2011 02:43:02 -0.4 C 52 % -9.04 C
1814 24-02-2011 02:56:03 -0.3 C 54 % -8.47 C
1815 24-02-2011 03:08:03 -0.2 C 55 % -8.14 C
1816 24-02-2011 03:20:04 -0.2 C 57 % -7.68 C
1817 24-02-2011 03:32:02 -0.2 C 57 % -7.68 C
1818 24-02-2011 03:44:02 0 C 57 % -7.48 C
1819 24-02-2011 03:56:03 0 C 57 % -7.48 C
1820 24-02-2011 04:08:01 0.1 C 58 % -7.16 C
1821 24-02-2011 04:20:02 0.4 C 54 % -7.8 C
1822 24-02-2011 04:32:02 0.4 C 55 % -7.57 C
1823 24-02-2011 04:44:02 0 C 62 % -6.39 C
1824 24-02-2011 04:56:01 -0.3 C 66 % -5.87 C
1825 24-02-2011 05:08:02 -0.6 C 70 % -5.38 C
Sensor: Nr:Datum:Temp:Feuchte:Taupunkt:
Aussen-T/F 1826 24-02-2011 05:20:01 -0.8 C 71 % -5.39 C
1827 24-02-2011 05:32:01 -0.8 C 75 % -4.67 C
1828 24-02-2011 05:44:02 -1 C 77 % -4.51 C
1829 24-02-2011 05:56:01 -1 C 79 % -4.17 C
1830 24-02-2011 06:08:02 -0.9 C 80 % -3.91 C
1831 24-02-2011 06:20:01 -0.9 C 79 % -4.08 C
1832 24-02-2011 06:32:02 -0.9 C 78 % -4.24 C
1833 24-02-2011 06:44:02 -0.9 C 78 % -4.24 C
1834 24-02-2011 06:56:01 -0.8 C 78 % -4.15 C
1835 24-02-2011 07:08:02 -0.8 C 79 % -3.98 C
1836 24-02-2011 07:20:02 -0.8 C 79 % -3.98 C
1837 24-02-2011 07:32:03 -0.8 C 80 % -3.81 C
1838 24-02-2011 07:44:03 -0.7 C 80 % -3.71 C
1839 24-02-2011 07:56:02 -0.7 C 80 % -3.71 C
1840 24-02-2011 08:08:02 -0.6 C 81 % -3.45 C
1841 24-02-2011 08:20:02 -0.6 C 82 % -3.29 C
1842 24-02-2011 08:32:02 -0.5 C 82 % -3.19 C
1843 24-02-2011 08:44:02 -0.3 C 83 % -2.83 C
1844 24-02-2011 08:56:02 0 C 83 % -2.53 C
1845 24-02-2011 09:08:03 0 C 82 % -2.7 C
1846 24-02-2011 09:20:02 0.1 C 82 % -2.6 C
1847 24-02-2011 09:32:03 0.1 C 82 % -2.6 C
1848 24-02-2011 09:44:03 0.1 C 82 % -2.6 C
1849 24-02-2011 09:56:02 0.3 C 82 % -2.4 C
1850 24-02-2011 10:08:02 0.4 C 82 % -2.3 C
Sensor: Nr:Datum:Temp:Feuchte:Taupunkt:
Aussen-T/F 1851 24-02-2011 10:20:02 0.6 C 82 % -2.11 C
1852 24-02-2011 10:32:02 0.7 C 82 % -2.01 C
1853 24-02-2011 10:44:02 1 C 80 % -2.05 C
1854 24-02-2011 10:56:02 1.1 C 80 % -1.96 C
1855 24-02-2011 11:08:02 1.1 C 79 % -2.12 C
1856 24-02-2011 11:20:03 1.5 C 79 % -1.74 C
1857 24-02-2011 11:32:02 1.7 C 77 % -1.89 C
1858 24-02-2011 11:44:02 1.8 C 77 % -1.79 C
1859 24-02-2011 11:56:03 1.8 C 76 % -1.97 C
1860 24-02-2011 12:08:02 1.9 C 76 % -1.87 C
1861 24-02-2011 12:20:02 2.5 C 75 % -1.47 C
1862 24-02-2011 12:32:02 2.5 C 75 % -1.47 C
1863 24-02-2011 12:44:02 2.9 C 74 % -1.27 C
1864 24-02-2011 12:56:02 3.5 C 69 % -1.64 C
1865 24-02-2011 13:08:02 3.4 C 68 % -1.93 C
1866 24-02-2011 13:20:02 3.1 C 68 % -2.22 C
1867 24-02-2011 13:32:02 3.9 C 69 % -1.26 C
1868 24-02-2011 13:44:02 3.4 C 68 % -1.93 C
1869 24-02-2011 13:56:02 3.1 C 69 % -2.02 C
1870 24-02-2011 14:08:02 2.6 C 72 % -1.93 C
1871 24-02-2011 14:20:01 2.3 C 74 % -1.85 C
1872 24-02-2011 14:32:02 2.5 C 76 % -1.29 C
1873 24-02-2011 14:44:02 2.7 C 75 % -1.28 C
1874 24-02-2011 14:56:02 3 C 74 % -1.17 C
1875 24-02-2011 15:08:02 3.4 C 73 % -0.97 C
Sensor: Nr:Datum:Temp:Feuchte:Taupunkt:
Aussen-T/F 1876 24-02-2011 15:20:02 3.4 C 71 % -1.35 C
1877 24-02-2011 15:32:02 3 C 71 % -1.73 C
1878 24-02-2011 15:44:02 3.1 C 72 % -1.45 C
1879 24-02-2011 15:56:01 3 C 73 % -1.35 C
1880 24-02-2011 16:08:01 2.8 C 74 % -1.36 C
1881 24-02-2011 16:20:02 2.7 C 74 % -1.46 C
1882 24-02-2011 16:32:01 2.6 C 75 % -1.37 C
1883 24-02-2011 16:44:01 2.3 C 76 % -1.48 C
1884 24-02-2011 16:56:02 2.2 C 78 % -1.23 C
1885 24-02-2011 17:08:02 2 C 79 % -1.25 C
1886 24-02-2011 17:20:03 1.8 C 81 % -1.1 C
1887 24-02-2011 17:32:02 1.5 C 82 % -1.23 C
1888 24-02-2011 17:44:02 1.4 C 84 % -1 C
1889 24-02-2011 17:56:02 1.5 C 84 % -0.9 C
1890 24-02-2011 18:08:02 1.5 C 85 % -0.74 C
1891 24-02-2011 18:20:02 1.3 C 85 % -0.94 C
1892 24-02-2011 18:32:03 1.2 C 85 % -1.03 C
1893 24-02-2011 18:44:03 1.2 C 86 % -0.88 C
1894 24-02-2011 18:56:02 1.2 C 86 % -0.88 C
1895 24-02-2011 19:08:01 1.2 C 87 % -0.72 C
1896 24-02-2011 19:20:02 1.2 C 87 % -0.72 C
1897 24-02-2011 19:32:02 1.3 C 87 % -0.62 C
1898 24-02-2011 19:44:02 1.3 C 87 % -0.62 C
1899 24-02-2011 19:56:01 1.3 C 88 % -0.46 C
1900 24-02-2011 20:08:02 1.3 C 88 % -0.46 C
Sensor: Nr:Datum:Temp:Feuchte:Taupunkt:
Aussen-T/F 1901 24-02-2011 20:20:01 1.3 C 88 % -0.46 C
1902 24-02-2011 20:32:02 1.2 C 88 % -0.56 C
1903 24-02-2011 20:44:02 1.3 C 88 % -0.46 C
1904 24-02-2011 20:56:02 1.3 C 88 % -0.46 C
1905 24-02-2011 21:08:02 1.3 C 88 % -0.46 C
1906 24-02-2011 21:20:01 1.3 C 88 % -0.46 C
1907 24-02-2011 21:33:03 1.3 C 89 % -0.31 C
1908 24-02-2011 21:45:03 1.3 C 89 % -0.31 C
1909 24-02-2011 21:57:03 1.4 C 89 % -0.21 C
1910 24-02-2011 22:09:03 1.4 C 89 % -0.21 C
1911 24-02-2011 22:21:03 1.4 C 89 % -0.21 C
1912 24-02-2011 22:33:03 1.4 C 89 % -0.21 C
1913 24-02-2011 22:45:03 1.4 C 89 % -0.21 C
1914 24-02-2011 22:57:03 1.4 C 89 % -0.21 C
1915 24-02-2011 23:09:03 1.4 C 89 % -0.21 C
1916 24-02-2011 23:21:03 1.4 C 89 % -0.21 C
1917 24-02-2011 23:33:03 1.4 C 89 % -0.21 C
1918 24-02-2011 23:45:03 1.4 C 89 % -0.21 C
1919 24-02-2011 23:57:03 1.4 C 89 % -0.21 C
1920 25-02-2011 00:09:03 1.4 C 89 % -0.21 C
1921 25-02-2011 00:21:03 1.4 C 89 % -0.21 C
1922 25-02-2011 00:33:04 1.5 C 89 % -0.11 C
1923 25-02-2011 00:45:04 1.5 C 89 % -0.11 C
1924 25-02-2011 00:57:04 1.4 C 89 % -0.21 C
1925 25-02-2011 01:09:04 1.4 C 89 % -0.21 C
Sensor: Nr:Datum:Temp:Feuchte:Taupunkt:
Aussen-T/F 1926 25-02-2011 01:21:04 1.5 C 89 % -0.11 C
1927 25-02-2011 01:33:04 1.4 C 90 % -0.06 C
1928 25-02-2011 01:45:04 1.4 C 90 % -0.06 C
1929 25-02-2011 01:57:04 1.5 C 90 % 0.04 C
1930 25-02-2011 02:09:04 1.4 C 90 % -0.06 C
1931 25-02-2011 02:21:04 1.4 C 90 % -0.06 C
1932 25-02-2011 02:33:04 1.4 C 90 % -0.06 C
1933 25-02-2011 02:45:04 1.4 C 90 % -0.06 C
1934 25-02-2011 02:57:04 1.5 C 90 % 0.04 C
1935 25-02-2011 03:09:04 1.5 C 90 % 0.04 C
1936 25-02-2011 03:21:04 1.5 C 90 % 0.04 C
1937 25-02-2011 03:33:04 1.6 C 90 % 0.14 C
1938 25-02-2011 03:45:04 1.5 C 90 % 0.04 C
1939 25-02-2011 03:57:04 1.4 C 90 % -0.06 C
1940 25-02-2011 04:09:04 1.5 C 90 % 0.04 C
1941 25-02-2011 04:21:04 1.4 C 90 % -0.06 C
1942 25-02-2011 04:33:04 1.5 C 90 % 0.04 C
1943 25-02-2011 04:45:05 1.5 C 90 % 0.04 C
1944 25-02-2011 04:57:05 1.5 C 90 % 0.04 C
1945 25-02-2011 05:09:05 1.6 C 91 % 0.29 C
1946 25-02-2011 05:21:05 1.6 C 91 % 0.29 C
1947 25-02-2011 05:33:05 1.6 C 91 % 0.29 C
1948 25-02-2011 05:45:05 1.7 C 91 % 0.39 C
1949 25-02-2011 05:57:05 1.7 C 91 % 0.39 C
1950 25-02-2011 06:09:05 1.7 C 91 % 0.39 C
Sensor: Nr:Datum:Temp:Feuchte:Taupunkt:
Aussen-T/F 1951 25-02-2011 06:21:05 1.6 C 91 % 0.29 C
1952 25-02-2011 06:33:05 1.7 C 91 % 0.39 C
1953 25-02-2011 06:45:05 1.7 C 91 % 0.39 C
1954 25-02-2011 06:57:05 1.8 C 91 % 0.49 C
1955 25-02-2011 07:09:05 1.8 C 91 % 0.49 C
1956 25-02-2011 07:21:03 1.9 C 91 % 0.59 C
1957 25-02-2011 07:33:02 1.9 C 91 % 0.59 C
1958 25-02-2011 07:45:03 1.7 C 91 % 0.39 C
1959 25-02-2011 07:57:03 1.8 C 91 % 0.49 C
1960 25-02-2011 08:09:02 1.8 C 91 % 0.49 C
1961 25-02-2011 08:21:02 2 C 90 % 0.54 C
1962 25-02-2011 08:33:02 2.2 C 90 % 0.73 C
1963 25-02-2011 08:45:02 2.4 C 91 % 1.08 C
1964 25-02-2011 08:57:03 2.6 C 91 % 1.28 C
1965 25-02-2011 09:09:01 2.6 C 90 % 1.13 C
1966 25-02-2011 09:21:02 2.7 C 90 % 1.23 C
1967 25-02-2011 09:33:02 2.7 C 90 % 1.23 C
1968 25-02-2011 09:45:02 3.3 C 90 % 1.82 C
1969 25-02-2011 09:57:02 3.3 C 89 % 1.67 C
1970 25-02-2011 10:09:03 3.4 C 88 % 1.61 C
1971 25-02-2011 10:21:02 3.3 C 87 % 1.35 C
1972 25-02-2011 10:33:02 3.9 C 87 % 1.94 C
1973 25-02-2011 10:45:01 4 C 85 % 1.71 C
1974 25-02-2011 10:57:01 3.8 C 85 % 1.52 C
1975 25-02-2011 11:09:02 4.4 C 83 % 1.77 C
Sensor: Nr:Datum:Temp:Feuchte:Taupunkt:
Aussen-T/F 1976 25-02-2011 11:21:01 4.3 C 82 % 1.51 C
1977 25-02-2011 11:33:01 4.3 C 81 % 1.34 C
1978 25-02-2011 11:45:01 4.7 C 81 % 1.73 C
1979 25-02-2011 11:57:01 5.1 C 78 % 1.59 C
1980 25-02-2011 12:09:01 5.1 C 76 % 1.23 C
1981 25-02-2011 12:21:02 5.6 C 75 % 1.53 C
1982 25-02-2011 12:33:01 5.1 C 74 % 0.86 C
1983 25-02-2011 12:45:03 5.6 C 74 % 1.34 C
1984 25-02-2011 12:57:03 5.2 C 73 % 0.77 C
1985 25-02-2011 13:09:02 5.8 C 74 % 1.53 C
1986 25-02-2011 13:21:02 6.3 C 72 % 1.63 C
1987 25-02-2011 13:33:02 6.3 C 70 % 1.24 C
1988 25-02-2011 13:45:02 6.2 C 71 % 1.34 C
1989 25-02-2011 13:57:03 6 C 70 % 0.95 C
1990 25-02-2011 14:09:01 6.1 C 71 % 1.25 C
1991 25-02-2011 14:21:02 6.2 C 71 % 1.34 C
1992 25-02-2011 14:33:03 6.3 C 72 % 1.63 C
1993 25-02-2011 14:45:02 5.8 C 71 % 0.96 C
1994 25-02-2011 14:57:03 5.9 C 72 % 1.25 C
1995 25-02-2011 15:09:01 6.3 C 71 % 1.44 C
1996 25-02-2011 15:21:01 6.4 C 71 % 1.54 C
1997 25-02-2011 15:33:02 6.1 C 70 % 1.05 C
1998 25-02-2011 15:45:02 6 C 72 % 1.35 C
1999 25-02-2011 15:57:02 5.9 C 74 % 1.63 C
2000 25-02-2011 16:09:02 5.9 C 75 % 1.82 C
Sensor: Nr:Datum:Temp:Feuchte:Taupunkt:
Aussen-T/F 2001 25-02-2011 16:21:02 5.4 C 76 % 1.52 C
2002 25-02-2011 16:33:02 5.3 C 78 % 1.78 C
2003 25-02-2011 16:45:02 5.2 C 79 % 1.86 C
2004 25-02-2011 16:57:02 5.1 C 79 % 1.77 C
2005 25-02-2011 17:09:02 5 C 79 % 1.67 C
2006 25-02-2011 17:21:02 4.8 C 81 % 1.82 C
2007 25-02-2011 17:33:02 4.8 C 79 % 1.47 C
2008 25-02-2011 17:45:02 4.5 C 80 % 1.36 C
2009 25-02-2011 17:57:02 4.2 C 81 % 1.24 C
2010 25-02-2011 18:09:02 4.1 C 81 % 1.14 C
2011 25-02-2011 18:21:02 4.1 C 82 % 1.31 C
2012 25-02-2011 18:33:02 4.2 C 82 % 1.41 C
2013 25-02-2011 18:45:02 4.3 C 82 % 1.51 C
2014 25-02-2011 18:57:02 4.4 C 82 % 1.6 C
2015 25-02-2011 19:09:02 4.1 C 82 % 1.31 C
2016 25-02-2011 19:21:02 4 C 82 % 1.21 C
2017 25-02-2011 19:33:01 3.8 C 83 % 1.19 C
2018 25-02-2011 19:45:02 3.9 C 84 % 1.45 C
2019 25-02-2011 19:57:02 3.9 C 84 % 1.45 C
2020 25-02-2011 20:09:01 3.8 C 84 % 1.35 C
2021 25-02-2011 20:21:01 3.8 C 84 % 1.35 C
2022 25-02-2011 20:33:02 3.8 C 84 % 1.35 C
2023 25-02-2011 20:45:02 3.9 C 85 % 1.61 C
2024 25-02-2011 20:57:02 3.8 C 85 % 1.52 C
2025 25-02-2011 21:09:02 3.7 C 85 % 1.42 C
Sensor: Nr:Datum:Temp:Feuchte:Taupunkt:
Aussen-T/F 2026 25-02-2011 21:21:02 3.7 C 85 % 1.42 C
2027 25-02-2011 21:33:02 3.6 C 85 % 1.32 C
2028 25-02-2011 21:45:02 3.6 C 86 % 1.48 C
2029 25-02-2011 21:57:02 3.6 C 86 % 1.48 C
2030 25-02-2011 22:09:02 3.7 C 86 % 1.58 C
2031 25-02-2011 22:21:03 3.7 C 86 % 1.58 C
2032 25-02-2011 22:34:04 3.7 C 86 % 1.58 C
2033 25-02-2011 22:46:04 3.8 C 87 % 1.84 C
2034 25-02-2011 22:58:04 4 C 86 % 1.88 C
2035 25-02-2011 23:10:04 4 C 85 % 1.71 C
2036 25-02-2011 23:22:04 3.9 C 86 % 1.78 C
2037 25-02-2011 23:34:04 3.8 C 86 % 1.68 C
2038 25-02-2011 23:46:04 3.7 C 86 % 1.58 C
2039 25-02-2011 23:58:04 3.6 C 86 % 1.48 C
2040 26-02-2011 00:10:04 3.6 C 86 % 1.48 C
2041 26-02-2011 00:22:04 3.6 C 86 % 1.48 C
2042 26-02-2011 00:34:04 3.6 C 86 % 1.48 C
2043 26-02-2011 00:46:04 3.6 C 86 % 1.48 C
2044 26-02-2011 00:58:04 3.6 C 87 % 1.64 C
2045 26-02-2011 01:10:04 3.6 C 87 % 1.64 C
2046 26-02-2011 01:22:04 3.5 C 87 % 1.55 C
2047 26-02-2011 01:34:04 3.5 C 87 % 1.55 C
2048 26-02-2011 01:46:05 3.5 C 87 % 1.55 C
2049 26-02-2011 01:58:05 3.5 C 87 % 1.55 C
2050 26-02-2011 02:10:05 3.5 C 87 % 1.55 C
Sensor: Nr:Datum:Temp:Feuchte:Taupunkt:
Aussen-T/F 2051 26-02-2011 02:22:05 3.5 C 87 % 1.55 C
2052 26-02-2011 02:34:05 3.5 C 87 % 1.55 C
2053 26-02-2011 02:46:05 3.5 C 87 % 1.55 C
2054 26-02-2011 02:58:05 3.5 C 87 % 1.55 C
2055 26-02-2011 03:10:05 3.5 C 86 % 1.38 C
2056 26-02-2011 03:22:05 3.4 C 86 % 1.29 C
2057 26-02-2011 03:34:05 3.4 C 86 % 1.29 C
2058 26-02-2011 03:46:05 3.4 C 86 % 1.29 C
2059 26-02-2011 03:58:05 3.4 C 86 % 1.29 C
2060 26-02-2011 04:10:05 3.3 C 86 % 1.19 C
2061 26-02-2011 04:22:05 3.3 C 86 % 1.19 C
2062 26-02-2011 04:34:05 3.4 C 86 % 1.29 C
2063 26-02-2011 04:46:05 3.5 C 86 % 1.38 C
2064 26-02-2011 04:58:05 3.4 C 86 % 1.29 C
2065 26-02-2011 05:10:05 3.3 C 86 % 1.19 C
2066 26-02-2011 05:22:05 3.4 C 86 % 1.29 C
2067 26-02-2011 05:34:05 3.8 C 85 % 1.52 C
2068 26-02-2011 05:46:06 4.1 C 82 % 1.31 C
2069 26-02-2011 05:58:06 4.1 C 79 % 0.79 C
2070 26-02-2011 06:10:06 4.1 C 77 % 0.44 C
2071 26-02-2011 06:22:06 4 C 77 % 0.34 C
2072 26-02-2011 06:34:06 3.7 C 78 % 0.23 C
2073 26-02-2011 06:46:06 3.4 C 79 % 0.11 C
2074 26-02-2011 06:58:06 2.9 C 82 % 0.14 C
2075 26-02-2011 07:10:06 2.7 C 83 % 0.11 C
Sensor: Nr:Datum:Temp:Feuchte:Taupunkt:
Aussen-T/F 2076 26-02-2011 07:22:06 2.7 C 84 % 0.27 C
2077 26-02-2011 07:34:06 2.6 C 85 % 0.34 C
2078 26-02-2011 07:46:06 2.9 C 85 % 0.63 C
2079 26-02-2011 07:58:06 3.6 C 83 % 0.99 C
2080 26-02-2011 08:10:06 3.8 C 79 % 0.5 C
2081 26-02-2011 08:22:06 3.8 C 78 % 0.33 C
2082 26-02-2011 08:34:03 3.9 C 78 % 0.42 C
2083 26-02-2011 08:46:02 4 C 76 % 0.16 C
2084 26-02-2011 08:58:02 4.2 C 75 % 0.17 C
2085 26-02-2011 09:10:02 4.2 C 74 % -0.01 C
2086 26-02-2011 09:22:02 4.2 C 73 % -0.2 C
2087 26-02-2011 09:34:02 4.1 C 73 % -0.29 C
2088 26-02-2011 09:46:02 3.9 C 73 % -0.49 C
2089 26-02-2011 09:58:03 4.1 C 72 % -0.48 C
2090 26-02-2011 10:10:01 4.1 C 72 % -0.48 C
2091 26-02-2011 10:22:02 4.3 C 71 % -0.48 C
2092 26-02-2011 10:34:02 4.7 C 69 % -0.49 C
2093 26-02-2011 10:46:02 5.2 C 67 % -0.41 C
2094 26-02-2011 10:58:02 5.7 C 65 % -0.35 C
2095 26-02-2011 11:10:03 5.6 C 63 % -0.87 C
2096 26-02-2011 11:22:02 5.6 C 62 % -1.09 C
2097 26-02-2011 11:34:03 5.6 C 62 % -1.09 C
2098 26-02-2011 11:46:02 6.5 C 62 % -0.24 C
2099 26-02-2011 11:58:02 6.1 C 60 % -1.07 C
2100 26-02-2011 12:10:02 7.4 C 58 % -0.31 C
Sensor: Nr:Datum:Temp:Feuchte:Taupunkt:
Aussen-T/F 2101 26-02-2011 12:22:02 7.8 C 56 % -0.41 C
2102 26-02-2011 12:34:02 8 C 53 % -0.98 C
2103 26-02-2011 12:46:02 7.7 C 55 % -0.75 C
2104 26-02-2011 12:58:02 7.1 C 57 % -0.83 C
2105 26-02-2011 13:10:02 7.4 C 57 % -0.55 C
2106 26-02-2011 13:22:02 8.4 C 54 % -0.35 C
2107 26-02-2011 13:34:02 8.6 C 51 % -0.95 C
2108 26-02-2011 13:46:02 8.9 C 53 % -0.15 C
2109 26-02-2011 13:58:02 8.7 C 53 % -0.33 C
2110 26-02-2011 14:10:02 8.6 C 53 % -0.42 C
2111 26-02-2011 14:22:02 8 C 56 % -0.23 C
2112 26-02-2011 14:34:02 8.9 C 54 % 0.11 C
2113 26-02-2011 14:46:02 9.5 C 51 % -0.12 C
2114 26-02-2011 14:58:02 8.8 C 52 % -0.5 C
2115 26-02-2011 15:10:02 8.7 C 53 % -0.33 C
2116 26-02-2011 15:22:03 8 C 56 % -0.23 C
2117 26-02-2011 15:34:02 7.7 C 58 % -0.03 C
2118 26-02-2011 15:46:02 7.7 C 60 % 0.44 C
2119 26-02-2011 15:58:02 7.8 C 58 % 0.07 C
2120 26-02-2011 16:10:02 7.7 C 58 % -0.03 C
2121 26-02-2011 16:22:02 7.4 C 60 % 0.16 C
2122 26-02-2011 16:34:01 7 C 62 % 0.23 C
2123 26-02-2011 16:46:02 6.9 C 64 % 0.57 C
2124 26-02-2011 16:58:03 6.7 C 65 % 0.6 C
2125 26-02-2011 17:10:01 6.7 C 66 % 0.81 C
Sensor: Nr:Datum:Temp:Feuchte:Taupunkt:
Aussen-T/F 2126 26-02-2011 17:22:01 6.6 C 67 % 0.92 C
2127 26-02-2011 17:34:02 6.4 C 68 % 0.94 C
2128 26-02-2011 17:46:02 6.3 C 69 % 1.04 C
2129 26-02-2011 17:58:02 6 C 71 % 1.15 C
2130 26-02-2011 18:10:02 5.8 C 74 % 1.53 C
2131 26-02-2011 18:22:02 5.8 C 75 % 1.72 C
2132 26-02-2011 18:34:02 5.6 C 76 % 1.71 C
2133 26-02-2011 18:46:02 5.4 C 77 % 1.7 C
2134 26-02-2011 18:58:02 5.2 C 80 % 2.04 C
2135 26-02-2011 19:10:02 5.1 C 83 % 2.46 C
2136 26-02-2011 19:22:02 5 C 84 % 2.53 C
2137 26-02-2011 19:34:02 5 C 84 % 2.53 C
2138 26-02-2011 19:46:02 4.8 C 86 % 2.66 C
2139 26-02-2011 19:58:02 4.9 C 86 % 2.76 C
2140 26-02-2011 20:10:02 4.8 C 86 % 2.66 C
2141 26-02-2011 20:22:02 4.9 C 86 % 2.76 C
2142 26-02-2011 20:34:02 4.7 C 87 % 2.73 C
2143 26-02-2011 20:46:02 4.7 C 87 % 2.73 C
2144 26-02-2011 20:58:02 4.6 C 87 % 2.63 C
2145 26-02-2011 21:10:02 4.6 C 88 % 2.79 C
2146 26-02-2011 21:22:02 4.6 C 88 % 2.79 C
2147 26-02-2011 21:34:01 4.6 C 88 % 2.79 C
2148 26-02-2011 21:47:02 4.6 C 88 % 2.79 C
2149 26-02-2011 21:59:02 4.6 C 88 % 2.79 C
2150 26-02-2011 22:11:02 4.7 C 88 % 2.89 C
Sensor: Nr:Datum:Temp:Feuchte:Taupunkt:
Aussen-T/F 2151 26-02-2011 22:23:02 4.6 C 89 % 2.95 C
2152 26-02-2011 22:35:02 4.4 C 89 % 2.75 C
2153 26-02-2011 22:47:02 4.4 C 89 % 2.75 C
2154 26-02-2011 22:59:02 4.3 C 89 % 2.65 C
2155 26-02-2011 23:11:02 4.3 C 89 % 2.65 C
2156 26-02-2011 23:23:02 4.4 C 89 % 2.75 C
2157 26-02-2011 23:35:02 4.7 C 90 % 3.2 C
2158 26-02-2011 23:47:02 5 C 89 % 3.34 C
2159 26-02-2011 23:59:03 5.1 C 89 % 3.44 C
2160 27-02-2011 00:11:03 5.1 C 90 % 3.6 C
2161 27-02-2011 00:23:03 4.7 C 90 % 3.2 C
2162 27-02-2011 00:35:03 4.5 C 90 % 3.01 C
2163 27-02-2011 00:47:03 4.5 C 90 % 3.01 C
2164 27-02-2011 00:59:03 4.6 C 90 % 3.1 C
2165 27-02-2011 01:11:03 4.5 C 90 % 3.01 C
2166 27-02-2011 01:23:03 4.3 C 90 % 2.81 C
2167 27-02-2011 01:35:03 4.5 C 91 % 3.16 C
2168 27-02-2011 01:47:03 4.7 C 91 % 3.36 C
2169 27-02-2011 01:59:03 4.7 C 91 % 3.36 C
2170 27-02-2011 02:11:03 4.7 C 91 % 3.36 C
2171 27-02-2011 02:23:03 4.7 C 91 % 3.36 C
2172 27-02-2011 02:35:03 4.6 C 91 % 3.26 C
2173 27-02-2011 02:47:03 4.6 C 91 % 3.26 C
2174 27-02-2011 02:59:03 4.7 C 91 % 3.36 C
2175 27-02-2011 03:11:03 4.7 C 90 % 3.2 C
Sensor: Nr:Datum:Temp:Feuchte:Taupunkt:
Aussen-T/F 2176 27-02-2011 03:23:03 4.7 C 90 % 3.2 C
2177 27-02-2011 03:35:03 4.8 C 90 % 3.3 C
2178 27-02-2011 03:47:03 4.9 C 90 % 3.4 C
2179 27-02-2011 03:59:04 4.8 C 90 % 3.3 C
2180 27-02-2011 04:11:04 4.7 C 90 % 3.2 C
2181 27-02-2011 04:23:04 4.7 C 90 % 3.2 C
2182 27-02-2011 04:35:04 4.6 C 90 % 3.1 C
2183 27-02-2011 04:47:04 4.6 C 90 % 3.1 C
2184 27-02-2011 04:59:04 4.5 C 90 % 3.01 C
2185 27-02-2011 05:11:04 4.5 C 90 % 3.01 C
2186 27-02-2011 05:23:04 4.4 C 90 % 2.91 C
2187 27-02-2011 05:35:04 4.5 C 90 % 3.01 C
2188 27-02-2011 05:47:04 4.4 C 90 % 2.91 C
2189 27-02-2011 05:59:04 4.5 C 90 % 3.01 C
2190 27-02-2011 06:11:04 4.4 C 90 % 2.91 C
2191 27-02-2011 06:23:04 4.4 C 90 % 2.91 C
2192 27-02-2011 06:35:04 4.3 C 90 % 2.81 C
2193 27-02-2011 06:47:04 4.2 C 90 % 2.71 C
2194 27-02-2011 06:59:04 4.2 C 90 % 2.71 C
2195 27-02-2011 07:11:04 4.3 C 91 % 2.96 C
2196 27-02-2011 07:23:04 4.3 C 91 % 2.96 C
2197 27-02-2011 07:35:03 4.3 C 90 % 2.81 C
2198 27-02-2011 07:47:02 4.3 C 90 % 2.81 C
2199 27-02-2011 07:59:02 4.3 C 90 % 2.81 C
2200 27-02-2011 08:11:03 4.3 C 89 % 2.65 C
Sensor: Nr:Datum:Temp:Feuchte:Taupunkt:
Aussen-T/F 2201 27-02-2011 08:23:02 4.5 C 88 % 2.69 C
2202 27-02-2011 08:35:02 4.6 C 88 % 2.79 C
2203 27-02-2011 08:47:02 4.7 C 87 % 2.73 C
2204 27-02-2011 08:59:02 5 C 84 % 2.53 C
2205 27-02-2011 09:11:01 5 C 83 % 2.36 C
2206 27-02-2011 09:23:02 5.2 C 82 % 2.39 C
2207 27-02-2011 09:35:02 5.4 C 81 % 2.41 C
2208 27-02-2011 09:47:02 5.7 C 78 % 2.17 C
2209 27-02-2011 09:59:02 5.8 C 77 % 2.09 C
2210 27-02-2011 10:11:03 5.7 C 78 % 2.17 C
2211 27-02-2011 10:23:02 5.7 C 78 % 2.17 C
2212 27-02-2011 10:35:03 6.7 C 74 % 2.4 C
2213 27-02-2011 10:47:02 6.7 C 71 % 1.82 C
2214 27-02-2011 10:59:02 6.8 C 72 % 2.12 C
2215 27-02-2011 11:11:02 7 C 68 % 1.51 C
2216 27-02-2011 11:23:02 7.1 C 65 % 0.98 C
2217 27-02-2011 11:35:02 7.1 C 65 % 0.98 C
2218 27-02-2011 11:47:02 7.4 C 62 % 0.61 C
2219 27-02-2011 11:59:02 7.6 C 60 % 0.35 C
2220 27-02-2011 12:11:02 7.8 C 58 % 0.07 C
2221 27-02-2011 12:23:01 7.8 C 57 % -0.17 C
2222 27-02-2011 12:35:02 7.7 C 56 % -0.51 C
2223 27-02-2011 12:47:01 7.2 C 57 % -0.73 C
2224 27-02-2011 12:59:01 7.2 C 58 % -0.5 C
2225 27-02-2011 13:11:02 7.3 C 57 % -0.64 C
Sensor: Nr:Datum:Temp:Feuchte:Taupunkt:
Aussen-T/F 2226 27-02-2011 13:23:02 7.5 C 56 % -0.7 C
2227 27-02-2011 13:35:02 7.5 C 55 % -0.94 C
2228 27-02-2011 13:47:02 7.7 C 55 % -0.75 C
2229 27-02-2011 13:59:02 7.5 C 55 % -0.94 C
2230 27-02-2011 14:11:02 7.8 C 55 % -0.66 C
2231 27-02-2011 14:23:02 7.3 C 55 % -1.13 C
2232 27-02-2011 14:35:01 7.2 C 55 % -1.22 C
2233 27-02-2011 14:47:02 7.3 C 55 % -1.13 C
2234 27-02-2011 14:59:02 7.4 C 54 % -1.28 C
2235 27-02-2011 15:11:01 7.4 C 55 % -1.03 C
2236 27-02-2011 15:23:02 7.4 C 55 % -1.03 C
2237 27-02-2011 15:35:01 7.3 C 54 % -1.38 C
2238 27-02-2011 15:47:02 7.2 C 55 % -1.22 C
2239 27-02-2011 15:59:02 7.2 C 56 % -0.98 C
2240 27-02-2011 16:11:02 6.9 C 59 % -0.54 C
2241 27-02-2011 16:23:02 6.8 C 60 % -0.41 C
2242 27-02-2011 16:35:02 6.7 C 59 % -0.73 C
2243 27-02-2011 16:47:02 6.8 C 57 % -1.11 C
2244 27-02-2011 16:59:02 6.7 C 57 % -1.2 C
2245 27-02-2011 17:11:01 6.7 C 56 % -1.44 C
2246 27-02-2011 17:23:02 6.5 C 57 % -1.39 C
2247 27-02-2011 17:35:02 6.4 C 58 % -1.25 C
2248 27-02-2011 17:47:02 6.5 C 58 % -1.15 C
2249 27-02-2011 17:59:02 6.5 C 56 % -1.63 C
2250 27-02-2011 18:11:02 6.3 C 57 % -1.58 C
Sensor: Nr:Datum:Temp:Feuchte:Taupunkt:
Aussen-T/F 2251 27-02-2011 18:23:02 5.8 C 60 % -1.35 C
2252 27-02-2011 18:35:01 5.7 C 62 % -1 C
2253 27-02-2011 18:47:03 5.7 C 62 % -1 C
2254 27-02-2011 18:59:03 5.4 C 64 % -0.85 C
2255 27-02-2011 19:11:02 5.7 C 63 % -0.78 C
2256 27-02-2011 19:23:02 5.6 C 63 % -0.87 C
2257 27-02-2011 19:35:02 5 C 68 % -0.4 C
2258 27-02-2011 19:47:02 4.9 C 71 % 0.09 C
2259 27-02-2011 19:59:03 4.8 C 71 % 0 C
2260 27-02-2011 20:11:01 4.5 C 72 % -0.1 C
2261 27-02-2011 20:23:02 4.2 C 75 % 0.17 C
2262 27-02-2011 20:35:02 4.2 C 77 % 0.54 C
2263 27-02-2011 20:47:01 4.6 C 72 % 0 C
2264 27-02-2011 20:59:01 5 C 65 % -1.02 C
2265 27-02-2011 21:11:02 4.7 C 68 % -0.69 C
2266 27-02-2011 21:23:01 4.6 C 68 % -0.78 C
2267 27-02-2011 21:35:01 5.1 C 62 % -1.57 C
2268 27-02-2011 21:47:01 4.8 C 63 % -1.63 C
2269 27-02-2011 21:59:01 4.3 C 66 % -1.48 C
2270 27-02-2011 22:11:49 3.9 C 71 % -0.87 C
2271 27-02-2011 22:24:03 4.2 C 67 % -1.37 C
2272 27-02-2011 22:36:03 4.4 C 67 % -1.18 C
2273 27-02-2011 22:48:03 4.5 C 65 % -1.49 C
2274 27-02-2011 23:00:03 4.4 C 64 % -1.8 C
2275 27-02-2011 23:12:03 3.9 C 67 % -1.65 C
Sensor: Nr:Datum:Temp:Feuchte:Taupunkt:
Aussen-T/F 2276 27-02-2011 23:24:03 3.6 C 69 % -1.54 C
2277 27-02-2011 23:36:03 3.6 C 69 % -1.54 C
2278 27-02-2011 23:48:03 3.5 C 70 % -1.44 C
2279 28-02-2011 00:00:03 3.6 C 70 % -1.35 C
2280 28-02-2011 00:12:03 3.6 C 69 % -1.54 C
2281 28-02-2011 00:24:03 3 C 71 % -1.73 C
2282 28-02-2011 00:36:03 2.8 C 74 % -1.36 C
2283 28-02-2011 00:48:03 2.7 C 75 % -1.28 C
2284 28-02-2011 01:00:03 2.7 C 75 % -1.28 C
2285 28-02-2011 01:12:03 1.9 C 78 % -1.52 C
2286 28-02-2011 01:24:03 2 C 79 % -1.25 C
2287 28-02-2011 01:36:03 2.4 C 79 % -0.86 C
2288 28-02-2011 01:48:03 1.6 C 79 % -1.64 C
2289 28-02-2011 02:00:03 1.5 C 81 % -1.4 C
2290 28-02-2011 02:12:04 1.2 C 82 % -1.52 C
2291 28-02-2011 02:24:04 0.9 C 84 % -1.49 C
2292 28-02-2011 02:36:04 0.8 C 85 % -1.43 C
2293 28-02-2011 02:48:04 1.4 C 85 % -0.84 C
2294 28-02-2011 03:00:04 1.4 C 86 % -0.68 C
2295 28-02-2011 03:12:04 1.6 C 86 % -0.48 C
2296 28-02-2011 03:24:04 1.8 C 85 % -0.45 C
2297 28-02-2011 03:36:04 2.2 C 82 % -0.55 C
2298 28-02-2011 03:48:04 2.1 C 81 % -0.81 C
2299 28-02-2011 04:00:04 1.9 C 80 % -1.18 C
2300 28-02-2011 04:12:04 1.8 C 83 % -0.77 C
Sensor: Nr:Datum:Temp:Feuchte:Taupunkt:
Aussen-T/F 2301 28-02-2011 04:24:04 2.4 C 82 % -0.35 C
2302 28-02-2011 04:36:04 2.6 C 78 % -0.84 C
2303 28-02-2011 04:48:04 2.6 C 77 % -1.02 C
2304 28-02-2011 05:00:04 2.6 C 77 % -1.02 C
2305 28-02-2011 05:12:04 2.6 C 77 % -1.02 C
2306 28-02-2011 05:24:04 2.8 C 76 % -1 C
2307 28-02-2011 05:36:04 2.7 C 77 % -0.92 C
2308 28-02-2011 05:48:04 2.7 C 77 % -0.92 C
2309 28-02-2011 06:00:04 2.9 C 77 % -0.72 C
2310 28-02-2011 06:12:05 2.8 C 76 % -1 C
2311 28-02-2011 06:24:05 2.7 C 76 % -1.1 C
2312 28-02-2011 06:36:05 2.7 C 78 % -0.74 C
2313 28-02-2011 06:48:05 2.6 C 79 % -0.67 C
2314 28-02-2011 07:00:05 2.5 C 80 % -0.59 C
2315 28-02-2011 07:12:04 2.6 C 79 % -0.67 C
2316 28-02-2011 07:24:03 2.5 C 79 % -0.76 C
2317 28-02-2011 07:36:03 2.5 C 79 % -0.76 C
2318 28-02-2011 07:48:01 2.9 C 78 % -0.55 C
2319 28-02-2011 08:00:01 2.9 C 77 % -0.72 C
2320 28-02-2011 08:12:02 3.1 C 76 % -0.71 C
2321 28-02-2011 08:24:01 3.3 C 76 % -0.52 C
2322 28-02-2011 08:36:01 3.4 C 76 % -0.42 C
2323 28-02-2011 08:48:01 3.5 C 75 % -0.5 C
2324 28-02-2011 09:00:01 3.7 C 74 % -0.49 C
2325 28-02-2011 09:12:02 3.9 C 72 % -0.68 C
Sensor: Nr:Datum:Temp:Feuchte:Taupunkt:
Aussen-T/F 2326 28-02-2011 09:24:02 4.2 C 70 % -0.77 C
2327 28-02-2011 09:36:01 5 C 68 % -0.4 C
2328 28-02-2011 09:48:02 4.3 C 66 % -1.48 C
2329 28-02-2011 10:00:02 3.4 C 70 % -1.54 C
2330 28-02-2011 10:12:01 2.8 C 74 % -1.36 C
2331 28-02-2011 10:24:02 3.4 C 77 % -0.24 C
2332 28-02-2011 10:36:01 4.8 C 75 % 0.75 C
2333 28-02-2011 10:48:02 6.3 C 65 % 0.22 C
2334 28-02-2011 11:00:02 7.3 C 58 % -0.4 C
2335 28-02-2011 11:12:02 7.3 C 54 % -1.38 C
2336 28-02-2011 11:24:02 7 C 52 % -2.17 C
2337 28-02-2011 11:36:02 7.8 C 51 % -1.69 C
2338 28-02-2011 11:48:02 7.9 C 49 % -2.14 C
2339 28-02-2011 12:00:02 8.1 C 48 % -2.23 C
2340 28-02-2011 12:12:01 8.3 C 48 % -2.05 C
2341 28-02-2011 12:24:01 8.6 C 46 % -2.35 C
2342 28-02-2011 12:36:02 8.8 C 45 % -2.46 C
2343 28-02-2011 12:48:02 8.5 C 44 % -3.04 C
2344 28-02-2011 13:00:02 8.2 C 46 % -2.71 C
2345 28-02-2011 13:12:02 8.5 C 45 % -2.73 C
2346 28-02-2011 13:24:01 8.8 C 44 % -2.76 C
2347 28-02-2011 13:36:02 10.4 C 38 % -3.29 C
2348 28-02-2011 13:48:01 9.2 C 42 % -3.02 C
2349 28-02-2011 14:00:01 9.1 C 43 % -2.8 C
2350 28-02-2011 14:12:02 10.9 C 41 % -1.82 C
Sensor: Nr:Datum:Temp:Feuchte:Taupunkt:
Aussen-T/F 2351 28-02-2011 14:24:01 10 C 40 % -2.96 C
2352 28-02-2011 14:36:02 11.2 C 38 % -2.57 C
2353 28-02-2011 14:48:01 10.5 C 39 % -2.85 C
2354 28-02-2011 15:00:01 9.6 C 42 % -2.66 C
2355 28-02-2011 15:12:02 9.7 C 42 % -2.57 C
2356 28-02-2011 15:24:02 10 C 40 % -2.96 C
2357 28-02-2011 15:36:02 11 C 39 % -2.4 C
2358 28-02-2011 15:48:02 11.4 C 36 % -3.12 C
2359 28-02-2011 16:00:02 11.5 C 36 % -3.03 C
2360 28-02-2011 16:12:02 12.3 C 36 % -2.32 C
2361 28-02-2011 16:24:02 15.2 C 28 % -3.16 C
2362 28-02-2011 16:36:01 11.6 C 34 % -3.71 C
2363 28-02-2011 16:48:02 9.2 C 41 % -3.35 C
2364 28-02-2011 17:00:02 8.4 C 45 % -2.83 C
2365 28-02-2011 17:12:01 8.1 C 46 % -2.8 C
2366 28-02-2011 17:24:01 7.9 C 48 % -2.42 C
2367 28-02-2011 17:36:01 7.7 C 48 % -2.6 C
2368 28-02-2011 17:48:02 7.1 C 49 % -2.87 C
2369 28-02-2011 18:00:02 6.1 C 56 % -2 C
2370 28-02-2011 18:12:02 5.8 C 58 % -1.81 C
2371 28-02-2011 18:24:02 5.1 C 61 % -1.79 C
2372 28-02-2011 18:36:02 4.4 C 65 % -1.59 C
2373 28-02-2011 18:48:01 4.2 C 67 % -1.37 C
2374 28-02-2011 19:00:01 3.5 C 70 % -1.44 C
2375 28-02-2011 19:12:02 3 C 73 % -1.35 C
Sensor: Nr:Datum:Temp:Feuchte:Taupunkt:
Aussen-T/F 2376 28-02-2011 19:24:01 2.8 C 76 % -1 C
2377 28-02-2011 19:36:01 2.6 C 77 % -1.02 C
2378 28-02-2011 19:48:01 2.2 C 78 % -1.23 C
2379 28-02-2011 20:00:01 2 C 79 % -1.25 C
2380 28-02-2011 20:12:02 1.9 C 81 % -1.01 C
2381 28-02-2011 20:24:01 1.9 C 82 % -0.84 C
2382 28-02-2011 20:36:01 1.7 C 83 % -0.87 C
2383 28-02-2011 20:48:01 1.5 C 84 % -0.9 C
2384 28-02-2011 21:00:01 1.3 C 84 % -1.1 C
2385 28-02-2011 21:12:02 1.3 C 85 % -0.94 C
2386 28-02-2011 21:24:02 1.3 C 85 % -0.94 C
2387 28-02-2011 21:37:02 1.4 C 86 % -0.68 C
2388 28-02-2011 21:49:02 1.3 C 86 % -0.78 C
2389 28-02-2011 22:01:02 1.4 C 86 % -0.68 C
2390 28-02-2011 22:13:02 1.1 C 86 % -0.97 C
2391 28-02-2011 22:25:02 1.1 C 86 % -0.97 C
2392 28-02-2011 22:37:02 0.9 C 87 % -1.01 C
2393 28-02-2011 22:49:02 0.7 C 87 % -1.21 C
2394 28-02-2011 23:01:02 0.9 C 88 % -0.86 C
2395 28-02-2011 23:13:02 1 C 87 % -0.91 C
2396 28-02-2011 23:25:02 1.1 C 87 % -0.82 C
2397 28-02-2011 23:37:02 0.7 C 88 % -1.05 C
2398 28-02-2011 23:49:02 0.9 C 88 % -0.86 C
2399 01-03-2011 00:01:02 0.7 C 88 % -1.05 C
2400 01-03-2011 00:13:02 0.6 C 88 % -1.15 C
Sensor: Nr:Datum:Temp:Feuchte:Taupunkt:
Aussen-T/F 2401 01-03-2011 00:25:02 0.6 C 88 % -1.15 C
2402 01-03-2011 00:37:02 0.4 C 88 % -1.35 C
2403 01-03-2011 00:49:03 0.4 C 88 % -1.35 C
2404 01-03-2011 01:01:03 0.1 C 87 % -1.8 C
2405 01-03-2011 01:13:03 -0.3 C 87 % -2.2 C
2406 01-03-2011 01:25:03 -0.3 C 87 % -2.2 C
2407 01-03-2011 01:37:03 0.1 C 88 % -1.65 C
2408 01-03-2011 01:49:03 -0.1 C 88 % -1.84 C
2409 01-03-2011 02:01:03 0 C 88 % -1.74 C
2410 01-03-2011 02:13:03 0 C 88 % -1.74 C
2411 01-03-2011 02:25:03 -0.3 C 88 % -2.04 C
2412 01-03-2011 02:37:03 0.1 C 89 % -1.49 C
2413 01-03-2011 02:49:03 -0.3 C 89 % -1.89 C
2414 01-03-2011 03:01:03 -0.6 C 89 % -2.18 C
2415 01-03-2011 03:13:03 -0.8 C 89 % -2.38 C
2416 01-03-2011 03:25:03 -1 C 89 % -2.58 C
2417 01-03-2011 03:37:03 -0.9 C 89 % -2.48 C
2418 01-03-2011 03:49:03 -0.5 C 89 % -2.09 C
2419 01-03-2011 04:01:03 -0.9 C 89 % -2.48 C
2420 01-03-2011 04:13:03 -1.1 C 89 % -2.68 C
2421 01-03-2011 04:25:03 -0.8 C 89 % -2.38 C
2422 01-03-2011 04:37:03 -1.2 C 89 % -2.78 C
2423 01-03-2011 04:49:04 -1.2 C 89 % -2.78 C
2424 01-03-2011 05:01:04 -0.3 C 90 % -1.74 C
2425 01-03-2011 05:13:04 0.4 C 91 % -0.89 C
Sensor: Nr:Datum:Temp:Feuchte:Taupunkt:
Aussen-T/F 2426 01-03-2011 05:25:04 0.6 C 91 % -0.7 C
2427 01-03-2011 05:37:04 0.5 C 91 % -0.79 C
2428 01-03-2011 05:49:04 0.5 C 91 % -0.79 C
2429 01-03-2011 06:01:04 0.5 C 91 % -0.79 C
2430 01-03-2011 06:13:04 0.5 C 91 % -0.79 C
2431 01-03-2011 06:25:04 0.5 C 91 % -0.79 C
2432 01-03-2011 06:37:04 0.5 C 91 % -0.79 C
2433 01-03-2011 06:49:02 0.6 C 91 % -0.7 C
2434 01-03-2011 07:01:01 0.6 C 91 % -0.7 C
2435 01-03-2011 07:13:01 0.6 C 92 % -0.55 C
2436 01-03-2011 07:25:02 0.6 C 92 % -0.55 C
2437 01-03-2011 07:37:01 0.6 C 92 % -0.55 C
2438 01-03-2011 07:49:02 0.7 C 92 % -0.45 C
2439 01-03-2011 08:01:02 0.8 C 92 % -0.35 C
2440 01-03-2011 08:13:02 1.1 C 91 % -0.2 C
2441 01-03-2011 08:25:02 1.1 C 91 % -0.2 C
2442 01-03-2011 08:37:02 1.1 C 91 % -0.2 C
2443 01-03-2011 08:49:01 1.3 C 91 % 0 C
2444 01-03-2011 09:01:02 1.6 C 91 % 0.29 C
2445 01-03-2011 09:13:02 1.6 C 91 % 0.29 C
2446 01-03-2011 09:25:01 1.8 C 90 % 0.34 C
2447 01-03-2011 09:37:01 2 C 89 % 0.38 C
2448 01-03-2011 09:49:01 2.2 C 88 % 0.42 C
2449 01-03-2011 10:01:02 2.3 C 87 % 0.36 C
2450 01-03-2011 10:13:02 2.2 C 84 % -0.22 C
Sensor: Nr:Datum:Temp:Feuchte:Taupunkt:
Aussen-T/F 2451 01-03-2011 10:25:02 2.2 C 83 % -0.38 C
2452 01-03-2011 10:37:01 2.5 C 82 % -0.25 C
2453 01-03-2011 10:49:02 3 C 80 % -0.1 C
2454 01-03-2011 11:01:01 3.5 C 79 % 0.21 C
2455 01-03-2011 11:13:01 4.4 C 76 % 0.55 C
2456 01-03-2011 11:25:02 4.4 C 73 % 0 C
2457 01-03-2011 11:37:01 5.1 C 70 % 0.09 C
2458 01-03-2011 11:49:02 5.3 C 69 % 0.09 C
2459 01-03-2011 12:01:02 6.2 C 68 % 0.75 C
2460 01-03-2011 12:13:02 6.7 C 65 % 0.6 C
2461 01-03-2011 12:25:02 7.8 C 62 % 0.99 C
2462 01-03-2011 12:37:02 8.4 C 56 % 0.15 C
2463 01-03-2011 12:49:02 9.4 C 53 % 0.32 C
2464 01-03-2011 13:01:02 9.4 C 51 % -0.21 C
2465 01-03-2011 13:13:02 11.1 C 47 % 0.23 C
2466 01-03-2011 13:25:01 10.6 C 47 % -0.23 C
2467 01-03-2011 13:37:02 9.7 C 50 % -0.21 C
2468 01-03-2011 13:49:03 9.1 C 53 % 0.04 C
2469 01-03-2011 14:01:02 9.8 C 53 % 0.69 C
2470 01-03-2011 14:13:02 10.4 C 50 % 0.44 C
2471 01-03-2011 14:25:02 10.5 C 48 % -0.03 C
2472 01-03-2011 14:37:02 11.2 C 46 % 0.02 C
2473 01-03-2011 14:49:02 11.3 C 46 % 0.12 C
2474 01-03-2011 15:01:01 12.2 C 44 % 0.32 C
2475 01-03-2011 15:13:01 12.1 C 44 % 0.23 C
Sensor: Nr:Datum:Temp:Feuchte:Taupunkt:
Aussen-T/F 2476 01-03-2011 15:25:02 12 C 44 % 0.14 C
2477 01-03-2011 15:37:02 12.5 C 45 % 0.91 C
2478 01-03-2011 15:49:02 14.7 C 31 % -2.23 C
2479 01-03-2011 16:01:03 14.5 C 29 % -3.3 C
2480 01-03-2011 16:13:03 14.6 C 28 % -3.68 C
2481 01-03-2011 16:25:02 14.9 C 25 % -4.93 C
2482 01-03-2011 16:37:02 15.4 C 24 % -5.04 C
2483 01-03-2011 16:49:01 15.7 C 25 % -4.25 C
2484 01-03-2011 17:01:01 14 C 26 % -5.17 C
2485 01-03-2011 17:13:01 13.2 C 27 % -5.36 C
2486 01-03-2011 17:25:01 12.6 C 30 % -4.49 C
2487 01-03-2011 17:37:01 10.4 C 39 % -2.94 C
2488 01-03-2011 17:49:01 8.9 C 45 % -2.37 C
2489 01-03-2011 18:01:01 7.6 C 51 % -1.87 C
2490 01-03-2011 18:13:01 7 C 48 % -3.24 C
2491 01-03-2011 18:25:02 6.5 C 53 % -2.37 C
2492 01-03-2011 18:37:01 6.9 C 52 % -2.26 C
2493 01-03-2011 18:49:03 6.8 C 53 % -2.09 C
2494 01-03-2011 19:01:02 6.5 C 55 % -1.87 C
2495 01-03-2011 19:13:02 6.2 C 56 % -1.91 C
2496 01-03-2011 19:25:02 5.8 C 59 % -1.58 C
2497 01-03-2011 19:37:02 5.1 C 62 % -1.57 C
2498 01-03-2011 19:49:02 4.6 C 63 % -1.82 C
2499 01-03-2011 20:01:01 4.4 C 64 % -1.8 C
2500 01-03-2011 20:13:01 4.7 C 64 % -1.51 C
Sensor: Nr:Datum:Temp:Feuchte:Taupunkt:
Aussen-T/F 2501 01-03-2011 20:25:02 4.3 C 62 % -2.32 C
2502 01-03-2011 20:37:02 4.4 C 62 % -2.23 C
2503 01-03-2011 20:49:02 3.9 C 64 % -2.27 C
2504 01-03-2011 21:01:03 3.6 C 64 % -2.56 C
2505 01-03-2011 21:13:03 3.3 C 67 % -2.23 C
2506 01-03-2011 21:25:02 2.5 C 68 % -2.79 C
2507 01-03-2011 21:38:02 2.3 C 71 % -2.4 C
2508 01-03-2011 21:50:02 2.4 C 71 % -2.31 C
2509 01-03-2011 22:02:02 2 C 71 % -2.69 C
2510 01-03-2011 22:14:02 3.2 C 65 % -2.73 C
2511 01-03-2011 22:26:02 3.2 C 62 % -3.36 C
2512 01-03-2011 22:38:02 3.5 C 59 % -3.74 C
2513 01-03-2011 22:50:02 3.7 C 57 % -4.01 C
2514 01-03-2011 23:02:02 3.5 C 58 % -3.97 C
2515 01-03-2011 23:14:03 3.3 C 57 % -4.39 C
2516 01-03-2011 23:26:03 3 C 58 % -4.44 C
2517 01-03-2011 23:38:03 2.5 C 60 % -4.46 C
2518 01-03-2011 23:50:03 1.8 C 64 % -4.27 C
2519 02-03-2011 00:02:03 1.6 C 66 % -4.05 C
2520 02-03-2011 00:14:03 1.3 C 65 % -4.54 C
2521 02-03-2011 00:26:03 1.8 C 67 % -3.66 C
2522 02-03-2011 00:38:03 1.3 C 67 % -4.14 C
2523 02-03-2011 00:50:03 0.7 C 69 % -4.32 C
2524 02-03-2011 01:02:03 1.5 C 69 % -3.55 C
2525 02-03-2011 01:14:03 1.1 C 68 % -4.13 C
Sensor: Nr:Datum:Temp:Feuchte:Taupunkt:
Aussen-T/F 2526 02-03-2011 01:26:03 0.6 C 69 % -4.42 C
2527 02-03-2011 01:38:03 0.1 C 72 % -4.33 C
2528 02-03-2011 01:50:03 0.1 C 74 % -3.97 C
2529 02-03-2011 02:02:03 0 C 75 % -3.89 C
2530 02-03-2011 02:14:03 0 C 75 % -3.89 C
2531 02-03-2011 02:26:03 -0.4 C 76 % -4.1 C
2532 02-03-2011 02:38:03 -0.6 C 76 % -4.3 C
2533 02-03-2011 02:50:03 -0.8 C 77 % -4.32 C
2534 02-03-2011 03:02:03 -0.9 C 77 % -4.42 C
2535 02-03-2011 03:14:04 -1.1 C 78 % -4.44 C
2536 02-03-2011 03:26:04 -1 C 78 % -4.34 C
2537 02-03-2011 03:38:04 -1.2 C 77 % -4.71 C
2538 02-03-2011 03:50:04 -0.8 C 77 % -4.32 C
2539 02-03-2011 04:02:04 -1.2 C 76 % -4.88 C
2540 02-03-2011 04:14:04 -0.9 C 75 % -4.76 C
2541 02-03-2011 04:26:04 -0.9 C 74 % -4.94 C
2542 02-03-2011 04:38:04 -1 C 73 % -5.22 C
2543 02-03-2011 04:50:04 -1.1 C 72 % -5.5 C
2544 02-03-2011 05:02:04 -1.4 C 73 % -5.6 C
2545 02-03-2011 05:14:04 -1.3 C 73 % -5.51 C
2546 02-03-2011 05:26:04 -1.3 C 73 % -5.51 C
2547 02-03-2011 05:38:04 -1.6 C 74 % -5.62 C
2548 02-03-2011 05:50:04 -1.9 C 75 % -5.73 C
2549 02-03-2011 06:02:04 -2 C 76 % -5.66 C
2550 02-03-2011 06:14:04 -2.1 C 77 % -5.58 C
Sensor: Nr:Datum:Temp:Feuchte:Taupunkt:
Aussen-T/F 2551 02-03-2011 06:26:04 -2 C 77 % -5.48 C
2552 02-03-2011 06:38:04 -2.2 C 77 % -5.68 C
2553 02-03-2011 06:50:04 -2.1 C 76 % -5.75 C
2554 02-03-2011 07:02:04 -2.1 C 75 % -5.93 C
2555 02-03-2011 07:14:04 -2.2 C 74 % -6.2 C
2556 02-03-2011 07:26:05 -2.3 C 75 % -6.12 C
2557 02-03-2011 07:38:02 -2.2 C 75 % -6.02 C
2558 02-03-2011 07:50:02 -2.3 C 75 % -6.12 C
2559 02-03-2011 08:02:01 -2 C 76 % -5.66 C
2560 02-03-2011 08:14:01 -2.2 C 76 % -5.85 C
2561 02-03-2011 08:26:02 -2 C 76 % -5.66 C
2562 02-03-2011 08:38:02 -2 C 76 % -5.66 C
2563 02-03-2011 08:50:02 -1.8 C 76 % -5.46 C
2564 02-03-2011 09:02:02 -1.6 C 75 % -5.44 C
2565 02-03-2011 09:14:02 -0.9 C 73 % -5.12 C
2566 02-03-2011 09:26:01 -1 C 71 % -5.58 C
2567 02-03-2011 09:38:02 -0.5 C 71 % -5.1 C
2568 02-03-2011 09:50:02 -0.2 C 67 % -5.58 C
2569 02-03-2011 10:02:02 -0.2 C 68 % -5.38 C
2570 02-03-2011 10:14:02 0.7 C 65 % -5.11 C
2571 02-03-2011 10:26:02 1.5 C 61 % -5.19 C
2572 02-03-2011 10:38:02 2.3 C 56 % -5.56 C
2573 02-03-2011 10:50:02 2.9 C 55 % -5.23 C
2574 02-03-2011 11:02:02 4 C 50 % -5.46 C
2575 02-03-2011 11:14:02 5.2 C 43 % -6.33 C
Sensor: Nr:Datum:Temp:Feuchte:Taupunkt:
Aussen-T/F 2576 02-03-2011 11:26:02 5.2 C 41 % -6.95 C
2577 02-03-2011 11:38:01 6.9 C 30 % -9.45 C
2578 02-03-2011 11:50:02 7.1 C 23 % -12.6 C
2579 02-03-2011 12:02:01 7.6 C 21 % -13.29 C
2580 02-03-2011 12:14:01 8.2 C 20 % -13.39 C
2581 02-03-2011 12:26:02 10 C 20 % -11.89 C
2582 02-03-2011 12:38:02 11 C 20 % -11.06 C
2583 02-03-2011 12:50:02 12.1 C 20 % -10.15 C
2584 02-03-2011 13:02:02 12.9 C 20 % -9.49 C
2585 02-03-2011 13:14:02 12.3 C 20 % -9.98 C
2586 02-03-2011 13:26:02 11.2 C 20 % -10.9 C
2587 02-03-2011 13:38:02 11.1 C 20 % -10.98 C
2588 02-03-2011 13:50:02 10.7 C 20 % -11.31 C
2589 02-03-2011 14:02:03 10.2 C 20 % -11.73 C
2590 02-03-2011 14:14:03 11 C 20 % -11.06 C
2591 02-03-2011 14:26:02 11.2 C 20 % -10.9 C
2592 02-03-2011 14:38:02 11 C 20 % -11.06 C
2593 02-03-2011 14:50:01 10.8 C 20 % -11.23 C
2594 02-03-2011 15:02:01 11 C 20 % -11.06 C
2595 02-03-2011 15:14:01 10.6 C 20 % -11.39 C
2596 02-03-2011 15:26:01 11.8 C 20 % -10.4 C
2597 02-03-2011 15:38:01 11.7 C 20 % -10.48 C
2598 02-03-2011 15:50:01 13.3 C 20 % -9.15 C
2599 02-03-2011 16:02:01 13 C 20 % -9.4 C
2600 02-03-2011 16:14:01 12.9 C 20 % -9.49 C
Sensor: Nr:Datum:Temp:Feuchte:Taupunkt:
Aussen-T/F 2601 02-03-2011 16:26:02 13.1 C 20 % -9.32 C
2602 02-03-2011 16:38:01 13.3 C 20 % -9.15 C
2603 02-03-2011 16:50:02 13.6 C 20 % -8.91 C
2604 02-03-2011 17:02:02 12.3 C 20 % -9.98 C
2605 02-03-2011 17:14:02 12.2 C 20 % -10.07 C
2606 02-03-2011 17:26:02 11.2 C 20 % -10.9 C
2607 02-03-2011 17:38:03 8.7 C 20 % -12.97 C
2608 02-03-2011 17:50:02 7.4 C 20 % -14.05 C
2609 02-03-2011 18:02:01 6.7 C 21 % -14.05 C
2610 02-03-2011 18:14:01 6 C 27 % -11.55 C
2611 02-03-2011 18:26:02 4.6 C 33 % -10.26 C
2612 02-03-2011 18:38:02 3.6 C 40 % -8.71 C
2613 02-03-2011 18:50:02 3 C 43 % -8.33 C
2614 02-03-2011 19:02:02 3 C 43 % -8.33 C
2615 02-03-2011 19:14:02 2.4 C 47 % -7.74 C
2616 02-03-2011 19:26:02 2.2 C 47 % -7.92 C
2617 02-03-2011 19:38:02 2.5 C 48 % -7.38 C
2618 02-03-2011 19:50:02 2.4 C 45 % -8.3 C
2619 02-03-2011 20:02:02 3.2 C 41 % -8.76 C
2620 02-03-2011 20:14:02 2.6 C 43 % -8.69 C
2621 02-03-2011 20:26:02 3.6 C 36 % -10.05 C
2622 02-03-2011 20:38:02 2.4 C 43 % -8.88 C
2623 02-03-2011 20:50:02 2.7 C 44 % -8.31 C
2624 02-03-2011 21:02:02 3.1 C 40 % -9.16 C
2625 02-03-2011 21:14:02 2.1 C 43 % -9.15 C
Sensor: Nr:Datum:Temp:Feuchte:Taupunkt:
Aussen-T/F 2626 02-03-2011 21:26:03 2.9 C 39 % -9.66 C
2627 02-03-2011 21:38:02 3.3 C 37 % -9.97 C
2628 02-03-2011 21:51:03 2.8 C 40 % -9.43 C
2629 02-03-2011 22:03:03 3.4 C 38 % -9.54 C
2630 02-03-2011 22:15:04 2.7 C 40 % -9.52 C
2631 02-03-2011 22:27:04 2.4 C 40 % -9.79 C
2632 02-03-2011 22:39:04 2.2 C 41 % -9.66 C
2633 02-03-2011 22:51:04 1.5 C 45 % -9.12 C
2634 02-03-2011 23:03:04 1.6 C 46 % -8.75 C
2635 02-03-2011 23:15:04 1.5 C 46 % -8.84 C
2636 02-03-2011 23:27:04 0.7 C 51 % -8.26 C
2637 02-03-2011 23:39:04 0.1 C 55 % -7.85 C
2638 02-03-2011 23:51:04 0 C 56 % -7.71 C
2639 03-03-2011 00:03:04 0.1 C 54 % -8.08 C
2640 03-03-2011 00:15:04 -0.8 C 58 % -8.02 C
2641 03-03-2011 00:27:04 -0.9 C 60 % -7.68 C
2642 03-03-2011 00:39:04 -1.2 C 60 % -7.96 C
2643 03-03-2011 00:51:04 -1.4 C 61 % -7.94 C
2644 03-03-2011 01:03:04 -1.5 C 61 % -8.03 C
2645 03-03-2011 01:15:04 -1.7 C 62 % -8.01 C
2646 03-03-2011 01:27:04 -1.8 C 63 % -7.9 C
2647 03-03-2011 01:39:04 -1.7 C 63 % -7.81 C
2648 03-03-2011 01:51:04 -1.2 C 63 % -7.33 C
2649 03-03-2011 02:03:04 -1.9 C 62 % -8.2 C
2650 03-03-2011 02:15:05 -2 C 62 % -8.3 C
Sensor: Nr:Datum:Temp:Feuchte:Taupunkt:
Aussen-T/F 2651 03-03-2011 02:27:05 -1.8 C 60 % -8.53 C
2652 03-03-2011 02:39:05 -2 C 60 % -8.72 C
2653 03-03-2011 02:51:05 -2 C 62 % -8.3 C
2654 03-03-2011 03:03:05 -2 C 61 % -8.5 C
2655 03-03-2011 03:15:05 -2 C 62 % -8.3 C
2656 03-03-2011 03:27:05 -2.3 C 62 % -8.58 C
2657 03-03-2011 03:39:05 -2.2 C 62 % -8.49 C
2658 03-03-2011 03:51:05 -2.1 C 62 % -8.39 C
2659 03-03-2011 04:03:05 -1.8 C 60 % -8.53 C
2660 03-03-2011 04:15:05 -0.3 C 51 % -9.2 C
2661 03-03-2011 04:27:05 -1.3 C 52 % -9.88 C
2662 03-03-2011 04:39:05 -2.6 C 57 % -9.93 C
2663 03-03-2011 04:51:05 -2.8 C 62 % -9.05 C
2664 03-03-2011 05:03:05 -2.6 C 64 % -8.46 C
2665 03-03-2011 05:15:05 -3.1 C 64 % -8.93 C
2666 03-03-2011 05:27:05 -2.7 C 64 % -8.55 C
2667 03-03-2011 05:39:05 -2.7 C 62 % -8.96 C
2668 03-03-2011 05:51:05 -3 C 62 % -9.24 C
2669 03-03-2011 06:03:05 -3.1 C 63 % -9.14 C
2670 03-03-2011 06:15:06 -3.1 C 64 % -8.93 C
2671 03-03-2011 06:27:06 -3.6 C 64 % -9.41 C
2672 03-03-2011 06:39:06 -3.7 C 65 % -9.31 C
2673 03-03-2011 06:51:06 -3.6 C 67 % -8.83 C
2674 03-03-2011 07:03:03 -3.5 C 67 % -8.73 C
2675 03-03-2011 07:15:03 -3.2 C 66 % -8.64 C
Sensor: Nr:Datum:Temp:Feuchte:Taupunkt:
Aussen-T/F 2676 03-03-2011 07:27:04 -3.2 C 65 % -8.83 C
2677 03-03-2011 07:39:03 -3.1 C 65 % -8.74 C
2678 03-03-2011 07:51:02 -3 C 65 % -8.64 C
2679 03-03-2011 08:03:02 -3.2 C 65 % -8.83 C
2680 03-03-2011 08:15:02 -2.8 C 65 % -8.45 C
2681 03-03-2011 08:27:02 -2.5 C 63 % -8.57 C
2682 03-03-2011 08:39:02 -2.4 C 62 % -8.68 C
2683 03-03-2011 08:51:02 -2.3 C 62 % -8.58 C
2684 03-03-2011 09:03:02 -2 C 62 % -8.3 C
2685 03-03-2011 09:15:02 -1.9 C 61 % -8.41 C
2686 03-03-2011 09:27:02 -1.7 C 60 % -8.43 C
2687 03-03-2011 09:39:01 -1.6 C 61 % -8.13 C
2688 03-03-2011 09:51:02 -1.2 C 61 % -7.75 C
2689 03-03-2011 10:03:01 -1 C 61 % -7.56 C
2690 03-03-2011 10:15:01 0.2 C 59 % -6.85 C
2691 03-03-2011 10:27:01 0.7 C 56 % -7.05 C
2692 03-03-2011 10:39:02 1.8 C 48 % -8.02 C
2693 03-03-2011 10:51:02 2.5 C 41 % -9.39 C
2694 03-03-2011 11:03:02 4 C 36 % -9.69 C
2695 03-03-2011 11:15:02 3.8 C 35 % -10.23 C
2696 03-03-2011 11:27:02 3.9 C 34 % -10.5 C
2697 03-03-2011 11:39:02 4.9 C 30 % -11.19 C
2698 03-03-2011 11:51:02 4.6 C 30 % -11.45 C
2699 03-03-2011 12:03:02 5.1 C 29 % -11.44 C
2700 03-03-2011 12:15:02 5.8 C 28 % -11.27 C
Sensor: Nr:Datum:Temp:Feuchte:Taupunkt:
Aussen-T/F 2701 03-03-2011 12:27:02 6.5 C 23 % -13.1 C
2702 03-03-2011 12:39:02 8.7 C 20 % -12.97 C
2703 03-03-2011 12:51:01 8.6 C 20 % -13.06 C
2704 03-03-2011 13:03:01 9 C 20 % -12.72 C
2705 03-03-2011 13:15:02 9.3 C 20 % -12.47 C
2706 03-03-2011 13:27:02 7.8 C 20 % -13.72 C
2707 03-03-2011 13:39:01 8 C 20 % -13.56 C
2708 03-03-2011 13:51:03 8.1 C 20 % -13.47 C
2709 03-03-2011 14:03:02 7.9 C 20 % -13.64 C
2710 03-03-2011 14:15:02 8.8 C 20 % -12.89 C
2711 03-03-2011 14:27:03 8.6 C 20 % -13.06 C
2712 03-03-2011 14:39:02 9.4 C 20 % -12.39 C
2713 03-03-2011 14:51:02 8.8 C 20 % -12.89 C
2714 03-03-2011 15:03:01 9.3 C 20 % -12.47 C
2715 03-03-2011 15:15:02 9.3 C 20 % -12.47 C
2716 03-03-2011 15:27:02 9.4 C 20 % -12.39 C
2717 03-03-2011 15:39:02 9.3 C 20 % -12.47 C
2718 03-03-2011 15:51:02 10.3 C 20 % -11.64 C
2719 03-03-2011 16:03:03 9.5 C 20 % -12.31 C
2720 03-03-2011 16:15:02 11.1 C 20 % -10.98 C
2721 03-03-2011 16:27:02 12 C 20 % -10.23 C
2722 03-03-2011 16:39:02 10.7 C 20 % -11.31 C
2723 03-03-2011 16:51:01 10.5 C 20 % -11.48 C
2724 03-03-2011 17:03:02 9.7 C 20 % -12.14 C
2725 03-03-2011 17:15:01 9.4 C 20 % -12.39 C
Sensor: Nr:Datum:Temp:Feuchte:Taupunkt:
Aussen-T/F 2726 03-03-2011 17:27:01 8.5 C 20 % -13.14 C
2727 03-03-2011 17:39:01 7 C 20 % -14.39 C
2728 03-03-2011 17:51:01 5.9 C 30 % -10.32 C
2729 03-03-2011 18:03:01 4.6 C 34 % -9.88 C
2730 03-03-2011 18:15:02 3.8 C 38 % -9.19 C
2731 03-03-2011 18:27:02 3.3 C 40 % -8.98 C
2732 03-03-2011 18:39:01 2.4 C 45 % -8.3 C
2733 03-03-2011 18:51:03 1.8 C 48 % -8.02 C
2734 03-03-2011 19:03:02 1.4 C 51 % -7.61 C
2735 03-03-2011 19:15:02 1.2 C 52 % -7.54 C
2736 03-03-2011 19:27:02 1.1 C 54 % -7.15 C
2737 03-03-2011 19:39:02 0.9 C 56 % -6.87 C
2738 03-03-2011 19:51:02 0.8 C 57 % -6.73 C
2739 03-03-2011 20:03:01 1.1 C 55 % -6.91 C
2740 03-03-2011 20:15:02 0.5 C 58 % -6.79 C
2741 03-03-2011 20:27:02 0.5 C 59 % -6.56 C
2742 03-03-2011 20:39:02 0.4 C 60 % -6.44 C
2743 03-03-2011 20:51:02 0 C 61 % -6.6 C
2744 03-03-2011 21:03:03 -0.1 C 63 % -6.29 C
2745 03-03-2011 21:15:02 -0.1 C 62 % -6.5 C
2746 03-03-2011 21:27:02 -0.3 C 64 % -6.27 C
2747 03-03-2011 21:39:02 -0.4 C 65 % -6.16 C
2748 03-03-2011 21:51:01 -0.5 C 66 % -6.06 C
2749 03-03-2011 22:03:02 -0.4 C 66 % -5.96 C
2750 03-03-2011 22:15:02 -0.4 C 65 % -6.16 C
Sensor: Nr:Datum:Temp:Feuchte:Taupunkt:
Aussen-T/F 2751 03-03-2011 22:27:02 -0.7 C 66 % -6.25 C
2752 03-03-2011 22:39:01 -0.9 C 67 % -6.25 C
2753 03-03-2011 22:52:03 -1 C 69 % -5.96 C
2754 03-03-2011 23:04:03 -1.2 C 69 % -6.15 C
2755 03-03-2011 23:16:03 -1.1 C 69 % -6.05 C
2756 03-03-2011 23:28:03 -1.3 C 69 % -6.24 C
2757 03-03-2011 23:40:03 -1.5 C 68 % -6.63 C
2758 03-03-2011 23:52:03 -1.4 C 69 % -6.34 C
2759 04-03-2011 00:04:03 -1.5 C 68 % -6.63 C
2760 04-03-2011 00:16:03 -1.5 C 68 % -6.63 C
2761 04-03-2011 00:28:03 -1.6 C 68 % -6.72 C
2762 04-03-2011 00:40:04 -1.8 C 69 % -6.72 C
2763 04-03-2011 00:52:04 -1.7 C 69 % -6.63 C
2764 04-03-2011 01:04:04 -1.9 C 70 % -6.63 C
2765 04-03-2011 01:16:04 -1.7 C 70 % -6.44 C
2766 04-03-2011 01:28:04 -1.9 C 70 % -6.63 C
2767 04-03-2011 01:40:04 -1.9 C 70 % -6.63 C
2768 04-03-2011 01:52:04 -2 C 70 % -6.73 C
2769 04-03-2011 02:04:04 -2.2 C 70 % -6.92 C
2770 04-03-2011 02:16:04 -2.1 C 70 % -6.83 C
2771 04-03-2011 02:28:04 -2.3 C 70 % -7.02 C
2772 04-03-2011 02:40:04 -2.4 C 70 % -7.11 C
2773 04-03-2011 02:52:04 -2.2 C 71 % -6.74 C
2774 04-03-2011 03:04:04 -2.5 C 70 % -7.21 C
2775 04-03-2011 03:16:04 -2.7 C 71 % -7.22 C
Sensor: Nr:Datum:Temp:Feuchte:Taupunkt:
Aussen-T/F 2776 04-03-2011 03:28:04 -3 C 72 % -7.33 C
2777 04-03-2011 03:40:04 -3.2 C 73 % -7.34 C
2778 04-03-2011 03:52:04 -2.5 C 74 % -6.49 C
2779 04-03-2011 04:04:04 -2.8 C 74 % -6.78 C
2780 04-03-2011 04:16:04 -3.1 C 73 % -7.24 C
2781 04-03-2011 04:28:04 -3.9 C 73 % -8.02 C
2782 04-03-2011 04:40:04 -3.9 C 75 % -7.67 C
2783 04-03-2011 04:52:05 -4 C 76 % -7.59 C
2784 04-03-2011 05:04:05 -4.3 C 76 % -7.89 C
2785 04-03-2011 05:16:05 -4.3 C 76 % -7.89 C
2786 04-03-2011 05:28:05 -4.6 C 77 % -8.01 C
2787 04-03-2011 05:40:05 -4.3 C 78 % -7.55 C
2788 04-03-2011 05:52:05 -4.3 C 79 % -7.39 C
2789 04-03-2011 06:04:05 -4.7 C 79 % -7.78 C
2790 04-03-2011 06:16:05 -4.4 C 79 % -7.48 C
2791 04-03-2011 06:28:05 -4.4 C 79 % -7.48 C
2792 04-03-2011 06:40:05 -4.7 C 79 % -7.78 C
2793 04-03-2011 06:52:05 -5 C 78 % -8.23 C
2794 04-03-2011 07:04:05 -4.9 C 78 % -8.13 C
2795 04-03-2011 07:16:03 -4.9 C 79 % -7.97 C
2796 04-03-2011 07:28:03 -4.7 C 79 % -7.78 C
2797 04-03-2011 07:40:02 -4.6 C 79 % -7.68 C
2798 04-03-2011 07:52:02 -4.4 C 79 % -7.48 C
2799 04-03-2011 08:04:01 -4.5 C 79 % -7.58 C
2800 04-03-2011 08:16:02 -4 C 79 % -7.09 C
Sensor: Nr:Datum:Temp:Feuchte:Taupunkt:
Aussen-T/F 2801 04-03-2011 08:28:02 -4 C 80 % -6.93 C
2802 04-03-2011 08:40:02 -3.8 C 80 % -6.74 C
2803 04-03-2011 08:52:02 -3.6 C 79 % -6.7 C
2804 04-03-2011 09:04:02 -3.5 C 79 % -6.61 C
2805 04-03-2011 09:16:02 -3.1 C 79 % -6.22 C
2806 04-03-2011 09:28:02 -2.7 C 79 % -5.83 C
2807 04-03-2011 09:40:02 -2.4 C 78 % -5.7 C
2808 04-03-2011 09:52:02 -2.2 C 78 % -5.51 C
2809 04-03-2011 10:04:02 -1.6 C 77 % -5.1 C
2810 04-03-2011 10:16:02 -0.7 C 75 % -4.57 C
2811 04-03-2011 10:28:02 -0.1 C 72 % -4.53 C
2812 04-03-2011 10:40:03 0.5 C 69 % -4.51 C
2813 04-03-2011 10:52:02 1.4 C 66 % -4.24 C
2814 04-03-2011 11:04:02 2.9 C 59 % -4.31 C
2815 04-03-2011 11:16:02 3 C 54 % -5.38 C
2816 04-03-2011 11:28:02 3.3 C 51 % -5.85 C
2817 04-03-2011 11:40:02 4.6 C 46 % -6 C
2818 04-03-2011 11:52:02 4.2 C 45 % -6.65 C
2819 04-03-2011 12:04:01 4.6 C 46 % -6 C
2820 04-03-2011 12:16:02 5.4 C 42 % -6.46 C
2821 04-03-2011 12:28:02 7.3 C 39 % -5.72 C
2822 04-03-2011 12:40:02 9.5 C 31 % -6.76 C
2823 04-03-2011 12:52:01 10.5 C 30 % -6.32 C
2824 04-03-2011 13:04:01 11.6 C 26 % -7.22 C
2825 04-03-2011 13:16:01 12 C 25 % -7.39 C
Sensor: Nr:Datum:Temp:Feuchte:Taupunkt:
Aussen-T/F 2826 04-03-2011 13:28:01 10.1 C 30 % -6.66 C
2827 04-03-2011 13:40:02 9 C 31 % -7.2 C
2828 04-03-2011 13:52:02 8.9 C 32 % -6.87 C
2829 04-03-2011 14:04:02 8.6 C 33 % -6.74 C
2830 04-03-2011 14:16:01 9.8 C 32 % -6.09 C
2831 04-03-2011 14:28:01 9.8 C 32 % -6.09 C
2832 04-03-2011 14:40:02 10.1 C 32 % -5.82 C
2833 04-03-2011 14:52:02 10 C 31 % -6.32 C
2834 04-03-2011 15:04:02 10.9 C 30 % -5.97 C
2835 04-03-2011 15:16:02 10.7 C 31 % -5.71 C
2836 04-03-2011 15:28:02 10.8 C 30 % -6.06 C
2837 04-03-2011 15:40:02 13.2 C 26 % -5.86 C
2838 04-03-2011 15:52:02 14.2 C 25 % -5.52 C
2839 04-03-2011 16:04:01 15.1 C 20 % -7.66 C
2840 04-03-2011 16:16:01 16.9 C 20 % -6.17 C
2841 04-03-2011 16:28:01 16.6 C 20 % -6.42 C
2842 04-03-2011 16:40:02 15.2 C 22 % -6.35 C
2843 04-03-2011 16:52:02 14.9 C 25 % -4.93 C
2844 04-03-2011 17:04:02 13.5 C 25 % -6.11 C
2845 04-03-2011 17:16:02 13.2 C 27 % -5.36 C
2846 04-03-2011 17:28:02 11.1 C 34 % -4.15 C
2847 04-03-2011 17:40:02 8.9 C 40 % -3.95 C
2848 04-03-2011 17:52:02 7.9 C 44 % -3.58 C
2849 04-03-2011 18:04:02 6.4 C 48 % -3.79 C
2850 04-03-2011 18:16:02 5.5 C 52 % -3.56 C
Sensor: Nr:Datum:Temp:Feuchte:Taupunkt:
Aussen-T/F 2851 04-03-2011 18:28:02 5.1 C 54 % -3.42 C
2852 04-03-2011 18:40:02 4.7 C 56 % -3.31 C
2853 04-03-2011 18:52:01 5.2 C 53 % -3.58 C
2854 04-03-2011 19:04:02 5 C 52 % -4.02 C
2855 04-03-2011 19:16:01 5 C 50 % -4.54 C
2856 04-03-2011 19:28:01 4.3 C 52 % -4.67 C
2857 04-03-2011 19:40:01 4.4 C 58 % -3.12 C
2858 04-03-2011 19:52:01 3.6 C 60 % -3.42 C
2859 04-03-2011 20:04:01 3.2 C 63 % -3.15 C
2860 04-03-2011 20:16:02 2.8 C 65 % -3.11 C
2861 04-03-2011 20:28:02 2.6 C 66 % -3.1 C
2862 04-03-2011 20:40:01 2.7 C 67 % -2.8 C
2863 04-03-2011 20:52:03 2.3 C 67 % -3.18 C
2864 04-03-2011 21:04:02 2.1 C 69 % -2.98 C
2865 04-03-2011 21:16:02 1.6 C 71 % -3.08 C
2866 04-03-2011 21:28:02 1.9 C 71 % -2.79 C
2867 04-03-2011 21:41:03 1.8 C 70 % -3.07 C
2868 04-03-2011 21:53:03 1.7 C 72 % -2.79 C
2869 04-03-2011 22:05:03 1.7 C 72 % -2.79 C
2870 04-03-2011 22:17:03 1.4 C 72 % -3.08 C
2871 04-03-2011 22:29:03 0.9 C 75 % -3.02 C
2872 04-03-2011 22:41:03 0.7 C 76 % -3.03 C
2873 04-03-2011 22:53:03 0.4 C 78 % -2.98 C
2874 04-03-2011 23:05:03 -0.3 C 78 % -3.66 C
2875 04-03-2011 23:17:03 0 C 80 % -3.03 C
Sensor: Nr:Datum:Temp:Feuchte:Taupunkt:
Aussen-T/F 2876 04-03-2011 23:29:03 0.6 C 80 % -2.44 C
2877 04-03-2011 23:41:03 0 C 79 % -3.2 C
2878 04-03-2011 23:53:03 -0.6 C 81 % -3.45 C
2879 05-03-2011 00:05:03 -0.5 C 82 % -3.19 C
2880 05-03-2011 00:17:03 -0.4 C 83 % -2.93 C
2881 05-03-2011 00:29:04 -1.5 C 83 % -4 C
2882 05-03-2011 00:41:04 -1.3 C 83 % -3.81 C
2883 05-03-2011 00:53:04 -1.5 C 84 % -3.85 C
2884 05-03-2011 01:05:04 -0.7 C 85 % -2.9 C
2885 05-03-2011 01:17:04 -1.7 C 85 % -3.88 C
2886 05-03-2011 01:29:04 -2.3 C 85 % -4.47 C
2887 05-03-2011 01:41:04 -2.3 C 85 % -4.47 C
2888 05-03-2011 01:53:04 -2.4 C 85 % -4.57 C
2889 05-03-2011 02:05:04 -2.8 C 85 % -4.96 C
2890 05-03-2011 02:17:04 -2.9 C 85 % -5.06 C
2891 05-03-2011 02:29:04 -3.1 C 85 % -5.26 C
2892 05-03-2011 02:41:04 -3.2 C 85 % -5.36 C
2893 05-03-2011 02:53:04 -3.2 C 85 % -5.36 C
2894 05-03-2011 03:05:04 -3.5 C 85 % -5.65 C
2895 05-03-2011 03:17:04 -3.5 C 85 % -5.65 C
2896 05-03-2011 03:29:04 -3.7 C 85 % -5.85 C
2897 05-03-2011 03:41:04 -3.7 C 86 % -5.69 C
2898 05-03-2011 03:53:04 -3.5 C 86 % -5.5 C
2899 05-03-2011 04:05:04 -3.6 C 86 % -5.6 C
2900 05-03-2011 04:17:04 -3.9 C 86 % -5.89 C
Sensor: Nr:Datum:Temp:Feuchte:Taupunkt:
Aussen-T/F 2901 05-03-2011 04:29:04 -3.8 C 86 % -5.79 C
2902 05-03-2011 04:41:05 -3.7 C 87 % -5.54 C
2903 05-03-2011 04:53:05 -3.7 C 87 % -5.54 C
2904 05-03-2011 05:05:05 -3.7 C 87 % -5.54 C
2905 05-03-2011 05:17:05 -3.8 C 87 % -5.64 C
2906 05-03-2011 05:29:05 -4.1 C 87 % -5.94 C
2907 05-03-2011 05:41:05 -3.6 C 87 % -5.44 C
2908 05-03-2011 05:53:05 -4 C 87 % -5.84 C
2909 05-03-2011 06:05:05 -3.7 C 87 % -5.54 C
2910 05-03-2011 06:17:05 -2.8 C 87 % -4.66 C
2911 05-03-2011 06:29:05 -2.6 C 87 % -4.46 C
2912 05-03-2011 06:41:05 -2.5 C 87 % -4.36 C
2913 05-03-2011 06:53:05 -2.3 C 88 % -4.01 C
2914 05-03-2011 07:05:03 -2.4 C 88 % -4.11 C
2915 05-03-2011 07:17:02 -2.2 C 88 % -3.91 C
2916 05-03-2011 07:29:02 -2.7 C 87 % -4.56 C
2917 05-03-2011 07:41:02 -2.8 C 87 % -4.66 C
2918 05-03-2011 07:53:01 -1.9 C 88 % -3.62 C
2919 05-03-2011 08:05:02 -1.9 C 88 % -3.62 C
2920 05-03-2011 08:17:02 -1.8 C 88 % -3.52 C
2921 05-03-2011 08:29:02 -1.4 C 87 % -3.28 C
2922 05-03-2011 08:41:02 -1.4 C 87 % -3.28 C
2923 05-03-2011 08:53:02 -1.3 C 86 % -3.33 C
2924 05-03-2011 09:05:02 -1.1 C 86 % -3.14 C
2925 05-03-2011 09:17:02 -0.9 C 85 % -3.1 C
Sensor: Nr:Datum:Temp:Feuchte:Taupunkt:
Aussen-T/F 2926 05-03-2011 09:29:02 -0.7 C 84 % -3.06 C
2927 05-03-2011 09:41:02 -0.2 C 83 % -2.73 C
2928 05-03-2011 09:53:02 0.2 C 82 % -2.5 C
2929 05-03-2011 10:05:02 0.6 C 81 % -2.28 C
2930 05-03-2011 10:17:02 1 C 78 % -2.39 C
2931 05-03-2011 10:29:02 1.6 C 76 % -2.16 C
2932 05-03-2011 10:41:02 2.2 C 73 % -2.13 C
2933 05-03-2011 10:53:01 2.4 C 71 % -2.31 C
2934 05-03-2011 11:05:02 2.4 C 69 % -2.69 C
2935 05-03-2011 11:17:01 2.9 C 68 % -2.41 C
2936 05-03-2011 11:29:01 2.8 C 63 % -3.53 C
2937 05-03-2011 11:41:01 3 C 62 % -3.55 C
2938 05-03-2011 11:53:01 3 C 61 % -3.77 C
2939 05-03-2011 12:05:02 3.3 C 62 % -3.27 C
2940 05-03-2011 12:17:02 3.3 C 61 % -3.49 C
2941 05-03-2011 12:29:02 4.6 C 58 % -2.94 C
2942 05-03-2011 12:41:01 4.9 C 54 % -3.61 C
2943 05-03-2011 12:53:02 6.3 C 48 % -3.88 C
2944 05-03-2011 13:05:01 6.8 C 47 % -3.71 C
2945 05-03-2011 13:17:02 6.3 C 47 % -4.16 C
2946 05-03-2011 13:29:02 5.6 C 48 % -4.53 C
2947 05-03-2011 13:41:01 5 C 50 % -4.54 C
2948 05-03-2011 13:53:02 4.7 C 50 % -4.82 C
2949 05-03-2011 14:05:02 3.3 C 53 % -5.35 C
2950 05-03-2011 14:17:02 4 C 53 % -4.7 C
Sensor: Nr:Datum:Temp:Feuchte:Taupunkt:
Aussen-T/F 2951 05-03-2011 14:29:02 4.1 C 52 % -4.85 C
2952 05-03-2011 14:41:02 4.1 C 53 % -4.6 C
2953 05-03-2011 14:53:02 4.5 C 52 % -4.48 C
2954 05-03-2011 15:05:03 4.2 C 52 % -4.76 C
2955 05-03-2011 15:17:02 3.7 C 53 % -4.97 C
2956 05-03-2011 15:29:02 3.4 C 55 % -4.77 C
2957 05-03-2011 15:41:02 3.8 C 54 % -4.63 C
2958 05-03-2011 15:53:01 4.8 C 51 % -4.46 C
2959 05-03-2011 16:05:02 4.2 C 52 % -4.76 C
2960 05-03-2011 16:17:01 4.1 C 52 % -4.85 C
2961 05-03-2011 16:29:01 3.3 C 55 % -4.86 C
2962 05-03-2011 16:41:02 2.6 C 59 % -4.59 C
2963 05-03-2011 16:53:01 2.7 C 60 % -4.27 C
2964 05-03-2011 17:05:02 3.2 C 59 % -4.02 C
2965 05-03-2011 17:17:01 3.3 C 57 % -4.39 C
2966 05-03-2011 17:29:01 2.6 C 61 % -4.15 C
2967 05-03-2011 17:41:02 2.2 C 64 % -3.89 C
2968 05-03-2011 17:53:01 1.8 C 67 % -3.66 C
2969 05-03-2011 18:05:02 1.5 C 70 % -3.36 C
2970 05-03-2011 18:17:02 1.5 C 71 % -3.17 C
2971 05-03-2011 18:29:02 1.4 C 72 % -3.08 C
2972 05-03-2011 18:41:01 1.3 C 73 % -2.99 C
2973 05-03-2011 18:53:01 1.1 C 74 % -3 C
2974 05-03-2011 19:05:02 0.8 C 77 % -2.76 C
2975 05-03-2011 19:17:02 0.6 C 78 % -2.78 C
Sensor: Nr:Datum:Temp:Feuchte:Taupunkt:
Aussen-T/F 2976 05-03-2011 19:29:02 1.1 C 79 % -2.12 C
2977 05-03-2011 19:41:01 1.5 C 78 % -1.91 C
2978 05-03-2011 19:53:02 1.7 C 76 % -2.07 C
2979 05-03-2011 20:05:01 1.9 C 76 % -1.87 C
2980 05-03-2011 20:17:02 1.9 C 76 % -1.87 C
2981 05-03-2011 20:29:03 1.5 C 77 % -2.08 C
2982 05-03-2011 20:41:01 1.4 C 78 % -2.01 C
2983 05-03-2011 20:53:02 0.7 C 79 % -2.51 C
2984 05-03-2011 21:05:02 0.1 C 80 % -2.93 C
2985 05-03-2011 21:17:02 -0.6 C 80 % -3.62 C
2986 05-03-2011 21:29:02 -0.2 C 82 % -2.89 C
2987 05-03-2011 21:41:03 -0.6 C 82 % -3.29 C
2988 05-03-2011 21:54:03 -1.2 C 82 % -3.87 C
2989 05-03-2011 22:06:03 -0.9 C 83 % -3.42 C
2990 05-03-2011 22:18:03 -1.2 C 84 % -3.55 C
2991 05-03-2011 22:30:03 -0.9 C 84 % -3.26 C
2992 05-03-2011 22:42:03 -1.4 C 84 % -3.75 C
2993 05-03-2011 22:54:03 -1.7 C 84 % -4.04 C
2994 05-03-2011 23:06:04 -1.6 C 84 % -3.94 C
2995 05-03-2011 23:18:04 -2 C 84 % -4.34 C
2996 05-03-2011 23:30:04 -1.4 C 85 % -3.59 C
2997 05-03-2011 23:42:04 -1.8 C 85 % -3.98 C
2998 05-03-2011 23:54:04 -1.3 C 86 % -3.33 C
2999 06-03-2011 00:06:04 -1.6 C 86 % -3.63 C
3000 06-03-2011 00:18:04 -1.8 C 86 % -3.83 C
Sensor: Nr:Datum:Temp:Feuchte:Taupunkt:
Aussen-T/F 3001 06-03-2011 00:30:04 -1.4 C 87 % -3.28 C
3002 06-03-2011 00:42:04 -1.4 C 87 % -3.28 C
3003 06-03-2011 00:54:04 -1.9 C 86 % -3.92 C
3004 06-03-2011 01:06:04 -2.4 C 86 % -4.42 C
3005 06-03-2011 01:18:04 -2.2 C 87 % -4.07 C
3006 06-03-2011 01:30:04 -2.4 C 87 % -4.26 C
3007 06-03-2011 01:42:04 -1.5 C 88 % -3.22 C
3008 06-03-2011 01:54:04 -1.2 C 88 % -2.93 C
3009 06-03-2011 02:06:04 -0.9 C 89 % -2.48 C
3010 06-03-2011 02:18:04 -0.4 C 89 % -1.99 C
3011 06-03-2011 02:30:04 -0.5 C 89 % -2.09 C
3012 06-03-2011 02:42:04 -0.3 C 88 % -2.04 C
3013 06-03-2011 02:54:04 -0.3 C 88 % -2.04 C
3014 06-03-2011 03:06:04 -0.1 C 88 % -1.84 C
3015 06-03-2011 03:18:05 0 C 88 % -1.74 C
3016 06-03-2011 03:30:05 0 C 87 % -1.9 C
3017 06-03-2011 03:42:05 0 C 87 % -1.9 C
3018 06-03-2011 03:54:05 0 C 87 % -1.9 C
3019 06-03-2011 04:06:05 0.1 C 86 % -1.96 C
3020 06-03-2011 04:18:05 0.1 C 85 % -2.11 C
3021 06-03-2011 04:30:05 0.1 C 83 % -2.44 C
3022 06-03-2011 04:42:05 -0.3 C 80 % -3.32 C
3023 06-03-2011 04:54:05 -0.4 C 78 % -3.76 C
3024 06-03-2011 05:06:05 -0.1 C 75 % -3.99 C
3025 06-03-2011 05:18:05 -1.6 C 74 % -5.62 C
Sensor: Nr:Datum:Temp:Feuchte:Taupunkt:
Aussen-T/F 3026 06-03-2011 05:30:05 -1.7 C 76 % -5.36 C
3027 06-03-2011 05:42:05 -2.1 C 77 % -5.58 C
3028 06-03-2011 05:54:05 -2.1 C 78 % -5.41 C
3029 06-03-2011 06:06:05 -2.8 C 79 % -5.93 C
3030 06-03-2011 06:18:05 -3 C 80 % -5.96 C
3031 06-03-2011 06:30:05 -2.8 C 81 % -5.6 C
3032 06-03-2011 06:42:05 -3 C 82 % -5.63 C
3033 06-03-2011 06:54:05 -2.5 C 83 % -4.98 C
3034 06-03-2011 07:06:05 -1.9 C 83 % -4.4 C
3035 06-03-2011 07:18:05 -1.6 C 81 % -4.43 C
3036 06-03-2011 07:30:06 -1.6 C 79 % -4.76 C
3037 06-03-2011 07:42:06 -2.3 C 78 % -5.61 C
3038 06-03-2011 07:54:06 -2.3 C 78 % -5.61 C
3039 06-03-2011 08:06:04 -1.5 C 79 % -4.66 C
3040 06-03-2011 08:18:03 -0.9 C 77 % -4.42 C
3041 06-03-2011 08:30:03 -0.2 C 74 % -4.26 C
3042 06-03-2011 08:42:04 0.2 C 71 % -4.42 C
3043 06-03-2011 08:54:02 0.7 C 67 % -4.71 C
3044 06-03-2011 09:06:02 1.1 C 63 % -5.14 C
3045 06-03-2011 09:18:02 1.1 C 61 % -5.56 C
3046 06-03-2011 09:30:02 0.8 C 61 % -5.85 C
3047 06-03-2011 09:42:02 1.4 C 59 % -5.72 C
3048 06-03-2011 09:54:01 1.8 C 53 % -6.74 C
3049 06-03-2011 10:06:02 2.1 C 51 % -6.96 C
3050 06-03-2011 10:18:01 2.6 C 49 % -7.02 C
Sensor: Nr:Datum:Temp:Feuchte:Taupunkt:
Aussen-T/F 3051 06-03-2011 10:30:01 2 C 49 % -7.57 C
3052 06-03-2011 10:42:01 1.7 C 53 % -6.83 C
3053 06-03-2011 10:54:01 2.3 C 49 % -7.29 C
3054 06-03-2011 11:06:02 2.7 C 47 % -7.46 C
3055 06-03-2011 11:18:01 3.1 C 45 % -7.66 C
3056 06-03-2011 11:30:01 4.3 C 42 % -7.46 C
3057 06-03-2011 11:42:01 4.6 C 41 % -7.49 C
3058 06-03-2011 11:54:01 4.1 C 40 % -8.26 C
3059 06-03-2011 12:06:01 4.6 C 40 % -7.81 C
3060 06-03-2011 12:18:02 3.8 C 41 % -8.22 C
3061 06-03-2011 12:30:02 5 C 40 % -7.45 C
3062 06-03-2011 12:42:01 7.2 C 33 % -7.97 C
3063 06-03-2011 12:54:02 5.7 C 34 % -8.91 C
3064 06-03-2011 13:06:01 7.8 C 30 % -8.66 C
3065 06-03-2011 13:18:01 5.6 C 32 % -9.77 C
3066 06-03-2011 13:30:01 5.5 C 35 % -8.72 C
3067 06-03-2011 13:42:01 4.9 C 37 % -8.54 C
3068 06-03-2011 13:54:02 5.8 C 34 % -8.82 C
3069 06-03-2011 14:06:02 5.8 C 33 % -9.2 C
3070 06-03-2011 14:18:02 6.9 C 31 % -9.03 C
3071 06-03-2011 14:30:02 6.5 C 30 % -9.8 C
3072 06-03-2011 14:42:01 7 C 28 % -10.23 C
3073 06-03-2011 14:54:02 7.1 C 30 % -9.27 C
3074 06-03-2011 15:06:01 8 C 28 % -9.37 C
3075 06-03-2011 15:18:01 8 C 28 % -9.37 C
Sensor: Nr:Datum:Temp:Feuchte:Taupunkt:
Aussen-T/F 3076 06-03-2011 15:30:01 9.2 C 25 % -9.77 C
3077 06-03-2011 15:42:02 8.9 C 21 % -12.2 C
3078 06-03-2011 15:54:02 11.4 C 20 % -10.73 C
3079 06-03-2011 16:06:02 12.6 C 20 % -9.73 C
3080 06-03-2011 16:18:02 12.6 C 20 % -9.73 C
3081 06-03-2011 16:30:02 13.2 C 20 % -9.24 C
3082 06-03-2011 16:42:02 12.3 C 20 % -9.98 C
3083 06-03-2011 16:54:02 12.6 C 20 % -9.73 C
3084 06-03-2011 17:06:02 11.1 C 20 % -10.98 C
3085 06-03-2011 17:18:02 10.5 C 20 % -11.48 C
3086 06-03-2011 17:30:02 8.6 C 25 % -10.28 C
3087 06-03-2011 17:42:02 7.9 C 33 % -7.35 C
3088 06-03-2011 17:54:01 6.2 C 37 % -7.38 C
3089 06-03-2011 18:06:01 4.3 C 42 % -7.46 C
3090 06-03-2011 18:18:02 2.5 C 50 % -6.85 C
3091 06-03-2011 18:30:02 1.5 C 55 % -6.54 C
3092 06-03-2011 18:42:01 1.2 C 56 % -6.59 C
3093 06-03-2011 18:54:02 0.6 C 59 % -6.47 C
3094 06-03-2011 19:06:02 0.4 C 60 % -6.44 C
3095 06-03-2011 19:18:03 0.2 C 62 % -6.2 C
3096 06-03-2011 19:30:03 0 C 63 % -6.18 C
3097 06-03-2011 19:42:02 -0.2 C 63 % -6.38 C
3098 06-03-2011 19:54:02 -0.2 C 63 % -6.38 C
3099 06-03-2011 20:06:02 -0.2 C 63 % -6.38 C
3100 06-03-2011 20:18:02 -0.5 C 65 % -6.26 C
Sensor: Nr:Datum:Temp:Feuchte:Taupunkt:
Aussen-T/F 3101 06-03-2011 20:30:03 -0.5 C 65 % -6.26 C
3102 06-03-2011 20:42:02 -0.5 C 65 % -6.26 C
3103 06-03-2011 20:54:02 -0.9 C 65 % -6.64 C
3104 06-03-2011 21:06:01 -0.9 C 66 % -6.44 C
3105 06-03-2011 21:18:02 -1 C 65 % -6.74 C
3106 06-03-2011 21:30:02 -1.1 C 66 % -6.63 C
3107 06-03-2011 21:42:02 -1.3 C 66 % -6.82 C
3108 06-03-2011 21:55:03 -1.2 C 66 % -6.73 C
3109 06-03-2011 22:07:03 -1.3 C 65 % -7.02 C
3110 06-03-2011 22:19:03 -1.6 C 66 % -7.11 C
3111 06-03-2011 22:31:03 -1.6 C 67 % -6.91 C
3112 06-03-2011 22:43:03 -1.8 C 67 % -7.11 C
3113 06-03-2011 22:55:03 -1.7 C 67 % -7.01 C
3114 06-03-2011 23:07:03 -2.1 C 67 % -7.39 C
3115 06-03-2011 23:19:03 -2 C 66 % -7.49 C
3116 06-03-2011 23:31:03 -2.1 C 66 % -7.59 C
3117 06-03-2011 23:43:03 -2.2 C 65 % -7.88 C
3118 06-03-2011 23:55:03 -2.1 C 65 % -7.78 C
3119 07-03-2011 00:07:03 -2.2 C 66 % -7.68 C
3120 07-03-2011 00:19:03 -2.3 C 66 % -7.78 C
3121 07-03-2011 00:31:03 -2.3 C 66 % -7.78 C
3122 07-03-2011 00:43:03 -2.5 C 66 % -7.97 C
3123 07-03-2011 00:55:03 -2.8 C 66 % -8.26 C
3124 07-03-2011 01:07:03 -2.9 C 68 % -7.97 C
3125 07-03-2011 01:19:03 -2.7 C 69 % -7.59 C
Sensor: Nr:Datum:Temp:Feuchte:Taupunkt:
Aussen-T/F 3126 07-03-2011 01:31:03 -3.1 C 68 % -8.16 C
3127 07-03-2011 01:43:03 -3.3 C 69 % -8.16 C
3128 07-03-2011 01:55:03 -3.1 C 69 % -7.97 C
3129 07-03-2011 02:07:04 -3.4 C 69 % -8.26 C
3130 07-03-2011 02:19:04 -3.6 C 69 % -8.45 C
3131 07-03-2011 02:31:04 -3.6 C 70 % -8.27 C
3132 07-03-2011 02:43:04 -3.7 C 70 % -8.36 C
3133 07-03-2011 02:55:04 -3.8 C 70 % -8.46 C
3134 07-03-2011 03:07:04 -4.1 C 71 % -8.57 C
3135 07-03-2011 03:19:04 -4.1 C 71 % -8.57 C
3136 07-03-2011 03:31:04 -4.1 C 71 % -8.57 C
3137 07-03-2011 03:43:04 -4.3 C 71 % -8.76 C
3138 07-03-2011 03:55:04 -4.3 C 71 % -8.76 C
3139 07-03-2011 04:07:04 -4.4 C 71 % -8.85 C
3140 07-03-2011 04:19:04 -4.4 C 72 % -8.68 C
3141 07-03-2011 04:31:04 -4.6 C 72 % -8.87 C
3142 07-03-2011 04:43:04 -4.8 C 72 % -9.06 C
3143 07-03-2011 04:55:04 -5 C 72 % -9.25 C
3144 07-03-2011 05:07:04 -4.8 C 72 % -9.06 C
3145 07-03-2011 05:19:04 -4.5 C 72 % -8.77 C
3146 07-03-2011 05:31:04 -4.6 C 72 % -8.87 C
3147 07-03-2011 05:43:04 -4.7 C 71 % -9.14 C
3148 07-03-2011 05:55:04 -4.6 C 71 % -9.05 C
3149 07-03-2011 06:07:05 -4.6 C 70 % -9.23 C
3150 07-03-2011 06:19:05 -4.6 C 71 % -9.05 C
Sensor: Nr:Datum:Temp:Feuchte:Taupunkt:
Aussen-T/F 3151 07-03-2011 06:31:05 -4.7 C 70 % -9.32 C
3152 07-03-2011 06:43:05 -4.5 C 69 % -9.31 C
3153 07-03-2011 06:55:05 -4.6 C 68 % -9.6 C
3154 07-03-2011 07:07:05 -4.7 C 69 % -9.51 C
3155 07-03-2011 07:19:05 -4.6 C 68 % -9.6 C
3156 07-03-2011 07:31:05 -4.7 C 68 % -9.69 C
3157 07-03-2011 07:43:05 -4.7 C 68 % -9.69 C
3158 07-03-2011 07:55:05 -4.4 C 68 % -9.4 C
3159 07-03-2011 08:07:05 -3.9 C 65 % -9.5 C
3160 07-03-2011 08:19:05 -4 C 63 % -9.99 C
3161 07-03-2011 08:31:05 -4 C 64 % -9.79 C
3162 07-03-2011 08:43:05 -3.5 C 62 % -9.72 C
3163 07-03-2011 08:55:05 -3.4 C 61 % -9.83 C
3164 07-03-2011 09:07:04 -3.3 C 61 % -9.73 C
3165 07-03-2011 09:19:03 -3.5 C 60 % -10.13 C
3166 07-03-2011 09:31:03 -2.9 C 61 % -9.36 C
3167 07-03-2011 09:43:03 -2.6 C 60 % -9.28 C
3168 07-03-2011 09:55:01 -2.3 C 59 % -9.21 C
3169 07-03-2011 10:07:02 -1.1 C 57 % -8.52 C
3170 07-03-2011 10:19:01 0.1 C 49 % -9.32 C
3171 07-03-2011 10:31:02 1.3 C 39 % -11.1 C
3172 07-03-2011 10:43:02 2.1 C 30 % -13.63 C
3173 07-03-2011 10:55:01 2.8 C 26 % -14.76 C
3174 07-03-2011 11:07:02 3.6 C 20 % -17.22 C
3175 07-03-2011 11:19:01 4 C 20 % -16.89 C
Sensor: Nr:Datum:Temp:Feuchte:Taupunkt:
Aussen-T/F 3176 07-03-2011 11:31:01 4.3 C 20 % -16.64 C
3177 07-03-2011 11:43:01 4.9 C 20 % -16.14 C
3178 07-03-2011 11:55:01 4.6 C 20 % -16.39 C
3179 07-03-2011 12:07:02 5.1 C 20 % -15.97 C
3180 07-03-2011 12:19:02 6 C 20 % -15.22 C
3181 07-03-2011 12:31:01 8.3 C 20 % -13.31 C
3182 07-03-2011 12:43:01 9.6 C 20 % -12.22 C
3183 07-03-2011 12:55:02 9.7 C 20 % -12.14 C
3184 07-03-2011 13:07:01 9.8 C 20 % -12.06 C
3185 07-03-2011 13:19:01 9.3 C 20 % -12.47 C
3186 07-03-2011 13:31:01 8 C 20 % -13.56 C
3187 07-03-2011 13:43:01 7.1 C 20 % -14.3 C
3188 07-03-2011 13:55:02 7.3 C 20 % -14.14 C
3189 07-03-2011 14:07:02 7.5 C 20 % -13.97 C
3190 07-03-2011 14:19:02 8.7 C 20 % -12.97 C
3191 07-03-2011 14:31:02 8.4 C 20 % -13.22 C
3192 07-03-2011 14:43:02 8.7 C 20 % -12.97 C
3193 07-03-2011 14:55:02 8.5 C 20 % -13.14 C
3194 07-03-2011 15:07:01 9.5 C 20 % -12.31 C
3195 07-03-2011 15:19:02 10.5 C 20 % -11.48 C
3196 07-03-2011 15:31:01 10.2 C 20 % -11.73 C
3197 07-03-2011 15:43:01 11.1 C 20 % -10.98 C
3198 07-03-2011 15:55:02 13.7 C 20 % -8.82 C
3199 07-03-2011 16:07:02 13.3 C 20 % -9.15 C
3200 07-03-2011 16:19:02 14.6 C 20 % -8.08 C
Sensor: Nr:Datum:Temp:Feuchte:Taupunkt:
Aussen-T/F 3201 07-03-2011 16:31:02 14.3 C 20 % -8.33 C
3202 07-03-2011 16:43:02 12 C 20 % -10.23 C
3203 07-03-2011 16:55:02 14 C 20 % -8.57 C
3204 07-03-2011 17:07:01 12.9 C 20 % -9.49 C
3205 07-03-2011 17:19:01 11.8 C 20 % -10.4 C
3206 07-03-2011 17:31:02 10.4 C 20 % -11.56 C
3207 07-03-2011 17:43:02 9.6 C 20 % -12.22 C
3208 07-03-2011 17:55:02 7.4 C 20 % -14.05 C
3209 07-03-2011 18:07:02 5.6 C 20 % -15.55 C
3210 07-03-2011 18:19:02 2.7 C 32 % -12.31 C
3211 07-03-2011 18:31:02 1.9 C 37 % -11.22 C
3212 07-03-2011 18:43:02 1.3 C 41 % -10.47 C
3213 07-03-2011 18:55:02 0.7 C 41 % -11.02 C
3214 07-03-2011 19:07:02 0.9 C 43 % -10.24 C
3215 07-03-2011 19:19:02 0.6 C 43 % -10.51 C
3216 07-03-2011 19:31:02 0.3 C 45 % -10.21 C
3217 07-03-2011 19:43:02 0.2 C 43 % -10.87 C
3218 07-03-2011 19:55:02 0 C 45 % -10.49 C
3219 07-03-2011 20:07:02 -0.5 C 46 % -10.69 C
3220 07-03-2011 20:19:01 -0.5 C 46 % -10.69 C
3221 07-03-2011 20:31:02 -0.4 C 45 % -10.87 C
3222 07-03-2011 20:43:02 -0.5 C 45 % -10.96 C
3223 07-03-2011 20:55:01 -0.3 C 47 % -10.23 C
3224 07-03-2011 21:07:02 -0.2 C 45 % -10.69 C
3225 07-03-2011 21:20:03 -0.4 C 46 % -10.59 C
Sensor: Nr:Datum:Temp:Feuchte:Taupunkt:
Aussen-T/F 3226 07-03-2011 21:32:03 -0.4 C 45 % -10.87 C
3227 07-03-2011 21:44:03 -0.5 C 46 % -10.69 C
3228 07-03-2011 21:56:03 -0.4 C 45 % -10.87 C
3229 07-03-2011 22:08:03 -1.2 C 47 % -11.06 C
3230 07-03-2011 22:20:03 -1.2 C 48 % -10.79 C
3231 07-03-2011 22:32:03 -1.4 C 48 % -10.98 C
3232 07-03-2011 22:44:03 -1.3 C 48 % -10.89 C
3233 07-03-2011 22:56:03 -1.3 C 48 % -10.89 C
3234 07-03-2011 23:08:03 -1.6 C 50 % -10.65 C
3235 07-03-2011 23:20:03 -1.2 C 47 % -11.06 C
3236 07-03-2011 23:32:03 -1.8 C 50 % -10.84 C
3237 07-03-2011 23:44:03 -2.2 C 50 % -11.21 C
3238 07-03-2011 23:56:03 -1.9 C 52 % -10.44 C
3239 08-03-2011 00:08:03 -2.7 C 52 % -11.18 C
3240 08-03-2011 00:20:03 -3.1 C 55 % -10.85 C
3241 08-03-2011 00:32:04 -3.4 C 57 % -10.68 C
3242 08-03-2011 00:44:04 -3.7 C 55 % -11.41 C
3243 08-03-2011 00:56:04 -4.2 C 55 % -11.88 C
3244 08-03-2011 01:08:04 -4.6 C 56 % -12.03 C
3245 08-03-2011 01:20:04 -4.4 C 58 % -11.41 C
3246 08-03-2011 01:32:04 -4.1 C 61 % -10.49 C
3247 08-03-2011 01:44:04 -4.2 C 60 % -10.79 C
3248 08-03-2011 01:56:04 -4.7 C 60 % -11.27 C
3249 08-03-2011 02:08:04 -4.8 C 58 % -11.78 C
3250 08-03-2011 02:20:04 -4.8 C 59 % -11.57 C
Sensor: Nr:Datum:Temp:Feuchte:Taupunkt:
Aussen-T/F 3251 08-03-2011 02:32:04 -5.1 C 59 % -11.85 C
3252 08-03-2011 02:44:04 -5.2 C 60 % -11.74 C
3253 08-03-2011 02:56:04 -5.3 C 60 % -11.83 C
3254 08-03-2011 03:08:04 -5.1 C 61 % -11.44 C
3255 08-03-2011 03:20:04 -5.8 C 62 % -11.9 C
3256 08-03-2011 03:32:04 -6.1 C 63 % -11.99 C
3257 08-03-2011 03:44:04 -6.3 C 63 % -12.18 C
3258 08-03-2011 03:56:04 -6.2 C 65 % -11.69 C
3259 08-03-2011 04:08:04 -6.3 C 66 % -11.6 C
3260 08-03-2011 04:20:04 -6.3 C 67 % -11.41 C
3261 08-03-2011 04:32:05 -6.3 C 67 % -11.41 C
3262 08-03-2011 04:44:05 -6.2 C 67 % -11.31 C
3263 08-03-2011 04:56:05 -6.1 C 66 % -11.41 C
3264 08-03-2011 05:08:05 -6 C 63 % -11.89 C
3265 08-03-2011 05:20:05 -5.2 C 63 % -11.13 C
3266 08-03-2011 05:32:05 -6 C 63 % -11.89 C
3267 08-03-2011 05:44:05 -6.3 C 64 % -11.98 C
3268 08-03-2011 05:56:05 -5.3 C 64 % -11.03 C
3269 08-03-2011 06:08:05 -6 C 62 % -12.09 C
3270 08-03-2011 06:20:05 -6 C 63 % -11.89 C
3271 08-03-2011 06:32:05 -6.3 C 64 % -11.98 C
3272 08-03-2011 06:44:05 -6.7 C 65 % -12.17 C
3273 08-03-2011 06:56:05 -6.8 C 66 % -12.08 C
3274 08-03-2011 07:08:05 -6.9 C 66 % -12.17 C
3275 08-03-2011 07:20:05 -6 C 67 % -11.12 C
Sensor: Nr:Datum:Temp:Feuchte:Taupunkt:
Aussen-T/F 3276 08-03-2011 07:32:02 -6.1 C 66 % -11.41 C
3277 08-03-2011 07:44:02 -5.5 C 67 % -10.64 C
3278 08-03-2011 07:56:02 -5.4 C 65 % -10.93 C
3279 08-03-2011 08:08:02 -5.5 C 65 % -11.02 C
3280 08-03-2011 08:20:02 -5.3 C 65 % -10.83 C
3281 08-03-2011 08:32:02 -5.2 C 65 % -10.74 C
3282 08-03-2011 08:44:02 -4.8 C 65 % -10.36 C
3283 08-03-2011 08:56:02 -4.6 C 65 % -10.17 C
3284 08-03-2011 09:08:01 -4.4 C 62 % -10.57 C
3285 08-03-2011 09:20:01 -4.1 C 61 % -10.49 C
3286 08-03-2011 09:32:02 -3.7 C 63 % -9.71 C
3287 08-03-2011 09:44:02 -3.1 C 63 % -9.14 C
3288 08-03-2011 09:56:02 -2.5 C 61 % -8.98 C
3289 08-03-2011 10:08:02 -1.7 C 57 % -9.09 C
3290 08-03-2011 10:20:02 -0.2 C 55 % -8.14 C
3291 08-03-2011 10:32:01 0.3 C 49 % -9.14 C
3292 08-03-2011 10:44:01 0.9 C 47 % -9.11 C
3293 08-03-2011 10:56:01 2.4 C 40 % -9.79 C
3294 08-03-2011 11:08:01 3.2 C 42 % -8.45 C
3295 08-03-2011 11:20:01 3.2 C 39 % -9.39 C
3296 08-03-2011 11:32:01 4.1 C 34 % -10.32 C
3297 08-03-2011 11:44:01 6.4 C 31 % -9.47 C
3298 08-03-2011 11:56:02 5.6 C 32 % -9.77 C
3299 08-03-2011 12:08:02 6.1 C 27 % -11.46 C
3300 08-03-2011 12:20:01 7.1 C 28 % -10.15 C
Sensor: Nr:Datum:Temp:Feuchte:Taupunkt:
Aussen-T/F 3301 08-03-2011 12:32:01 9.2 C 20 % -12.56 C
3302 08-03-2011 12:44:01 10.8 C 20 % -11.23 C
3303 08-03-2011 12:56:01 12.2 C 20 % -10.07 C
3304 08-03-2011 13:08:02 11.1 C 20 % -10.98 C
3305 08-03-2011 13:20:01 11.4 C 20 % -10.73 C
3306 08-03-2011 13:32:01 11.1 C 20 % -10.98 C
3307 08-03-2011 13:44:01 10 C 20 % -11.89 C
3308 08-03-2011 13:56:01 10.5 C 21 % -10.87 C
3309 08-03-2011 14:08:01 11.8 C 23 % -8.63 C
3310 08-03-2011 14:20:02 11.7 C 20 % -10.48 C
3311 08-03-2011 14:32:01 12.3 C 20 % -9.98 C
3312 08-03-2011 14:44:01 12.9 C 20 % -9.49 C
3313 08-03-2011 14:56:02 12.7 C 25 % -6.79 C
3314 08-03-2011 15:08:02 12.9 C 23 % -7.7 C
3315 08-03-2011 15:20:02 13.9 C 21 % -8.03 C
3316 08-03-2011 15:32:02 13.6 C 20 % -8.91 C
3317 08-03-2011 15:44:02 14.2 C 20 % -8.41 C
3318 08-03-2011 15:56:02 15.2 C 20 % -7.58 C
3319 08-03-2011 16:08:01 15.7 C 20 % -7.17 C
3320 08-03-2011 16:20:02 14.6 C 20 % -8.08 C
3321 08-03-2011 16:32:02 14.9 C 20 % -7.83 C
3322 08-03-2011 16:44:02 15.2 C 20 % -7.58 C
3323 08-03-2011 16:56:02 14.8 C 20 % -7.91 C
3324 08-03-2011 17:08:02 13.9 C 24 % -6.31 C
3325 08-03-2011 17:20:02 13.1 C 25 % -6.45 C
Sensor: Nr:Datum:Temp:Feuchte:Taupunkt:
Aussen-T/F 3326 08-03-2011 17:32:02 12.2 C 28 % -5.75 C
3327 08-03-2011 17:44:02 10.3 C 34 % -4.85 C
3328 08-03-2011 17:56:01 10.3 C 34 % -4.85 C
3329 08-03-2011 18:08:02 10.3 C 34 % -4.85 C
3330 08-03-2011 18:20:01 6.9 C 46 % -3.9 C
3331 08-03-2011 18:32:02 6.2 C 49 % -3.7 C
3332 08-03-2011 18:44:02 6.2 C 49 % -3.7 C
3333 08-03-2011 18:56:02 6.2 C 49 % -3.7 C
3334 08-03-2011 19:08:02 6.2 C 49 % -3.7 C
3335 08-03-2011 19:20:01 6.2 C 49 % -3.7 C
3336 08-03-2011 19:32:02 6.2 C 49 % -3.7 C
3337 08-03-2011 19:44:02 4.6 C 62 % -2.04 C
3338 08-03-2011 19:56:01 4.2 C 64 % -1.99 C
3339 08-03-2011 20:08:02 3.8 C 67 % -1.75 C
3340 08-03-2011 20:20:02 3.5 C 69 % -1.64 C
3341 08-03-2011 20:32:02 3.5 C 71 % -1.25 C
3342 08-03-2011 20:44:02 2.9 C 73 % -1.45 C
3343 08-03-2011 20:56:02 2.8 C 74 % -1.36 C
3344 08-03-2011 21:08:01 2.2 C 73 % -2.13 C
3345 08-03-2011 21:21:04 1.8 C 75 % -2.15 C
3346 08-03-2011 21:33:04 1.9 C 77 % -1.69 C
3347 08-03-2011 21:45:04 1.8 C 79 % -1.44 C
3348 08-03-2011 21:57:04 1.8 C 80 % -1.27 C
3349 08-03-2011 22:09:04 1.3 C 80 % -1.76 C
3350 08-03-2011 22:21:04 1.6 C 81 % -1.3 C
Sensor: Nr:Datum:Temp:Feuchte:Taupunkt:
Aussen-T/F 3351 08-03-2011 22:33:04 1.6 C 82 % -1.13 C
3352 08-03-2011 22:45:05 1.3 C 82 % -1.43 C
3353 08-03-2011 22:57:05 1 C 82 % -1.72 C
3354 08-03-2011 23:09:05 1.1 C 83 % -1.46 C
3355 08-03-2011 23:21:05 1 C 83 % -1.55 C
3356 08-03-2011 23:33:05 1.1 C 84 % -1.29 C
3357 08-03-2011 23:45:05 0.5 C 84 % -1.88 C
3358 08-03-2011 23:57:05 0.2 C 84 % -2.18 C
3359 09-03-2011 00:09:05 0 C 85 % -2.21 C
3360 09-03-2011 00:21:05 -0.4 C 85 % -2.61 C
3361 09-03-2011 00:33:05 -0.6 C 85 % -2.8 C
3362 09-03-2011 00:45:05 -0.7 C 85 % -2.9 C
3363 09-03-2011 00:57:05 -0.6 C 86 % -2.65 C
3364 09-03-2011 01:09:05 -0.5 C 87 % -2.39 C
3365 09-03-2011 01:21:05 -0.4 C 87 % -2.29 C
3366 09-03-2011 01:33:05 -0.7 C 87 % -2.59 C
3367 09-03-2011 01:45:05 -0.9 C 87 % -2.79 C
3368 09-03-2011 01:57:05 -0.9 C 87 % -2.79 C
3369 09-03-2011 02:09:05 0 C 88 % -1.74 C
3370 09-03-2011 02:21:05 1.6 C 89 % -0.01 C
3371 09-03-2011 02:33:05 0.4 C 89 % -1.2 C
3372 09-03-2011 02:45:06 0.2 C 89 % -1.39 C
3373 09-03-2011 02:57:06 1.5 C 89 % -0.11 C
3374 09-03-2011 03:09:06 2.3 C 89 % 0.68 C
3375 09-03-2011 03:21:06 2.3 C 88 % 0.52 C
Sensor: Nr:Datum:Temp:Feuchte:Taupunkt:
Aussen-T/F 3376 09-03-2011 03:33:06 2.9 C 86 % 0.8 C
3377 09-03-2011 03:45:06 2.7 C 83 % 0.11 C
3378 09-03-2011 03:57:06 3.7 C 79 % 0.4 C
3379 09-03-2011 04:09:06 3.5 C 74 % -0.69 C
3380 09-03-2011 04:21:06 3.1 C 73 % -1.26 C
3381 09-03-2011 04:33:06 3.1 C 74 % -1.07 C
3382 09-03-2011 04:45:06 3.6 C 74 % -0.59 C
3383 09-03-2011 04:57:06 3 C 74 % -1.17 C
3384 09-03-2011 05:09:06 2.6 C 76 % -1.19 C
3385 09-03-2011 05:21:06 3.1 C 75 % -0.89 C
3386 09-03-2011 05:33:06 2.5 C 75 % -1.47 C
3387 09-03-2011 05:45:06 2.4 C 77 % -1.21 C
3388 09-03-2011 05:57:06 1.6 C 79 % -1.64 C
3389 09-03-2011 06:09:06 2.2 C 81 % -0.71 C
3390 09-03-2011 06:21:06 2.1 C 79 % -1.15 C
3391 09-03-2011 06:33:06 2.6 C 78 % -0.84 C
3392 09-03-2011 06:45:06 2.7 C 76 % -1.1 C
3393 09-03-2011 06:57:07 2.2 C 77 % -1.4 C
3394 09-03-2011 07:09:07 2.5 C 77 % -1.11 C
3395 09-03-2011 07:21:03 2.8 C 77 % -0.82 C
3396 09-03-2011 07:33:03 3 C 74 % -1.17 C
3397 09-03-2011 07:45:01 3.3 C 73 % -1.06 C
3398 09-03-2011 07:57:01 3.4 C 72 % -1.16 C
3399 09-03-2011 08:09:01 2.7 C 74 % -1.46 C
3400 09-03-2011 08:21:01 2.8 C 74 % -1.36 C
Sensor: Nr:Datum:Temp:Feuchte:Taupunkt:
Aussen-T/F 3401 09-03-2011 08:33:02 3.6 C 73 % -0.78 C
3402 09-03-2011 08:45:01 4.5 C 69 % -0.68 C
3403 09-03-2011 08:57:01 5.2 C 64 % -1.04 C
3404 09-03-2011 09:09:02 6.4 C 60 % -0.78 C
3405 09-03-2011 09:21:01 7.8 C 53 % -1.17 C
3406 09-03-2011 09:33:02 8.2 C 49 % -1.86 C
3407 09-03-2011 09:45:01 8.5 C 48 % -1.86 C
3408 09-03-2011 09:57:01 8.9 C 47 % -1.78 C
3409 09-03-2011 10:09:02 9 C 46 % -1.98 C
3410 09-03-2011 10:21:02 9.2 C 46 % -1.8 C
3411 09-03-2011 10:33:01 9 C 46 % -1.98 C
3412 09-03-2011 10:45:02 9.3 C 47 % -1.42 C
3413 09-03-2011 10:57:02 9.5 C 47 % -1.23 C
3414 09-03-2011 11:09:01 9.6 C 49 % -0.57 C
3415 09-03-2011 11:21:02 9.9 C 49 % -0.3 C
3416 09-03-2011 11:33:01 10.4 C 48 % -0.12 C
3417 09-03-2011 11:45:02 10.2 C 47 % -0.59 C
3418 09-03-2011 11:57:02 10 C 48 % -0.49 C
3419 09-03-2011 12:09:02 9.8 C 49 % -0.39 C
3420 09-03-2011 12:21:02 9.8 C 49 % -0.39 C
3421 09-03-2011 12:33:02 9.8 C 50 % -0.11 C
3422 09-03-2011 12:45:01 10.1 C 49 % -0.11 C
3423 09-03-2011 12:57:01 10.4 C 49 % 0.16 C
3424 09-03-2011 13:09:02 11.2 C 46 % 0.02 C
3425 09-03-2011 13:21:01 11 C 46 % -0.16 C
Sensor: Nr:Datum:Temp:Feuchte:Taupunkt:
Aussen-T/F 3426 09-03-2011 13:33:02 11.7 C 45 % 0.18 C
3427 09-03-2011 13:45:02 11.4 C 41 % -1.37 C
3428 09-03-2011 13:57:02 11.6 C 40 % -1.52 C
3429 09-03-2011 14:09:02 12.1 C 39 % -1.42 C
3430 09-03-2011 14:21:02 11.8 C 40 % -1.34 C
3431 09-03-2011 14:33:02 11.6 C 39 % -1.86 C
3432 09-03-2011 14:45:02 11.8 C 38 % -2.04 C
3433 09-03-2011 14:57:02 11.7 C 36 % -2.85 C
3434 09-03-2011 15:09:02 11.6 C 36 % -2.94 C
3435 09-03-2011 15:21:02 11.2 C 36 % -3.3 C
3436 09-03-2011 15:33:02 11.3 C 36 % -3.21 C
3437 09-03-2011 15:45:02 11.3 C 37 % -2.84 C
3438 09-03-2011 15:57:02 11.2 C 37 % -2.93 C
3439 09-03-2011 16:09:02 11.1 C 38 % -2.66 C
3440 09-03-2011 16:21:02 10.9 C 39 % -2.49 C
3441 09-03-2011 16:33:02 10.7 C 39 % -2.67 C
3442 09-03-2011 16:45:02 10.7 C 38 % -3.02 C
3443 09-03-2011 16:57:02 10.6 C 38 % -3.11 C
3444 09-03-2011 17:09:02 10.4 C 42 % -1.94 C
3445 09-03-2011 17:21:02 10.3 C 44 % -1.4 C
3446 09-03-2011 17:33:02 10.2 C 46 % -0.89 C
3447 09-03-2011 17:45:02 10 C 47 % -0.78 C
3448 09-03-2011 17:57:02 9.7 C 50 % -0.21 C
3449 09-03-2011 18:09:01 9.7 C 50 % -0.21 C
3450 09-03-2011 18:21:02 9.6 C 50 % -0.3 C
Sensor: Nr:Datum:Temp:Feuchte:Taupunkt:
Aussen-T/F 3451 09-03-2011 18:33:01 9.3 C 52 % -0.04 C
3452 09-03-2011 18:45:01 8.8 C 54 % 0.02 C
3453 09-03-2011 18:57:02 9 C 54 % 0.2 C
3454 09-03-2011 19:09:01 8.9 C 55 % 0.36 C
3455 09-03-2011 19:21:01 9.3 C 53 % 0.23 C
3456 09-03-2011 19:33:02 9 C 53 % -0.05 C
3457 09-03-2011 19:45:02 8.4 C 57 % 0.39 C
3458 09-03-2011 19:57:02 8.2 C 58 % 0.44 C
3459 09-03-2011 20:09:02 8.2 C 59 % 0.68 C
3460 09-03-2011 20:21:01 8.2 C 58 % 0.44 C
3461 09-03-2011 20:33:02 8 C 59 % 0.49 C
3462 09-03-2011 20:45:02 8.1 C 58 % 0.35 C
3463 09-03-2011 20:57:02 7.9 C 60 % 0.63 C
3464 09-03-2011 21:09:02 8 C 58 % 0.25 C
3465 09-03-2011 21:21:02 7.9 C 59 % 0.4 C
3466 09-03-2011 21:33:02 7.6 C 61 % 0.57 C
3467 09-03-2011 21:46:04 7.2 C 62 % 0.42 C
3468 09-03-2011 21:58:04 7.6 C 62 % 0.8 C
3469 09-03-2011 22:10:04 7.6 C 62 % 0.8 C
3470 09-03-2011 22:22:04 7.1 C 63 % 0.55 C
3471 09-03-2011 22:34:04 6.5 C 67 % 0.83 C
3472 09-03-2011 22:46:04 6 C 69 % 0.76 C
3473 09-03-2011 22:58:04 6 C 71 % 1.15 C
3474 09-03-2011 23:10:04 5.1 C 73 % 0.67 C
3475 09-03-2011 23:22:04 4.9 C 76 % 1.03 C
Sensor: Nr:Datum:Temp:Feuchte:Taupunkt:
Aussen-T/F 3476 09-03-2011 23:34:04 5 C 75 % 0.95 C
3477 09-03-2011 23:46:04 6 C 72 % 1.35 C
3478 09-03-2011 23:58:04 6 C 68 % 0.55 C
3479 10-03-2011 00:10:04 5.5 C 69 % 0.28 C
3480 10-03-2011 00:22:04 5.9 C 69 % 0.66 C
3481 10-03-2011 00:34:04 6.1 C 67 % 0.44 C
3482 10-03-2011 00:46:04 5.4 C 68 % -0.02 C
3483 10-03-2011 00:58:04 4.9 C 71 % 0.09 C
3484 10-03-2011 01:10:05 5.2 C 71 % 0.38 C
3485 10-03-2011 01:22:05 5.4 C 70 % 0.38 C
3486 10-03-2011 01:34:05 5.2 C 70 % 0.19 C
3487 10-03-2011 01:46:05 5.4 C 69 % 0.18 C
3488 10-03-2011 01:58:05 5.2 C 70 % 0.19 C
3489 10-03-2011 02:10:05 5.3 C 70 % 0.28 C
3490 10-03-2011 02:22:05 4.9 C 71 % 0.09 C
3491 10-03-2011 02:34:05 4 C 73 % -0.39 C
3492 10-03-2011 02:46:05 3.8 C 77 % 0.15 C
3493 10-03-2011 02:58:05 4.1 C 77 % 0.44 C
3494 10-03-2011 03:10:05 4.7 C 73 % 0.28 C
3495 10-03-2011 03:22:05 5.4 C 66 % -0.43 C
3496 10-03-2011 03:34:05 5.7 C 64 % -0.56 C
3497 10-03-2011 03:46:05 5.5 C 65 % -0.54 C
3498 10-03-2011 03:58:05 4.5 C 68 % -0.88 C
3499 10-03-2011 04:10:05 4.5 C 69 % -0.68 C
3500 10-03-2011 04:22:05 4 C 71 % -0.77 C
Sensor: Nr:Datum:Temp:Feuchte:Taupunkt:
Aussen-T/F 3501 10-03-2011 04:34:05 5.2 C 70 % 0.19 C
3502 10-03-2011 04:46:05 4.9 C 71 % 0.09 C
3503 10-03-2011 04:58:05 4.5 C 69 % -0.68 C
3504 10-03-2011 05:10:05 5 C 68 % -0.4 C
3505 10-03-2011 05:22:06 5.1 C 67 % -0.51 C
3506 10-03-2011 05:34:06 4.6 C 69 % -0.58 C
3507 10-03-2011 05:46:06 5 C 68 % -0.4 C
3508 10-03-2011 05:58:06 5 C 68 % -0.4 C
3509 10-03-2011 06:10:06 4.7 C 72 % 0.09 C
3510 10-03-2011 06:22:06 4.6 C 72 % 0 C
3511 10-03-2011 06:34:06 4.6 C 71 % -0.19 C
3512 10-03-2011 06:46:06 4.5 C 71 % -0.29 C
3513 10-03-2011 06:58:06 4.6 C 71 % -0.19 C
3514 10-03-2011 07:10:06 4.6 C 71 % -0.19 C
3515 10-03-2011 07:22:03 4.4 C 72 % -0.19 C
3516 10-03-2011 07:34:04 4.6 C 72 % 0 C
3517 10-03-2011 07:46:02 4.5 C 71 % -0.29 C
3518 10-03-2011 07:58:02 5.2 C 67 % -0.41 C
3519 10-03-2011 08:10:02 5.4 C 66 % -0.43 C
3520 10-03-2011 08:22:02 5.7 C 65 % -0.35 C
3521 10-03-2011 08:34:02 5.9 C 64 % -0.38 C
3522 10-03-2011 08:46:01 6.1 C 63 % -0.4 C
3523 10-03-2011 08:58:01 6.3 C 61 % -0.65 C
3524 10-03-2011 09:10:02 6.7 C 60 % -0.5 C
3525 10-03-2011 09:22:01 6.8 C 58 % -0.87 C
Sensor: Nr:Datum:Temp:Feuchte:Taupunkt:
Aussen-T/F 3526 10-03-2011 09:34:02 7 C 57 % -0.92 C
3527 10-03-2011 09:46:02 7 C 56 % -1.16 C
3528 10-03-2011 09:58:02 7.2 C 56 % -0.98 C
3529 10-03-2011 10:10:02 7.6 C 54 % -1.1 C
3530 10-03-2011 10:22:01 7.8 C 52 % -1.43 C
3531 10-03-2011 10:34:02 8.1 C 52 % -1.15 C
3532 10-03-2011 10:46:02 8.2 C 51 % -1.32 C
3533 10-03-2011 10:58:02 8.6 C 50 % -1.22 C
3534 10-03-2011 11:10:02 8.4 C 50 % -1.4 C
3535 10-03-2011 11:22:01 8.5 C 50 % -1.31 C
3536 10-03-2011 11:34:02 9 C 49 % -1.13 C
3537 10-03-2011 11:46:01 9.2 C 47 % -1.51 C
3538 10-03-2011 11:58:01 9.5 C 47 % -1.23 C
3539 10-03-2011 12:10:02 9.3 C 46 % -1.71 C
3540 10-03-2011 12:22:02 10 C 45 % -1.37 C
3541 10-03-2011 12:34:01 9.3 C 45 % -2.01 C
3542 10-03-2011 12:46:02 9.8 C 46 % -1.25 C
3543 10-03-2011 12:58:02 10 C 45 % -1.37 C
3544 10-03-2011 13:10:01 9.8 C 42 % -2.48 C
3545 10-03-2011 13:22:02 9.8 C 42 % -2.48 C
3546 10-03-2011 13:34:01 9.9 C 42 % -2.39 C
3547 10-03-2011 13:46:02 9.7 C 41 % -2.9 C
3548 10-03-2011 13:58:03 10.3 C 41 % -2.36 C
3549 10-03-2011 14:10:02 9.9 C 43 % -2.08 C
3550 10-03-2011 14:22:02 9 C 45 % -2.28 C
Sensor: Nr:Datum:Temp:Feuchte:Taupunkt:
Aussen-T/F 3551 10-03-2011 14:34:02 9.1 C 45 % -2.19 C
3552 10-03-2011 14:46:02 9.1 C 45 % -2.19 C
3553 10-03-2011 14:58:02 9 C 46 % -1.98 C
3554 10-03-2011 15:10:01 8.6 C 47 % -2.06 C
3555 10-03-2011 15:22:02 8.5 C 48 % -1.86 C
3556 10-03-2011 15:34:02 8.5 C 48 % -1.86 C
3557 10-03-2011 15:46:02 8.5 C 47 % -2.15 C
3558 10-03-2011 15:58:02 8.5 C 47 % -2.15 C
3559 10-03-2011 16:10:03 8.6 C 48 % -1.77 C
3560 10-03-2011 16:22:02 8.4 C 48 % -1.96 C
3561 10-03-2011 16:34:02 8.2 C 50 % -1.59 C
3562 10-03-2011 16:46:01 8.1 C 51 % -1.41 C
3563 10-03-2011 16:58:01 8.2 C 51 % -1.32 C
3564 10-03-2011 17:10:02 8.2 C 51 % -1.32 C
3565 10-03-2011 17:22:01 8.2 C 51 % -1.32 C
3566 10-03-2011 17:34:02 8.2 C 51 % -1.32 C
3567 10-03-2011 17:46:01 8.1 C 52 % -1.15 C
3568 10-03-2011 17:58:01 8.2 C 52 % -1.05 C
3569 10-03-2011 18:10:02 8.3 C 52 % -0.96 C
3570 10-03-2011 18:22:01 8.3 C 52 % -0.96 C
3571 10-03-2011 18:34:01 8.3 C 52 % -0.96 C
3572 10-03-2011 18:46:01 8.5 C 52 % -0.78 C
3573 10-03-2011 18:58:01 8.6 C 52 % -0.68 C
3574 10-03-2011 19:10:02 8.6 C 52 % -0.68 C
3575 10-03-2011 19:22:02 8.9 C 51 % -0.67 C
Sensor: Nr:Datum:Temp:Feuchte:Taupunkt:
Aussen-T/F 3576 10-03-2011 19:34:01 8.8 C 51 % -0.76 C
3577 10-03-2011 19:46:02 8.9 C 51 % -0.67 C
3578 10-03-2011 19:58:02 9 C 50 % -0.85 C
3579 10-03-2011 20:10:01 8.9 C 51 % -0.67 C
3580 10-03-2011 20:22:02 8.7 C 52 % -0.59 C
3581 10-03-2011 20:34:01 8.9 C 52 % -0.41 C
3582 10-03-2011 20:46:02 8.9 C 52 % -0.41 C
3583 10-03-2011 20:58:02 8.9 C 53 % -0.15 C
3584 10-03-2011 21:10:02 8.7 C 54 % -0.07 C
3585 10-03-2011 21:22:02 8.8 C 54 % 0.02 C
3586 10-03-2011 21:34:03 8.3 C 57 % 0.3 C
3587 10-03-2011 21:46:02 8.4 C 58 % 0.63 C
3588 10-03-2011 21:58:02 8.5 C 57 % 0.48 C
3589 10-03-2011 22:10:01 8.8 C 55 % 0.27 C
3590 10-03-2011 22:23:03 8.7 C 56 % 0.43 C
3591 10-03-2011 22:35:03 8.8 C 55 % 0.27 C
3592 10-03-2011 22:47:03 8.9 C 56 % 0.61 C
3593 10-03-2011 22:59:03 8.7 C 56 % 0.43 C
3594 10-03-2011 23:11:03 8.9 C 55 % 0.36 C
3595 10-03-2011 23:23:03 8.9 C 55 % 0.36 C
3596 10-03-2011 23:35:03 9 C 54 % 0.2 C
3597 10-03-2011 23:47:03 8.9 C 55 % 0.36 C
3598 10-03-2011 23:59:03 9 C 55 % 0.46 C
3599 11-03-2011 00:11:03 8.8 C 56 % 0.52 C
3600 11-03-2011 00:23:03 8.8 C 56 % 0.52 C
Sensor: Nr:Datum:Temp:Feuchte:Taupunkt:
Aussen-T/F 3601 11-03-2011 00:35:03 8.9 C 56 % 0.61 C
3602 11-03-2011 00:47:04 8.8 C 57 % 0.76 C
3603 11-03-2011 00:59:04 8.8 C 57 % 0.76 C
3604 11-03-2011 01:11:04 8.7 C 57 % 0.67 C
3605 11-03-2011 01:23:04 8.7 C 57 % 0.67 C
3606 11-03-2011 01:35:04 8.7 C 58 % 0.91 C
3607 11-03-2011 01:47:04 8.6 C 58 % 0.82 C
3608 11-03-2011 01:59:04 8.7 C 58 % 0.91 C
3609 11-03-2011 02:11:04 8.6 C 58 % 0.82 C
3610 11-03-2011 02:23:04 8.6 C 59 % 1.05 C
3611 11-03-2011 02:35:04 8.6 C 59 % 1.05 C
3612 11-03-2011 02:47:04 8.6 C 59 % 1.05 C
3613 11-03-2011 02:59:04 8.6 C 59 % 1.05 C
3614 11-03-2011 03:11:04 8.5 C 59 % 0.96 C
3615 11-03-2011 03:23:04 8.7 C 59 % 1.15 C
3616 11-03-2011 03:35:04 8.5 C 60 % 1.19 C
3617 11-03-2011 03:47:04 8.3 C 61 % 1.23 C
3618 11-03-2011 03:59:04 8.4 C 63 % 1.78 C
3619 11-03-2011 04:11:04 8.4 C 62 % 1.55 C
3620 11-03-2011 04:23:04 8.2 C 62 % 1.37 C
3621 11-03-2011 04:35:04 8.2 C 64 % 1.81 C
3622 11-03-2011 04:47:05 8.2 C 64 % 1.81 C
3623 11-03-2011 04:59:05 8.1 C 64 % 1.71 C
3624 11-03-2011 05:11:05 8.2 C 63 % 1.59 C
3625 11-03-2011 05:23:05 8.6 C 61 % 1.52 C
Sensor: Nr:Datum:Temp:Feuchte:Taupunkt:
Aussen-T/F 3626 11-03-2011 05:35:05 8.5 C 61 % 1.42 C
3627 11-03-2011 05:47:05 8.5 C 61 % 1.42 C
3628 11-03-2011 05:59:05 8.2 C 61 % 1.14 C
3629 11-03-2011 06:11:05 7.8 C 65 % 1.64 C
3630 11-03-2011 06:23:05 7.8 C 65 % 1.64 C
3631 11-03-2011 06:35:05 8.5 C 62 % 1.65 C
3632 11-03-2011 06:47:05 8.4 C 61 % 1.33 C
3633 11-03-2011 06:59:05 8.4 C 60 % 1.1 C
3634 11-03-2011 07:11:05 8.4 C 60 % 1.1 C
3635 11-03-2011 07:23:02 8.7 C 59 % 1.15 C
3636 11-03-2011 07:35:03 8.7 C 59 % 1.15 C
3637 11-03-2011 07:47:02 8.7 C 59 % 1.15 C
3638 11-03-2011 07:59:02 8.7 C 59 % 1.15 C
3639 11-03-2011 08:11:02 8.7 C 59 % 1.15 C
3640 11-03-2011 08:23:02 8.8 C 59 % 1.24 C
3641 11-03-2011 08:35:02 8.9 C 59 % 1.34 C
3642 11-03-2011 08:47:01 8.9 C 58 % 1.1 C
3643 11-03-2011 08:59:01 8.9 C 58 % 1.1 C
3644 11-03-2011 09:11:02 9.2 C 56 % 0.89 C
3645 11-03-2011 09:23:02 9.2 C 55 % 0.64 C
3646 11-03-2011 09:35:02 9.2 C 55 % 0.64 C
3647 11-03-2011 09:47:02 9.3 C 55 % 0.74 C
3648 11-03-2011 09:59:02 9.8 C 54 % 0.95 C
3649 11-03-2011 10:11:01 10.2 C 51 % 0.53 C
3650 11-03-2011 10:23:02 10.4 C 51 % 0.71 C
Sensor: Nr:Datum:Temp:Feuchte:Taupunkt:
Aussen-T/F 3651 11-03-2011 10:35:01 10.2 C 50 % 0.26 C
3652 11-03-2011 10:47:02 10.6 C 48 % 0.06 C
3653 11-03-2011 10:59:03 10.9 C 48 % 0.34 C
3654 11-03-2011 11:11:02 10.8 C 47 % -0.04 C
3655 11-03-2011 11:23:02 11.2 C 46 % 0.02 C
3656 11-03-2011 11:35:02 10.7 C 46 % -0.43 C
3657 11-03-2011 11:47:02 11 C 44 % -0.77 C
3658 11-03-2011 11:59:02 10.9 C 44 % -0.86 C
3659 11-03-2011 12:11:02 10.7 C 43 % -1.35 C
3660 11-03-2011 12:23:01 11.5 C 42 % -0.95 C
3661 11-03-2011 12:35:02 11.1 C 41 % -1.64 C
3662 11-03-2011 12:47:02 11.2 C 39 % -2.22 C
3663 11-03-2011 12:59:02 11.7 C 39 % -1.78 C
3664 11-03-2011 13:11:02 11.7 C 37 % -2.49 C
3665 11-03-2011 13:23:01 12 C 35 % -2.97 C
3666 11-03-2011 13:35:02 11.5 C 38 % -2.3 C
3667 11-03-2011 13:47:02 11.2 C 40 % -1.88 C
3668 11-03-2011 13:59:02 11.1 C 38 % -2.66 C
3669 11-03-2011 14:11:03 11.1 C 39 % -2.31 C
3670 11-03-2011 14:23:02 11.1 C 39 % -2.31 C
3671 11-03-2011 14:35:02 11.2 C 39 % -2.22 C
3672 11-03-2011 14:47:02 11.2 C 39 % -2.22 C
3673 11-03-2011 14:59:02 11.1 C 38 % -2.66 C
3674 11-03-2011 15:11:02 11.2 C 38 % -2.57 C
3675 11-03-2011 15:23:02 11.2 C 38 % -2.57 C
Sensor: Nr:Datum:Temp:Feuchte:Taupunkt:
Aussen-T/F 3676 11-03-2011 15:35:01 11.2 C 38 % -2.57 C
3677 11-03-2011 15:47:02 11.1 C 38 % -2.66 C
3678 11-03-2011 15:59:02 11 C 39 % -2.4 C
3679 11-03-2011 16:11:01 11 C 39 % -2.4 C
3680 11-03-2011 16:23:01 11.1 C 39 % -2.31 C
3681 11-03-2011 16:35:02 11.1 C 37 % -3.02 C
3682 11-03-2011 16:47:02 11.2 C 37 % -2.93 C
3683 11-03-2011 16:59:02 11.2 C 35 % -3.67 C
3684 11-03-2011 17:11:23 11 C 36 % -3.47 C
3685 11-03-2011 17:23:23 10.9 C 37 % -3.2 C
3686 11-03-2011 17:35:23 11 C 37 % -3.11 C
3687 11-03-2011 17:47:23 10.6 C 37 % -3.46 C
3688 11-03-2011 17:59:23 10.5 C 37 % -3.55 C
3689 11-03-2011 18:11:01 10.2 C 37 % -3.82 C
3690 11-03-2011 18:23:01 9.9 C 40 % -3.05 C
3691 11-03-2011 18:35:01 9.6 C 41 % -2.99 C
3692 11-03-2011 18:47:02 9.4 C 42 % -2.84 C
3693 11-03-2011 18:59:02 9.1 C 46 % -1.89 C
3694 11-03-2011 19:11:03 8.6 C 49 % -1.49 C
3695 11-03-2011 19:23:02 8.4 C 51 % -1.13 C
3696 11-03-2011 19:35:03 8.2 C 52 % -1.05 C
3697 11-03-2011 19:47:01 8 C 53 % -0.98 C
3698 11-03-2011 19:59:01 7.8 C 54 % -0.91 C
3699 11-03-2011 20:11:02 7.6 C 54 % -1.1 C
3700 11-03-2011 20:23:01 7.1 C 54 % -1.56 C
Sensor: Nr:Datum:Temp:Feuchte:Taupunkt:
Aussen-T/F 3701 11-03-2011 20:35:02 7 C 56 % -1.16 C
3702 11-03-2011 20:47:02 6.4 C 60 % -0.78 C
3703 11-03-2011 20:59:02 6 C 60 % -1.16 C
3704 11-03-2011 21:11:02 5.5 C 63 % -0.97 C
3705 11-03-2011 21:23:03 5 C 65 % -1.02 C
3706 11-03-2011 21:35:02 4.7 C 67 % -0.89 C
3707 11-03-2011 21:47:03 4.9 C 69 % -0.3 C
3708 11-03-2011 21:59:03 4.3 C 69 % -0.87 C
3709 11-03-2011 22:11:02 3.8 C 72 % -0.77 C
3710 11-03-2011 22:24:04 3.5 C 74 % -0.69 C
3711 11-03-2011 22:36:04 3.4 C 75 % -0.6 C
3712 11-03-2011 22:48:04 3.3 C 76 % -0.52 C
3713 11-03-2011 23:00:04 2.9 C 78 % -0.55 C
3714 11-03-2011 23:12:04 2.4 C 78 % -1.03 C
3715 11-03-2011 23:24:04 2.2 C 79 % -1.05 C
3716 11-03-2011 23:36:04 1.9 C 80 % -1.18 C
3717 11-03-2011 23:48:04 1.8 C 81 % -1.1 C
3718 12-03-2011 00:00:04 1.6 C 82 % -1.13 C
3719 12-03-2011 00:12:04 1.2 C 82 % -1.52 C
3720 12-03-2011 00:24:04 0.8 C 83 % -1.75 C
3721 12-03-2011 00:36:04 0.5 C 83 % -2.04 C
3722 12-03-2011 00:48:04 0.5 C 84 % -1.88 C
3723 12-03-2011 01:00:04 0.4 C 84 % -1.98 C
3724 12-03-2011 01:12:04 0.3 C 84 % -2.08 C
3725 12-03-2011 01:24:04 0.3 C 85 % -1.92 C
Sensor: Nr:Datum:Temp:Feuchte:Taupunkt:
Aussen-T/F 3726 12-03-2011 01:36:05 0.1 C 85 % -2.11 C
3727 12-03-2011 01:48:05 0 C 85 % -2.21 C
3728 12-03-2011 02:00:05 -0.2 C 86 % -2.25 C
3729 12-03-2011 02:12:05 -0.2 C 86 % -2.25 C
3730 12-03-2011 02:24:05 -0.3 C 86 % -2.35 C
3731 12-03-2011 02:36:05 -0.3 C 87 % -2.2 C
3732 12-03-2011 02:48:05 -0.6 C 87 % -2.49 C
3733 12-03-2011 03:00:05 -0.6 C 87 % -2.49 C
3734 12-03-2011 03:12:05 -0.7 C 87 % -2.59 C
3735 12-03-2011 03:24:05 -0.9 C 87 % -2.79 C
3736 12-03-2011 03:36:05 -1 C 87 % -2.88 C
3737 12-03-2011 03:48:05 -0.5 C 88 % -2.24 C
3738 12-03-2011 04:00:05 -1 C 87 % -2.88 C
3739 12-03-2011 04:12:05 -1.2 C 88 % -2.93 C
3740 12-03-2011 04:24:05 -1.3 C 88 % -3.03 C
3741 12-03-2011 04:36:05 -1.4 C 88 % -3.13 C
3742 12-03-2011 04:48:05 -1.3 C 88 % -3.03 C
3743 12-03-2011 05:00:05 -1.4 C 88 % -3.13 C
3744 12-03-2011 05:12:05 -1.5 C 88 % -3.22 C
3745 12-03-2011 05:24:05 -1.5 C 88 % -3.22 C
3746 12-03-2011 05:36:06 -1.8 C 88 % -3.52 C
3747 12-03-2011 05:48:06 -1.9 C 88 % -3.62 C
3748 12-03-2011 06:00:06 -2 C 88 % -3.72 C
3749 12-03-2011 06:12:06 -2 C 88 % -3.72 C
3750 12-03-2011 06:24:06 -2.1 C 88 % -3.82 C
Sensor: Nr:Datum:Temp:Feuchte:Taupunkt:
Aussen-T/F 3751 12-03-2011 06:36:06 -1.8 C 88 % -3.52 C
3752 12-03-2011 06:48:06 -1.9 C 89 % -3.47 C
3753 12-03-2011 07:00:06 -2.2 C 89 % -3.76 C
3754 12-03-2011 07:12:06 -2.3 C 89 % -3.86 C
3755 12-03-2011 07:24:06 -2 C 89 % -3.57 C
3756 12-03-2011 07:36:04 -1.9 C 89 % -3.47 C
3757 12-03-2011 07:48:02 -1.6 C 89 % -3.17 C
3758 12-03-2011 08:00:02 -1.2 C 89 % -2.78 C
3759 12-03-2011 08:12:02 -0.6 C 90 % -2.03 C
3760 12-03-2011 08:24:02 -0.2 C 90 % -1.64 C
3761 12-03-2011 08:36:02 0.1 C 90 % -1.34 C
3762 12-03-2011 08:48:02 0.3 C 90 % -1.14 C
3763 12-03-2011 09:00:02 0.5 C 90 % -0.95 C
3764 12-03-2011 09:12:02 1.2 C 89 % -0.41 C
3765 12-03-2011 09:24:02 1.7 C 89 % 0.09 C
3766 12-03-2011 09:36:02 2.3 C 88 % 0.52 C
3767 12-03-2011 09:48:02 3.1 C 86 % 0.99 C
3768 12-03-2011 10:00:02 3.7 C 84 % 1.25 C
3769 12-03-2011 10:12:02 4.3 C 82 % 1.51 C
3770 12-03-2011 10:24:02 6 C 75 % 1.91 C
3771 12-03-2011 10:36:02 7 C 68 % 1.51 C
3772 12-03-2011 10:48:02 7.6 C 63 % 1.02 C
3773 12-03-2011 11:00:02 8.5 C 60 % 1.19 C
3774 12-03-2011 11:12:01 10 C 53 % 0.87 C
3775 12-03-2011 11:24:02 10.9 C 48 % 0.34 C
Sensor: Nr:Datum:Temp:Feuchte:Taupunkt:
Aussen-T/F 3776 12-03-2011 11:36:02 11.8 C 45 % 0.27 C
3777 12-03-2011 11:48:02 12.5 C 42 % -0.05 C
3778 12-03-2011 12:00:02 13 C 38 % -0.97 C
3779 12-03-2011 12:12:02 13.7 C 38 % -0.34 C
3780 12-03-2011 12:24:02 14.8 C 35 % -0.49 C
3781 12-03-2011 12:36:02 15.6 C 35 % 0.21 C
3782 12-03-2011 12:48:01 15.9 C 32 % -0.75 C
3783 12-03-2011 13:00:01 15.3 C 34 % -0.45 C
3784 12-03-2011 13:12:01 15.3 C 34 % -0.45 C
3785 12-03-2011 13:24:01 16.8 C 32 % 0.03 C
3786 12-03-2011 13:36:01 16.8 C 32 % 0.03 C
3787 12-03-2011 13:48:01 16.6 C 30 % -1.02 C
3788 12-03-2011 14:00:01 16 C 30 % -1.54 C
3789 12-03-2011 14:12:01 16.9 C 30 % -0.76 C
3790 12-03-2011 14:24:02 16.7 C 31 % -0.49 C
3791 12-03-2011 14:36:01 16.8 C 30 % -0.85 C
3792 12-03-2011 14:48:03 16.5 C 32 % -0.23 C
3793 12-03-2011 15:00:03 16.4 C 32 % -0.32 C
3794 12-03-2011 15:12:02 15.6 C 32 % -1.01 C
3795 12-03-2011 15:24:03 16.2 C 32 % -0.49 C
3796 12-03-2011 15:36:02 16.2 C 32 % -0.49 C
3797 12-03-2011 15:48:02 17.1 C 30 % -0.59 C
3798 12-03-2011 16:00:02 17 C 31 % -0.23 C
3799 12-03-2011 16:12:02 17.4 C 30 % -0.33 C
3800 12-03-2011 16:24:02 18.5 C 27 % -0.83 C
Sensor: Nr:Datum:Temp:Feuchte:Taupunkt:
Aussen-T/F 3801 12-03-2011 16:36:03 18.6 C 27 % -0.74 C
3802 12-03-2011 16:48:02 18.6 C 27 % -0.74 C
3803 12-03-2011 17:00:02 17.9 C 28 % -0.84 C
3804 12-03-2011 17:12:01 16.3 C 33 % 0.02 C
3805 12-03-2011 17:24:02 14.7 C 39 % 0.91 C
3806 12-03-2011 17:36:02 13.6 C 43 % 1.27 C
3807 12-03-2011 17:48:02 12.4 C 47 % 1.42 C
3808 12-03-2011 18:00:02 11.4 C 50 % 1.36 C
3809 12-03-2011 18:12:03 11.2 C 51 % 1.45 C
3810 12-03-2011 18:24:02 10.9 C 53 % 1.71 C
3811 12-03-2011 18:36:03 10.8 C 53 % 1.62 C
3812 12-03-2011 18:48:01 10.6 C 53 % 1.43 C
3813 12-03-2011 19:00:01 10.7 C 51 % 0.99 C
3814 12-03-2011 19:12:02 10.7 C 48 % 0.15 C
3815 12-03-2011 19:24:02 10.8 C 46 % -0.34 C
3816 12-03-2011 19:36:02 11 C 43 % -1.08 C
3817 12-03-2011 19:48:02 11.2 C 45 % -0.28 C
3818 12-03-2011 20:00:02 10.7 C 45 % -0.73 C
3819 12-03-2011 20:12:03 11.1 C 42 % -1.31 C
3820 12-03-2011 20:24:02 11.4 C 41 % -1.37 C
3821 12-03-2011 20:36:02 11.7 C 41 % -1.1 C
3822 12-03-2011 20:48:01 11.8 C 41 % -1.01 C
3823 12-03-2011 21:00:01 12.3 C 38 % -1.59 C
3824 12-03-2011 21:12:02 12.1 C 40 % -1.07 C
3825 12-03-2011 21:24:01 12.5 C 39 % -1.06 C
Sensor: Nr:Datum:Temp:Feuchte:Taupunkt:
Aussen-T/F 3826 12-03-2011 21:36:01 12.4 C 40 % -0.8 C
3827 12-03-2011 21:48:01 11.8 C 42 % -0.68 C
3828 12-03-2011 22:00:01 12.2 C 42 % -0.32 C
3829 12-03-2011 22:13:02 11.8 C 43 % -0.36 C
3830 12-03-2011 22:25:02 12.5 C 41 % -0.38 C
3831 12-03-2011 22:37:02 12.2 C 42 % -0.32 C
3832 12-03-2011 22:49:02 11.8 C 44 % -0.04 C
3833 12-03-2011 23:01:02 11.4 C 46 % 0.21 C
3834 12-03-2011 23:13:02 11.4 C 46 % 0.21 C
3835 12-03-2011 23:25:02 11.2 C 46 % 0.02 C
3836 12-03-2011 23:37:02 11 C 48 % 0.43 C
3837 12-03-2011 23:49:02 10.7 C 51 % 0.99 C
3838 13-03-2011 00:01:02 10.5 C 53 % 1.34 C
3839 13-03-2011 00:13:02 10 C 58 % 2.13 C
3840 13-03-2011 00:25:02 10.1 C 59 % 2.46 C
3841 13-03-2011 00:37:02 9.8 C 61 % 2.65 C
3842 13-03-2011 00:49:02 10.1 C 59 % 2.46 C
3843 13-03-2011 01:01:02 9.7 C 61 % 2.55 C
3844 13-03-2011 01:13:02 9.8 C 61 % 2.65 C
3845 13-03-2011 01:25:02 10.1 C 59 % 2.46 C
3846 13-03-2011 01:37:02 10.8 C 57 % 2.63 C
3847 13-03-2011 01:49:02 10.7 C 57 % 2.54 C
3848 13-03-2011 02:01:02 10.9 C 58 % 2.97 C
3849 13-03-2011 02:13:02 10.7 C 58 % 2.79 C
3850 13-03-2011 02:25:03 10.5 C 60 % 3.08 C
Sensor: Nr:Datum:Temp:Feuchte:Taupunkt:
Aussen-T/F 3851 13-03-2011 02:37:03 10.5 C 60 % 3.08 C
3852 13-03-2011 02:49:03 10.4 C 61 % 3.21 C
3853 13-03-2011 03:01:03 10.5 C 60 % 3.08 C
3854 13-03-2011 03:13:03 10 C 61 % 2.84 C
3855 13-03-2011 03:25:03 9.7 C 64 % 3.23 C
3856 13-03-2011 03:37:03 9.8 C 63 % 3.1 C
3857 13-03-2011 03:49:03 9.9 C 64 % 3.42 C
3858 13-03-2011 04:01:03 9.8 C 63 % 3.1 C
3859 13-03-2011 04:13:03 9.6 C 64 % 3.14 C
3860 13-03-2011 04:25:03 9 C 68 % 3.42 C
3861 13-03-2011 04:37:03 8.5 C 76 % 4.52 C
3862 13-03-2011 04:49:03 8.4 C 80 % 5.16 C
3863 13-03-2011 05:01:03 8.1 C 81 % 5.04 C
3864 13-03-2011 05:13:03 8 C 83 % 5.29 C
3865 13-03-2011 05:25:03 7.9 C 85 % 5.54 C
3866 13-03-2011 05:37:03 7.8 C 85 % 5.44 C
3867 13-03-2011 05:49:03 7.7 C 86 % 5.51 C
3868 13-03-2011 06:01:03 7.6 C 86 % 5.41 C
3869 13-03-2011 06:13:03 7.9 C 86 % 5.71 C
3870 13-03-2011 06:25:03 7.8 C 86 % 5.61 C
3871 13-03-2011 06:37:04 7.6 C 86 % 5.41 C
3872 13-03-2011 06:49:04 7.6 C 85 % 5.24 C
3873 13-03-2011 07:01:02 7.6 C 85 % 5.24 C
3874 13-03-2011 07:13:02 7.8 C 85 % 5.44 C
3875 13-03-2011 07:25:02 7.8 C 85 % 5.44 C
Sensor: Nr:Datum:Temp:Feuchte:Taupunkt:
Aussen-T/F 3876 13-03-2011 07:37:02 7.9 C 84 % 5.37 C
3877 13-03-2011 07:49:01 8 C 83 % 5.29 C
3878 13-03-2011 08:01:02 8.1 C 83 % 5.39 C
3879 13-03-2011 08:13:02 8.4 C 82 % 5.51 C
3880 13-03-2011 08:25:02 8.6 C 81 % 5.53 C
3881 13-03-2011 08:37:02 9.1 C 77 % 5.29 C
3882 13-03-2011 08:49:02 9.4 C 75 % 5.2 C
3883 13-03-2011 09:01:02 9.9 C 72 % 5.1 C
3884 13-03-2011 09:13:02 10.3 C 68 % 4.66 C
3885 13-03-2011 09:25:01 10.8 C 66 % 4.71 C
3886 13-03-2011 09:37:02 11.3 C 64 % 4.75 C